<?xml version="1.0" encoding="UTF-8" standalone="no" ?>
<gpx xmlns="http://www.topografix.com/GPX/1/1" xmlns:xsi="http://www.w3.org/2001/XMLSchema-instance" xsi:schemaLocation="http://www.topografix.com/GPX/1/1 http://www.topografix.com/GPX/1/1/gpx.xsd" version="1.1" creator="VisuGPX - https://www.visugpx.com">
  <metadata>
    <name>Oberlarg-Autour du Morimont</name>
    <desc><![CDATA[Oberlarg-Autour du Morimont-28-03-2017]]></desc>
  </metadata>
  <trk>
    <name><![CDATA[Oberlarg-Autour du Moimont-28-03-2017]]></name>
    <trkseg>
      <trkpt lat="47.45781" lon="7.23436">
        <ele>533.19</ele>
        <time>2017-03-28T08:03:33Z</time>
      </trkpt>
      <trkpt lat="47.45781" lon="7.23436">
        <ele>534.15</ele>
        <time>2017-03-28T08:03:40Z</time>
      </trkpt>
      <trkpt lat="47.45782" lon="7.23439">
        <ele>532.71</ele>
        <time>2017-03-28T08:03:56Z</time>
      </trkpt>
      <trkpt lat="47.45775" lon="7.23442">
        <ele>532.71</ele>
        <time>2017-03-28T08:04:07Z</time>
      </trkpt>
      <trkpt lat="47.45767" lon="7.23442">
        <ele>531.75</ele>
        <time>2017-03-28T08:04:16Z</time>
      </trkpt>
      <trkpt lat="47.45758" lon="7.23447">
        <ele>530.79</ele>
        <time>2017-03-28T08:04:27Z</time>
      </trkpt>
      <trkpt lat="47.45758" lon="7.23454">
        <ele>532.23</ele>
        <time>2017-03-28T08:04:31Z</time>
      </trkpt>
      <trkpt lat="47.45758" lon="7.23465">
        <ele>533.19</ele>
        <time>2017-03-28T08:04:38Z</time>
      </trkpt>
      <trkpt lat="47.45757" lon="7.23486">
        <ele>535.11</ele>
        <time>2017-03-28T08:04:52Z</time>
      </trkpt>
      <trkpt lat="47.45758" lon="7.23507">
        <ele>536.55</ele>
        <time>2017-03-28T08:05:07Z</time>
      </trkpt>
      <trkpt lat="47.45753" lon="7.2353">
        <ele>538.96</ele>
        <time>2017-03-28T08:05:22Z</time>
      </trkpt>
      <trkpt lat="47.45743" lon="7.23543">
        <ele>540.88</ele>
        <time>2017-03-28T08:05:37Z</time>
      </trkpt>
      <trkpt lat="47.45733" lon="7.23553">
        <ele>542.32</ele>
        <time>2017-03-28T08:05:51Z</time>
      </trkpt>
      <trkpt lat="47.4572" lon="7.23562">
        <ele>543.28</ele>
        <time>2017-03-28T08:06:06Z</time>
      </trkpt>
      <trkpt lat="47.45705" lon="7.23576">
        <ele>543.28</ele>
        <time>2017-03-28T08:06:21Z</time>
      </trkpt>
      <trkpt lat="47.45702" lon="7.23582">
        <ele>543.76</ele>
        <time>2017-03-28T08:06:37Z</time>
      </trkpt>
      <trkpt lat="47.45698" lon="7.23586">
        <ele>543.76</ele>
        <time>2017-03-28T08:06:48Z</time>
      </trkpt>
      <trkpt lat="47.4569" lon="7.23597">
        <ele>543.76</ele>
        <time>2017-03-28T08:07:01Z</time>
      </trkpt>
      <trkpt lat="47.45682" lon="7.2362">
        <ele>543.76</ele>
        <time>2017-03-28T08:07:17Z</time>
      </trkpt>
      <trkpt lat="47.45677" lon="7.23634">
        <ele>544.72</ele>
        <time>2017-03-28T08:07:27Z</time>
      </trkpt>
      <trkpt lat="47.45675" lon="7.23641">
        <ele>544.72</ele>
        <time>2017-03-28T08:07:31Z</time>
      </trkpt>
      <trkpt lat="47.45662" lon="7.23667">
        <ele>545.2</ele>
        <time>2017-03-28T08:07:50Z</time>
      </trkpt>
      <trkpt lat="47.45654" lon="7.23682">
        <ele>546.65</ele>
        <time>2017-03-28T08:08:02Z</time>
      </trkpt>
      <trkpt lat="47.45641" lon="7.23701">
        <ele>548.57</ele>
        <time>2017-03-28T08:08:17Z</time>
      </trkpt>
      <trkpt lat="47.45636" lon="7.23727">
        <ele>549.05</ele>
        <time>2017-03-28T08:08:30Z</time>
      </trkpt>
      <trkpt lat="47.45628" lon="7.23748">
        <ele>549.53</ele>
        <time>2017-03-28T08:08:44Z</time>
      </trkpt>
      <trkpt lat="47.45629" lon="7.23774">
        <ele>550.01</ele>
        <time>2017-03-28T08:08:55Z</time>
      </trkpt>
      <trkpt lat="47.45621" lon="7.23797">
        <ele>550.49</ele>
        <time>2017-03-28T08:09:09Z</time>
      </trkpt>
      <trkpt lat="47.45618" lon="7.238">
        <ele>550.97</ele>
        <time>2017-03-28T08:09:12Z</time>
      </trkpt>
      <trkpt lat="47.45605" lon="7.23814">
        <ele>551.93</ele>
        <time>2017-03-28T08:09:27Z</time>
      </trkpt>
      <trkpt lat="47.45593" lon="7.23829">
        <ele>552.9</ele>
        <time>2017-03-28T08:09:41Z</time>
      </trkpt>
      <trkpt lat="47.45591" lon="7.23853">
        <ele>553.38</ele>
        <time>2017-03-28T08:09:52Z</time>
      </trkpt>
      <trkpt lat="47.45588" lon="7.2387">
        <ele>553.38</ele>
        <time>2017-03-28T08:10:00Z</time>
      </trkpt>
      <trkpt lat="47.45586" lon="7.23875">
        <ele>553.38</ele>
        <time>2017-03-28T08:10:03Z</time>
      </trkpt>
      <trkpt lat="47.45583" lon="7.23885">
        <ele>553.86</ele>
        <time>2017-03-28T08:10:08Z</time>
      </trkpt>
      <trkpt lat="47.4558" lon="7.23889">
        <ele>553.86</ele>
        <time>2017-03-28T08:10:12Z</time>
      </trkpt>
      <trkpt lat="47.45577" lon="7.2391">
        <ele>554.34</ele>
        <time>2017-03-28T08:10:22Z</time>
      </trkpt>
      <trkpt lat="47.45576" lon="7.23917">
        <ele>554.34</ele>
        <time>2017-03-28T08:10:26Z</time>
      </trkpt>
      <trkpt lat="47.45575" lon="7.23924">
        <ele>554.34</ele>
        <time>2017-03-28T08:10:31Z</time>
      </trkpt>
      <trkpt lat="47.45568" lon="7.23934">
        <ele>554.34</ele>
        <time>2017-03-28T08:10:41Z</time>
      </trkpt>
      <trkpt lat="47.45562" lon="7.23942">
        <ele>554.34</ele>
        <time>2017-03-28T08:10:48Z</time>
      </trkpt>
      <trkpt lat="47.4555" lon="7.23955">
        <ele>554.82</ele>
        <time>2017-03-28T08:11:02Z</time>
      </trkpt>
      <trkpt lat="47.45562" lon="7.23967">
        <ele>555.78</ele>
        <time>2017-03-28T08:11:24Z</time>
      </trkpt>
      <trkpt lat="47.45572" lon="7.23977">
        <ele>555.78</ele>
        <time>2017-03-28T08:11:49Z</time>
      </trkpt>
      <trkpt lat="47.45573" lon="7.23983">
        <ele>556.26</ele>
        <time>2017-03-28T08:12:06Z</time>
      </trkpt>
      <trkpt lat="47.45568" lon="7.23984">
        <ele>556.26</ele>
        <time>2017-03-28T08:12:22Z</time>
      </trkpt>
      <trkpt lat="47.45555" lon="7.23987">
        <ele>556.26</ele>
        <time>2017-03-28T08:12:44Z</time>
      </trkpt>
      <trkpt lat="47.45555" lon="7.24009">
        <ele>556.74</ele>
        <time>2017-03-28T08:13:04Z</time>
      </trkpt>
      <trkpt lat="47.45542" lon="7.24003">
        <ele>556.74</ele>
        <time>2017-03-28T08:13:19Z</time>
      </trkpt>
      <trkpt lat="47.45525" lon="7.24007">
        <ele>557.7</ele>
        <time>2017-03-28T08:13:33Z</time>
      </trkpt>
      <trkpt lat="47.4552" lon="7.24015">
        <ele>558.18</ele>
        <time>2017-03-28T08:13:41Z</time>
      </trkpt>
      <trkpt lat="47.4551" lon="7.24022">
        <ele>559.14</ele>
        <time>2017-03-28T08:13:53Z</time>
      </trkpt>
      <trkpt lat="47.45499" lon="7.24033">
        <ele>560.11</ele>
        <time>2017-03-28T08:14:06Z</time>
      </trkpt>
      <trkpt lat="47.45494" lon="7.24043">
        <ele>561.55</ele>
        <time>2017-03-28T08:14:16Z</time>
      </trkpt>
      <trkpt lat="47.45491" lon="7.24044">
        <ele>562.03</ele>
        <time>2017-03-28T08:14:20Z</time>
      </trkpt>
      <trkpt lat="47.45489" lon="7.24048">
        <ele>562.99</ele>
        <time>2017-03-28T08:14:23Z</time>
      </trkpt>
      <trkpt lat="47.45486" lon="7.24047">
        <ele>563.47</ele>
        <time>2017-03-28T08:14:26Z</time>
      </trkpt>
      <trkpt lat="47.45474" lon="7.24054">
        <ele>565.87</ele>
        <time>2017-03-28T08:14:39Z</time>
      </trkpt>
      <trkpt lat="47.45465" lon="7.24056">
        <ele>567.8</ele>
        <time>2017-03-28T08:14:50Z</time>
      </trkpt>
      <trkpt lat="47.45462" lon="7.24055">
        <ele>568.28</ele>
        <time>2017-03-28T08:14:53Z</time>
      </trkpt>
      <trkpt lat="47.45457" lon="7.24054">
        <ele>568.76</ele>
        <time>2017-03-28T08:14:56Z</time>
      </trkpt>
      <trkpt lat="47.45452" lon="7.24052">
        <ele>569.24</ele>
        <time>2017-03-28T08:14:59Z</time>
      </trkpt>
      <trkpt lat="47.45444" lon="7.24054">
        <ele>571.64</ele>
        <time>2017-03-28T08:15:10Z</time>
      </trkpt>
      <trkpt lat="47.45438" lon="7.24053">
        <ele>572.6</ele>
        <time>2017-03-28T08:15:15Z</time>
      </trkpt>
      <trkpt lat="47.45422" lon="7.24042">
        <ele>575.49</ele>
        <time>2017-03-28T08:15:30Z</time>
      </trkpt>
      <trkpt lat="47.45411" lon="7.24036">
        <ele>577.89</ele>
        <time>2017-03-28T08:15:41Z</time>
      </trkpt>
      <trkpt lat="47.45408" lon="7.24035">
        <ele>577.89</ele>
        <time>2017-03-28T08:15:44Z</time>
      </trkpt>
      <trkpt lat="47.45395" lon="7.24029">
        <ele>579.81</ele>
        <time>2017-03-28T08:15:56Z</time>
      </trkpt>
      <trkpt lat="47.45386" lon="7.24025">
        <ele>581.25</ele>
        <time>2017-03-28T08:16:05Z</time>
      </trkpt>
      <trkpt lat="47.45362" lon="7.24023">
        <ele>583.66</ele>
        <time>2017-03-28T08:16:21Z</time>
      </trkpt>
      <trkpt lat="47.45347" lon="7.24018">
        <ele>585.58</ele>
        <time>2017-03-28T08:16:35Z</time>
      </trkpt>
      <trkpt lat="47.45339" lon="7.24017">
        <ele>586.06</ele>
        <time>2017-03-28T08:16:41Z</time>
      </trkpt>
      <trkpt lat="47.45335" lon="7.24016">
        <ele>587.02</ele>
        <time>2017-03-28T08:16:43Z</time>
      </trkpt>
      <trkpt lat="47.45317" lon="7.24012">
        <ele>588.95</ele>
        <time>2017-03-28T08:16:55Z</time>
      </trkpt>
      <trkpt lat="47.45306" lon="7.24011">
        <ele>589.91</ele>
        <time>2017-03-28T08:17:04Z</time>
      </trkpt>
      <trkpt lat="47.45287" lon="7.24009">
        <ele>592.31</ele>
        <time>2017-03-28T08:17:18Z</time>
      </trkpt>
      <trkpt lat="47.45276" lon="7.24012">
        <ele>593.75</ele>
        <time>2017-03-28T08:17:29Z</time>
      </trkpt>
      <trkpt lat="47.45269" lon="7.24012">
        <ele>595.19</ele>
        <time>2017-03-28T08:17:37Z</time>
      </trkpt>
      <trkpt lat="47.45263" lon="7.24012">
        <ele>596.15</ele>
        <time>2017-03-28T08:17:43Z</time>
      </trkpt>
      <trkpt lat="47.45256" lon="7.24011">
        <ele>597.12</ele>
        <time>2017-03-28T08:17:49Z</time>
      </trkpt>
      <trkpt lat="47.45255" lon="7.24011">
        <ele>598.08</ele>
        <time>2017-03-28T08:17:51Z</time>
      </trkpt>
      <trkpt lat="47.45249" lon="7.24013">
        <ele>599.04</ele>
        <time>2017-03-28T08:17:56Z</time>
      </trkpt>
      <trkpt lat="47.45236" lon="7.24011">
        <ele>600.96</ele>
        <time>2017-03-28T08:18:07Z</time>
      </trkpt>
      <trkpt lat="47.45222" lon="7.2401">
        <ele>602.88</ele>
        <time>2017-03-28T08:18:18Z</time>
      </trkpt>
      <trkpt lat="47.45207" lon="7.24011">
        <ele>606.73</ele>
        <time>2017-03-28T08:18:32Z</time>
      </trkpt>
      <trkpt lat="47.452" lon="7.24013">
        <ele>608.17</ele>
        <time>2017-03-28T08:18:43Z</time>
      </trkpt>
      <trkpt lat="47.45194" lon="7.24013">
        <ele>611.06</ele>
        <time>2017-03-28T08:18:55Z</time>
      </trkpt>
      <trkpt lat="47.45182" lon="7.2401">
        <ele>614.42</ele>
        <time>2017-03-28T08:19:09Z</time>
      </trkpt>
      <trkpt lat="47.4517" lon="7.24007">
        <ele>616.82</ele>
        <time>2017-03-28T08:19:21Z</time>
      </trkpt>
      <trkpt lat="47.45167" lon="7.24003">
        <ele>617.78</ele>
        <time>2017-03-28T08:19:24Z</time>
      </trkpt>
      <trkpt lat="47.45161" lon="7.23998">
        <ele>620.19</ele>
        <time>2017-03-28T08:19:33Z</time>
      </trkpt>
      <trkpt lat="47.45154" lon="7.23992">
        <ele>623.07</ele>
        <time>2017-03-28T08:19:44Z</time>
      </trkpt>
      <trkpt lat="47.45149" lon="7.23983">
        <ele>625.96</ele>
        <time>2017-03-28T08:19:55Z</time>
      </trkpt>
      <trkpt lat="47.45136" lon="7.23976">
        <ele>628.84</ele>
        <time>2017-03-28T08:20:06Z</time>
      </trkpt>
      <trkpt lat="47.45129" lon="7.23972">
        <ele>631.24</ele>
        <time>2017-03-28T08:20:16Z</time>
      </trkpt>
      <trkpt lat="47.45124" lon="7.2397">
        <ele>633.65</ele>
        <time>2017-03-28T08:20:27Z</time>
      </trkpt>
      <trkpt lat="47.45105" lon="7.2396">
        <ele>635.57</ele>
        <time>2017-03-28T08:20:40Z</time>
      </trkpt>
      <trkpt lat="47.45094" lon="7.23951">
        <ele>637.97</ele>
        <time>2017-03-28T08:20:50Z</time>
      </trkpt>
      <trkpt lat="47.45078" lon="7.23944">
        <ele>640.38</ele>
        <time>2017-03-28T08:21:00Z</time>
      </trkpt>
      <trkpt lat="47.45056" lon="7.23939">
        <ele>643.26</ele>
        <time>2017-03-28T08:21:12Z</time>
      </trkpt>
      <trkpt lat="47.4504" lon="7.23934">
        <ele>644.7</ele>
        <time>2017-03-28T08:21:23Z</time>
      </trkpt>
      <trkpt lat="47.45032" lon="7.23931">
        <ele>646.14</ele>
        <time>2017-03-28T08:21:29Z</time>
      </trkpt>
      <trkpt lat="47.45019" lon="7.23929">
        <ele>647.59</ele>
        <time>2017-03-28T08:21:39Z</time>
      </trkpt>
      <trkpt lat="47.45008" lon="7.23926">
        <ele>649.51</ele>
        <time>2017-03-28T08:21:51Z</time>
      </trkpt>
      <trkpt lat="47.45" lon="7.23919">
        <ele>651.43</ele>
        <time>2017-03-28T08:22:02Z</time>
      </trkpt>
      <trkpt lat="47.44998" lon="7.23919">
        <ele>651.43</ele>
        <time>2017-03-28T08:22:04Z</time>
      </trkpt>
      <trkpt lat="47.4499" lon="7.23915">
        <ele>653.35</ele>
        <time>2017-03-28T08:22:13Z</time>
      </trkpt>
      <trkpt lat="47.44984" lon="7.23906">
        <ele>654.8</ele>
        <time>2017-03-28T08:22:23Z</time>
      </trkpt>
      <trkpt lat="47.44969" lon="7.23893">
        <ele>656.72</ele>
        <time>2017-03-28T08:22:36Z</time>
      </trkpt>
      <trkpt lat="47.44968" lon="7.23892">
        <ele>657.2</ele>
        <time>2017-03-28T08:22:37Z</time>
      </trkpt>
      <trkpt lat="47.44956" lon="7.23882">
        <ele>659.6</ele>
        <time>2017-03-28T08:22:49Z</time>
      </trkpt>
      <trkpt lat="47.44939" lon="7.23871">
        <ele>662.01</ele>
        <time>2017-03-28T08:23:01Z</time>
      </trkpt>
      <trkpt lat="47.44935" lon="7.23869">
        <ele>662.97</ele>
        <time>2017-03-28T08:23:05Z</time>
      </trkpt>
      <trkpt lat="47.44922" lon="7.23862">
        <ele>664.89</ele>
        <time>2017-03-28T08:23:14Z</time>
      </trkpt>
      <trkpt lat="47.449" lon="7.2386">
        <ele>667.29</ele>
        <time>2017-03-28T08:23:25Z</time>
      </trkpt>
      <trkpt lat="47.44878" lon="7.23872">
        <ele>669.7</ele>
        <time>2017-03-28T08:23:39Z</time>
      </trkpt>
      <trkpt lat="47.44868" lon="7.23889">
        <ele>672.58</ele>
        <time>2017-03-28T08:23:52Z</time>
      </trkpt>
      <trkpt lat="47.44862" lon="7.23905">
        <ele>674.98</ele>
        <time>2017-03-28T08:24:04Z</time>
      </trkpt>
      <trkpt lat="47.4485" lon="7.23924">
        <ele>676.91</ele>
        <time>2017-03-28T08:24:18Z</time>
      </trkpt>
      <trkpt lat="47.44862" lon="7.23942">
        <ele>677.87</ele>
        <time>2017-03-28T08:24:37Z</time>
      </trkpt>
      <trkpt lat="47.44861" lon="7.23952">
        <ele>678.35</ele>
        <time>2017-03-28T08:25:04Z</time>
      </trkpt>
      <trkpt lat="47.44858" lon="7.23951">
        <ele>678.35</ele>
        <time>2017-03-28T08:25:27Z</time>
      </trkpt>
      <trkpt lat="47.44858" lon="7.23946">
        <ele>678.35</ele>
        <time>2017-03-28T08:25:47Z</time>
      </trkpt>
      <trkpt lat="47.44861" lon="7.23942">
        <ele>678.35</ele>
        <time>2017-03-28T08:26:04Z</time>
      </trkpt>
      <trkpt lat="47.44861" lon="7.23939">
        <ele>678.35</ele>
        <time>2017-03-28T08:26:30Z</time>
      </trkpt>
      <trkpt lat="47.44859" lon="7.23936">
        <ele>678.35</ele>
        <time>2017-03-28T08:26:55Z</time>
      </trkpt>
      <trkpt lat="47.44861" lon="7.23935">
        <ele>678.35</ele>
        <time>2017-03-28T08:27:16Z</time>
      </trkpt>
      <trkpt lat="47.44858" lon="7.23944">
        <ele>678.35</ele>
        <time>2017-03-28T08:27:42Z</time>
      </trkpt>
      <trkpt lat="47.44863" lon="7.23951">
        <ele>678.35</ele>
        <time>2017-03-28T08:28:13Z</time>
      </trkpt>
      <trkpt lat="47.44861" lon="7.23948">
        <ele>678.35</ele>
        <time>2017-03-28T08:28:33Z</time>
      </trkpt>
      <trkpt lat="47.44857" lon="7.23946">
        <ele>678.35</ele>
        <time>2017-03-28T08:28:53Z</time>
      </trkpt>
      <trkpt lat="47.44857" lon="7.23949">
        <ele>678.35</ele>
        <time>2017-03-28T08:29:06Z</time>
      </trkpt>
      <trkpt lat="47.44857" lon="7.23949">
        <ele>678.35</ele>
        <time>2017-03-28T08:29:23Z</time>
      </trkpt>
      <trkpt lat="47.4486" lon="7.23949">
        <ele>678.35</ele>
        <time>2017-03-28T08:29:49Z</time>
      </trkpt>
      <trkpt lat="47.44868" lon="7.23955">
        <ele>678.35</ele>
        <time>2017-03-28T08:30:21Z</time>
      </trkpt>
      <trkpt lat="47.44864" lon="7.23951">
        <ele>678.35</ele>
        <time>2017-03-28T08:30:53Z</time>
      </trkpt>
      <trkpt lat="47.44857" lon="7.23952">
        <ele>678.35</ele>
        <time>2017-03-28T08:31:14Z</time>
      </trkpt>
      <trkpt lat="47.44864" lon="7.23948">
        <ele>678.35</ele>
        <time>2017-03-28T08:31:36Z</time>
      </trkpt>
      <trkpt lat="47.44864" lon="7.23943">
        <ele>678.35</ele>
        <time>2017-03-28T08:32:06Z</time>
      </trkpt>
      <trkpt lat="47.44857" lon="7.23953">
        <ele>679.31</ele>
        <time>2017-03-28T08:32:21Z</time>
      </trkpt>
      <trkpt lat="47.44849" lon="7.23958">
        <ele>679.79</ele>
        <time>2017-03-28T08:32:27Z</time>
      </trkpt>
      <trkpt lat="47.44843" lon="7.23968">
        <ele>681.23</ele>
        <time>2017-03-28T08:32:37Z</time>
      </trkpt>
      <trkpt lat="47.4484" lon="7.23982">
        <ele>683.15</ele>
        <time>2017-03-28T08:32:49Z</time>
      </trkpt>
      <trkpt lat="47.44833" lon="7.24002">
        <ele>685.08</ele>
        <time>2017-03-28T08:33:03Z</time>
      </trkpt>
      <trkpt lat="47.44828" lon="7.24017">
        <ele>686.04</ele>
        <time>2017-03-28T08:33:11Z</time>
      </trkpt>
      <trkpt lat="47.44819" lon="7.24036">
        <ele>687.96</ele>
        <time>2017-03-28T08:33:25Z</time>
      </trkpt>
      <trkpt lat="47.44817" lon="7.24046">
        <ele>688.92</ele>
        <time>2017-03-28T08:33:33Z</time>
      </trkpt>
      <trkpt lat="47.44811" lon="7.24062">
        <ele>690.84</ele>
        <time>2017-03-28T08:33:46Z</time>
      </trkpt>
      <trkpt lat="47.44807" lon="7.24076">
        <ele>692.77</ele>
        <time>2017-03-28T08:33:58Z</time>
      </trkpt>
      <trkpt lat="47.44804" lon="7.24084">
        <ele>694.69</ele>
        <time>2017-03-28T08:34:05Z</time>
      </trkpt>
      <trkpt lat="47.44793" lon="7.2409">
        <ele>696.13</ele>
        <time>2017-03-28T08:34:19Z</time>
      </trkpt>
      <trkpt lat="47.44783" lon="7.24111">
        <ele>697.09</ele>
        <time>2017-03-28T08:34:33Z</time>
      </trkpt>
      <trkpt lat="47.4478" lon="7.24112">
        <ele>698.53</ele>
        <time>2017-03-28T08:34:35Z</time>
      </trkpt>
      <trkpt lat="47.44768" lon="7.24123">
        <ele>699.98</ele>
        <time>2017-03-28T08:34:50Z</time>
      </trkpt>
      <trkpt lat="47.44757" lon="7.2413">
        <ele>701.9</ele>
        <time>2017-03-28T08:35:03Z</time>
      </trkpt>
      <trkpt lat="47.44745" lon="7.24137">
        <ele>703.82</ele>
        <time>2017-03-28T08:35:16Z</time>
      </trkpt>
      <trkpt lat="47.44734" lon="7.24145">
        <ele>705.75</ele>
        <time>2017-03-28T08:35:28Z</time>
      </trkpt>
      <trkpt lat="47.44729" lon="7.24151">
        <ele>706.71</ele>
        <time>2017-03-28T08:35:35Z</time>
      </trkpt>
      <trkpt lat="47.44719" lon="7.2416">
        <ele>708.15</ele>
        <time>2017-03-28T08:35:46Z</time>
      </trkpt>
      <trkpt lat="47.44704" lon="7.24171">
        <ele>709.59</ele>
        <time>2017-03-28T08:35:59Z</time>
      </trkpt>
      <trkpt lat="47.44698" lon="7.24179">
        <ele>710.55</ele>
        <time>2017-03-28T08:36:07Z</time>
      </trkpt>
      <trkpt lat="47.44688" lon="7.24188">
        <ele>712.47</ele>
        <time>2017-03-28T08:36:20Z</time>
      </trkpt>
      <trkpt lat="47.44675" lon="7.24197">
        <ele>713.92</ele>
        <time>2017-03-28T08:36:32Z</time>
      </trkpt>
      <trkpt lat="47.44666" lon="7.24205">
        <ele>715.36</ele>
        <time>2017-03-28T08:36:44Z</time>
      </trkpt>
      <trkpt lat="47.44658" lon="7.2421">
        <ele>716.8</ele>
        <time>2017-03-28T08:36:53Z</time>
      </trkpt>
      <trkpt lat="47.44653" lon="7.24211">
        <ele>717.28</ele>
        <time>2017-03-28T08:36:56Z</time>
      </trkpt>
      <trkpt lat="47.44648" lon="7.24212">
        <ele>717.76</ele>
        <time>2017-03-28T08:37:00Z</time>
      </trkpt>
      <trkpt lat="47.44643" lon="7.24217">
        <ele>719.2</ele>
        <time>2017-03-28T08:37:06Z</time>
      </trkpt>
      <trkpt lat="47.44631" lon="7.24225">
        <ele>720.16</ele>
        <time>2017-03-28T08:37:19Z</time>
      </trkpt>
      <trkpt lat="47.4462" lon="7.24235">
        <ele>722.09</ele>
        <time>2017-03-28T08:37:31Z</time>
      </trkpt>
      <trkpt lat="47.44605" lon="7.24242">
        <ele>724.01</ele>
        <time>2017-03-28T08:37:44Z</time>
      </trkpt>
      <trkpt lat="47.44604" lon="7.24242">
        <ele>724.01</ele>
        <time>2017-03-28T08:37:45Z</time>
      </trkpt>
      <trkpt lat="47.44593" lon="7.24247">
        <ele>725.93</ele>
        <time>2017-03-28T08:37:57Z</time>
      </trkpt>
      <trkpt lat="47.44585" lon="7.24251">
        <ele>726.41</ele>
        <time>2017-03-28T08:38:05Z</time>
      </trkpt>
      <trkpt lat="47.44567" lon="7.24259">
        <ele>727.86</ele>
        <time>2017-03-28T08:38:22Z</time>
      </trkpt>
      <trkpt lat="47.4455" lon="7.24264">
        <ele>728.34</ele>
        <time>2017-03-28T08:38:35Z</time>
      </trkpt>
      <trkpt lat="47.44535" lon="7.2427">
        <ele>728.82</ele>
        <time>2017-03-28T08:38:48Z</time>
      </trkpt>
      <trkpt lat="47.44514" lon="7.24281">
        <ele>729.3</ele>
        <time>2017-03-28T08:39:03Z</time>
      </trkpt>
      <trkpt lat="47.44489" lon="7.24287">
        <ele>730.26</ele>
        <time>2017-03-28T08:39:20Z</time>
      </trkpt>
      <trkpt lat="47.44492" lon="7.24314">
        <ele>730.26</ele>
        <time>2017-03-28T08:39:35Z</time>
      </trkpt>
      <trkpt lat="47.44487" lon="7.24326">
        <ele>730.26</ele>
        <time>2017-03-28T08:40:04Z</time>
      </trkpt>
      <trkpt lat="47.44489" lon="7.24326">
        <ele>730.26</ele>
        <time>2017-03-28T08:40:17Z</time>
      </trkpt>
      <trkpt lat="47.44493" lon="7.24318">
        <ele>729.78</ele>
        <time>2017-03-28T08:40:37Z</time>
      </trkpt>
      <trkpt lat="47.44491" lon="7.24316">
        <ele>729.78</ele>
        <time>2017-03-28T08:41:07Z</time>
      </trkpt>
      <trkpt lat="47.44487" lon="7.2432">
        <ele>729.3</ele>
        <time>2017-03-28T08:41:36Z</time>
      </trkpt>
      <trkpt lat="47.44484" lon="7.24321">
        <ele>728.82</ele>
        <time>2017-03-28T08:42:04Z</time>
      </trkpt>
      <trkpt lat="47.44485" lon="7.24324">
        <ele>728.82</ele>
        <time>2017-03-28T08:42:34Z</time>
      </trkpt>
      <trkpt lat="47.44487" lon="7.24327">
        <ele>728.34</ele>
        <time>2017-03-28T08:42:43Z</time>
      </trkpt>
      <trkpt lat="47.44487" lon="7.2433">
        <ele>727.37</ele>
        <time>2017-03-28T08:42:45Z</time>
      </trkpt>
      <trkpt lat="47.44488" lon="7.24349">
        <ele>725.45</ele>
        <time>2017-03-28T08:43:01Z</time>
      </trkpt>
      <trkpt lat="47.44487" lon="7.2435">
        <ele>725.45</ele>
        <time>2017-03-28T08:43:02Z</time>
      </trkpt>
      <trkpt lat="47.44486" lon="7.24352">
        <ele>724.97</ele>
        <time>2017-03-28T08:43:04Z</time>
      </trkpt>
      <trkpt lat="47.44486" lon="7.24356">
        <ele>724.01</ele>
        <time>2017-03-28T08:43:06Z</time>
      </trkpt>
      <trkpt lat="47.44479" lon="7.24376">
        <ele>722.09</ele>
        <time>2017-03-28T08:43:21Z</time>
      </trkpt>
      <trkpt lat="47.44463" lon="7.24397">
        <ele>718.72</ele>
        <time>2017-03-28T08:43:38Z</time>
      </trkpt>
      <trkpt lat="47.44445" lon="7.24479">
        <ele>698.05</ele>
        <time>2017-03-28T08:44:43Z</time>
      </trkpt>
      <trkpt lat="47.44446" lon="7.24483">
        <ele>698.05</ele>
        <time>2017-03-28T08:44:46Z</time>
      </trkpt>
      <trkpt lat="47.44445" lon="7.24487">
        <ele>698.05</ele>
        <time>2017-03-28T08:44:48Z</time>
      </trkpt>
      <trkpt lat="47.44435" lon="7.24492">
        <ele>698.53</ele>
        <time>2017-03-28T08:44:56Z</time>
      </trkpt>
      <trkpt lat="47.44417" lon="7.24481">
        <ele>698.53</ele>
        <time>2017-03-28T08:45:11Z</time>
      </trkpt>
      <trkpt lat="47.44399" lon="7.2447">
        <ele>701.42</ele>
        <time>2017-03-28T08:45:27Z</time>
      </trkpt>
      <trkpt lat="47.44389" lon="7.24469">
        <ele>700.94</ele>
        <time>2017-03-28T08:45:36Z</time>
      </trkpt>
      <trkpt lat="47.4437" lon="7.24479">
        <ele>699.5</ele>
        <time>2017-03-28T08:45:55Z</time>
      </trkpt>
      <trkpt lat="47.44354" lon="7.24497">
        <ele>697.57</ele>
        <time>2017-03-28T08:46:09Z</time>
      </trkpt>
      <trkpt lat="47.44344" lon="7.24507">
        <ele>697.57</ele>
        <time>2017-03-28T08:46:19Z</time>
      </trkpt>
      <trkpt lat="47.44339" lon="7.24512">
        <ele>695.17</ele>
        <time>2017-03-28T08:46:24Z</time>
      </trkpt>
      <trkpt lat="47.443" lon="7.24548">
        <ele>694.69</ele>
        <time>2017-03-28T08:46:58Z</time>
      </trkpt>
      <trkpt lat="47.44299" lon="7.24547">
        <ele>693.73</ele>
        <time>2017-03-28T08:47:00Z</time>
      </trkpt>
      <trkpt lat="47.44296" lon="7.24546">
        <ele>693.25</ele>
        <time>2017-03-28T08:47:05Z</time>
      </trkpt>
      <trkpt lat="47.44279" lon="7.24552">
        <ele>692.29</ele>
        <time>2017-03-28T08:47:22Z</time>
      </trkpt>
      <trkpt lat="47.44255" lon="7.24569">
        <ele>690.84</ele>
        <time>2017-03-28T08:47:42Z</time>
      </trkpt>
      <trkpt lat="47.44229" lon="7.24586">
        <ele>688.44</ele>
        <time>2017-03-28T08:48:06Z</time>
      </trkpt>
      <trkpt lat="47.44203" lon="7.24602">
        <ele>687.96</ele>
        <time>2017-03-28T08:48:29Z</time>
      </trkpt>
      <trkpt lat="47.4418" lon="7.24618">
        <ele>686.04</ele>
        <time>2017-03-28T08:48:49Z</time>
      </trkpt>
      <trkpt lat="47.44173" lon="7.24623">
        <ele>686.52</ele>
        <time>2017-03-28T08:48:55Z</time>
      </trkpt>
      <trkpt lat="47.44152" lon="7.24636">
        <ele>686.04</ele>
        <time>2017-03-28T08:49:13Z</time>
      </trkpt>
      <trkpt lat="47.44146" lon="7.2464">
        <ele>685.56</ele>
        <time>2017-03-28T08:49:18Z</time>
      </trkpt>
      <trkpt lat="47.4413" lon="7.24653">
        <ele>685.08</ele>
        <time>2017-03-28T08:49:32Z</time>
      </trkpt>
      <trkpt lat="47.44106" lon="7.2467">
        <ele>684.12</ele>
        <time>2017-03-28T08:49:53Z</time>
      </trkpt>
      <trkpt lat="47.44102" lon="7.24698">
        <ele>683.15</ele>
        <time>2017-03-28T08:50:10Z</time>
      </trkpt>
      <trkpt lat="47.44112" lon="7.24728">
        <ele>682.67</ele>
        <time>2017-03-28T08:50:28Z</time>
      </trkpt>
      <trkpt lat="47.44126" lon="7.24759">
        <ele>682.19</ele>
        <time>2017-03-28T08:50:46Z</time>
      </trkpt>
      <trkpt lat="47.44141" lon="7.24791">
        <ele>681.71</ele>
        <time>2017-03-28T08:51:05Z</time>
      </trkpt>
      <trkpt lat="47.44153" lon="7.24822">
        <ele>680.75</ele>
        <time>2017-03-28T08:51:23Z</time>
      </trkpt>
      <trkpt lat="47.44165" lon="7.24858">
        <ele>680.27</ele>
        <time>2017-03-28T08:51:45Z</time>
      </trkpt>
      <trkpt lat="47.44176" lon="7.24886">
        <ele>679.79</ele>
        <time>2017-03-28T08:52:02Z</time>
      </trkpt>
      <trkpt lat="47.44178" lon="7.2489">
        <ele>679.79</ele>
        <time>2017-03-28T08:52:05Z</time>
      </trkpt>
      <trkpt lat="47.44187" lon="7.24917">
        <ele>679.31</ele>
        <time>2017-03-28T08:52:22Z</time>
      </trkpt>
      <trkpt lat="47.44201" lon="7.24953">
        <ele>678.83</ele>
        <time>2017-03-28T08:52:41Z</time>
      </trkpt>
      <trkpt lat="47.44203" lon="7.24961">
        <ele>678.35</ele>
        <time>2017-03-28T08:52:52Z</time>
      </trkpt>
      <trkpt lat="47.44207" lon="7.24965">
        <ele>678.35</ele>
        <time>2017-03-28T08:53:05Z</time>
      </trkpt>
      <trkpt lat="47.44219" lon="7.24954">
        <ele>677.87</ele>
        <time>2017-03-28T08:53:23Z</time>
      </trkpt>
      <trkpt lat="47.44226" lon="7.24945">
        <ele>677.87</ele>
        <time>2017-03-28T08:53:31Z</time>
      </trkpt>
      <trkpt lat="47.44242" lon="7.24939">
        <ele>677.87</ele>
        <time>2017-03-28T08:53:46Z</time>
      </trkpt>
      <trkpt lat="47.44247" lon="7.24942">
        <ele>677.87</ele>
        <time>2017-03-28T08:53:50Z</time>
      </trkpt>
      <trkpt lat="47.44251" lon="7.24948">
        <ele>677.87</ele>
        <time>2017-03-28T08:53:55Z</time>
      </trkpt>
      <trkpt lat="47.44264" lon="7.24981">
        <ele>677.87</ele>
        <time>2017-03-28T08:54:16Z</time>
      </trkpt>
      <trkpt lat="47.44271" lon="7.25012">
        <ele>677.39</ele>
        <time>2017-03-28T08:54:33Z</time>
      </trkpt>
      <trkpt lat="47.44274" lon="7.25038">
        <ele>676.91</ele>
        <time>2017-03-28T08:54:49Z</time>
      </trkpt>
      <trkpt lat="47.44275" lon="7.25041">
        <ele>676.91</ele>
        <time>2017-03-28T08:54:51Z</time>
      </trkpt>
      <trkpt lat="47.44284" lon="7.25068">
        <ele>676.91</ele>
        <time>2017-03-28T08:55:07Z</time>
      </trkpt>
      <trkpt lat="47.44294" lon="7.25097">
        <ele>676.42</ele>
        <time>2017-03-28T08:55:26Z</time>
      </trkpt>
      <trkpt lat="47.44306" lon="7.25125">
        <ele>676.42</ele>
        <time>2017-03-28T08:55:44Z</time>
      </trkpt>
      <trkpt lat="47.44312" lon="7.25132">
        <ele>676.42</ele>
        <time>2017-03-28T08:55:51Z</time>
      </trkpt>
      <trkpt lat="47.44325" lon="7.25167">
        <ele>676.42</ele>
        <time>2017-03-28T08:56:13Z</time>
      </trkpt>
      <trkpt lat="47.4433" lon="7.25181">
        <ele>675.94</ele>
        <time>2017-03-28T08:56:22Z</time>
      </trkpt>
      <trkpt lat="47.44333" lon="7.25186">
        <ele>675.94</ele>
        <time>2017-03-28T08:56:26Z</time>
      </trkpt>
      <trkpt lat="47.44339" lon="7.25213">
        <ele>675.94</ele>
        <time>2017-03-28T08:56:42Z</time>
      </trkpt>
      <trkpt lat="47.44339" lon="7.25215">
        <ele>675.94</ele>
        <time>2017-03-28T08:56:43Z</time>
      </trkpt>
      <trkpt lat="47.44326" lon="7.25225">
        <ele>677.39</ele>
        <time>2017-03-28T08:56:54Z</time>
      </trkpt>
      <trkpt lat="47.44302" lon="7.25226">
        <ele>677.39</ele>
        <time>2017-03-28T08:57:15Z</time>
      </trkpt>
      <trkpt lat="47.44285" lon="7.25229">
        <ele>675.46</ele>
        <time>2017-03-28T08:57:35Z</time>
      </trkpt>
      <trkpt lat="47.44287" lon="7.25242">
        <ele>674.98</ele>
        <time>2017-03-28T08:57:53Z</time>
      </trkpt>
      <trkpt lat="47.44289" lon="7.25253">
        <ele>674.98</ele>
        <time>2017-03-28T08:57:59Z</time>
      </trkpt>
      <trkpt lat="47.4429" lon="7.25266">
        <ele>674.98</ele>
        <time>2017-03-28T08:58:14Z</time>
      </trkpt>
      <trkpt lat="47.4429" lon="7.25267">
        <ele>674.98</ele>
        <time>2017-03-28T08:58:18Z</time>
      </trkpt>
      <trkpt lat="47.44291" lon="7.25272">
        <ele>674.98</ele>
        <time>2017-03-28T08:58:23Z</time>
      </trkpt>
      <trkpt lat="47.44292" lon="7.25296">
        <ele>674.98</ele>
        <time>2017-03-28T08:58:39Z</time>
      </trkpt>
      <trkpt lat="47.44291" lon="7.25319">
        <ele>668.25</ele>
        <time>2017-03-28T08:58:53Z</time>
      </trkpt>
      <trkpt lat="47.44292" lon="7.25322">
        <ele>674.5</ele>
        <time>2017-03-28T08:58:54Z</time>
      </trkpt>
      <trkpt lat="47.4429" lon="7.25343">
        <ele>674.02</ele>
        <time>2017-03-28T08:59:08Z</time>
      </trkpt>
      <trkpt lat="47.44291" lon="7.25351">
        <ele>674.02</ele>
        <time>2017-03-28T08:59:13Z</time>
      </trkpt>
      <trkpt lat="47.44291" lon="7.25361">
        <ele>674.02</ele>
        <time>2017-03-28T08:59:18Z</time>
      </trkpt>
      <trkpt lat="47.44293" lon="7.25388">
        <ele>673.54</ele>
        <time>2017-03-28T08:59:34Z</time>
      </trkpt>
      <trkpt lat="47.44295" lon="7.25414">
        <ele>673.06</ele>
        <time>2017-03-28T08:59:50Z</time>
      </trkpt>
      <trkpt lat="47.44297" lon="7.25428">
        <ele>673.06</ele>
        <time>2017-03-28T08:59:58Z</time>
      </trkpt>
      <trkpt lat="47.44297" lon="7.25431">
        <ele>673.06</ele>
        <time>2017-03-28T09:00:00Z</time>
      </trkpt>
      <trkpt lat="47.44296" lon="7.25457">
        <ele>672.58</ele>
        <time>2017-03-28T09:00:16Z</time>
      </trkpt>
      <trkpt lat="47.44296" lon="7.25487">
        <ele>672.58</ele>
        <time>2017-03-28T09:00:32Z</time>
      </trkpt>
      <trkpt lat="47.44296" lon="7.25503">
        <ele>672.1</ele>
        <time>2017-03-28T09:00:41Z</time>
      </trkpt>
      <trkpt lat="47.44296" lon="7.25514">
        <ele>672.1</ele>
        <time>2017-03-28T09:00:47Z</time>
      </trkpt>
      <trkpt lat="47.44297" lon="7.25517">
        <ele>672.1</ele>
        <time>2017-03-28T09:00:49Z</time>
      </trkpt>
      <trkpt lat="47.44297" lon="7.25532">
        <ele>672.1</ele>
        <time>2017-03-28T09:00:58Z</time>
      </trkpt>
      <trkpt lat="47.44294" lon="7.25555">
        <ele>671.62</ele>
        <time>2017-03-28T09:01:12Z</time>
      </trkpt>
      <trkpt lat="47.44293" lon="7.25562">
        <ele>671.62</ele>
        <time>2017-03-28T09:01:16Z</time>
      </trkpt>
      <trkpt lat="47.4429" lon="7.25591">
        <ele>669.22</ele>
        <time>2017-03-28T09:01:33Z</time>
      </trkpt>
      <trkpt lat="47.44289" lon="7.25594">
        <ele>669.22</ele>
        <time>2017-03-28T09:01:35Z</time>
      </trkpt>
      <trkpt lat="47.44281" lon="7.25618">
        <ele>667.77</ele>
        <time>2017-03-28T09:01:52Z</time>
      </trkpt>
      <trkpt lat="47.44276" lon="7.25633">
        <ele>667.29</ele>
        <time>2017-03-28T09:02:01Z</time>
      </trkpt>
      <trkpt lat="47.44266" lon="7.25658">
        <ele>667.29</ele>
        <time>2017-03-28T09:02:16Z</time>
      </trkpt>
      <trkpt lat="47.44264" lon="7.25685">
        <ele>666.33</ele>
        <time>2017-03-28T09:02:31Z</time>
      </trkpt>
      <trkpt lat="47.44262" lon="7.25714">
        <ele>665.85</ele>
        <time>2017-03-28T09:02:46Z</time>
      </trkpt>
      <trkpt lat="47.4426" lon="7.2572">
        <ele>665.37</ele>
        <time>2017-03-28T09:02:51Z</time>
      </trkpt>
      <trkpt lat="47.44259" lon="7.25725">
        <ele>665.37</ele>
        <time>2017-03-28T09:02:54Z</time>
      </trkpt>
      <trkpt lat="47.44257" lon="7.25735">
        <ele>665.37</ele>
        <time>2017-03-28T09:03:00Z</time>
      </trkpt>
      <trkpt lat="47.44255" lon="7.25751">
        <ele>665.37</ele>
        <time>2017-03-28T09:03:09Z</time>
      </trkpt>
      <trkpt lat="47.44257" lon="7.25773">
        <ele>664.89</ele>
        <time>2017-03-28T09:03:20Z</time>
      </trkpt>
      <trkpt lat="47.44252" lon="7.25786">
        <ele>664.89</ele>
        <time>2017-03-28T09:03:29Z</time>
      </trkpt>
      <trkpt lat="47.44235" lon="7.25797">
        <ele>664.89</ele>
        <time>2017-03-28T09:03:43Z</time>
      </trkpt>
      <trkpt lat="47.44222" lon="7.258">
        <ele>665.85</ele>
        <time>2017-03-28T09:03:55Z</time>
      </trkpt>
      <trkpt lat="47.44203" lon="7.25802">
        <ele>666.33</ele>
        <time>2017-03-28T09:04:10Z</time>
      </trkpt>
      <trkpt lat="47.44191" lon="7.25815">
        <ele>664.89</ele>
        <time>2017-03-28T09:04:21Z</time>
      </trkpt>
      <trkpt lat="47.44191" lon="7.25817">
        <ele>664.41</ele>
        <time>2017-03-28T09:04:22Z</time>
      </trkpt>
      <trkpt lat="47.44178" lon="7.25834">
        <ele>663.45</ele>
        <time>2017-03-28T09:04:36Z</time>
      </trkpt>
      <trkpt lat="47.4417" lon="7.2584">
        <ele>662.97</ele>
        <time>2017-03-28T09:04:43Z</time>
      </trkpt>
      <trkpt lat="47.44159" lon="7.25848">
        <ele>662.49</ele>
        <time>2017-03-28T09:04:53Z</time>
      </trkpt>
      <trkpt lat="47.44157" lon="7.25851">
        <ele>662.49</ele>
        <time>2017-03-28T09:04:55Z</time>
      </trkpt>
      <trkpt lat="47.44156" lon="7.25856">
        <ele>662.49</ele>
        <time>2017-03-28T09:04:57Z</time>
      </trkpt>
      <trkpt lat="47.44155" lon="7.25865">
        <ele>662.49</ele>
        <time>2017-03-28T09:05:01Z</time>
      </trkpt>
      <trkpt lat="47.44162" lon="7.25905">
        <ele>660.56</ele>
        <time>2017-03-28T09:05:17Z</time>
      </trkpt>
      <trkpt lat="47.44167" lon="7.25922">
        <ele>660.08</ele>
        <time>2017-03-28T09:05:26Z</time>
      </trkpt>
      <trkpt lat="47.44166" lon="7.25949">
        <ele>659.6</ele>
        <time>2017-03-28T09:05:41Z</time>
      </trkpt>
      <trkpt lat="47.44166" lon="7.25954">
        <ele>659.6</ele>
        <time>2017-03-28T09:05:44Z</time>
      </trkpt>
      <trkpt lat="47.44166" lon="7.25956">
        <ele>659.6</ele>
        <time>2017-03-28T09:05:46Z</time>
      </trkpt>
      <trkpt lat="47.44166" lon="7.25986">
        <ele>659.12</ele>
        <time>2017-03-28T09:06:04Z</time>
      </trkpt>
      <trkpt lat="47.44167" lon="7.25998">
        <ele>660.56</ele>
        <time>2017-03-28T09:06:11Z</time>
      </trkpt>
      <trkpt lat="47.44169" lon="7.26021">
        <ele>661.04</ele>
        <time>2017-03-28T09:06:24Z</time>
      </trkpt>
      <trkpt lat="47.4417" lon="7.26026">
        <ele>661.52</ele>
        <time>2017-03-28T09:06:27Z</time>
      </trkpt>
      <trkpt lat="47.4417" lon="7.26033">
        <ele>662.01</ele>
        <time>2017-03-28T09:06:31Z</time>
      </trkpt>
      <trkpt lat="47.44173" lon="7.26059">
        <ele>663.45</ele>
        <time>2017-03-28T09:06:47Z</time>
      </trkpt>
      <trkpt lat="47.44175" lon="7.26085">
        <ele>664.89</ele>
        <time>2017-03-28T09:07:03Z</time>
      </trkpt>
      <trkpt lat="47.44178" lon="7.2611">
        <ele>666.33</ele>
        <time>2017-03-28T09:07:18Z</time>
      </trkpt>
      <trkpt lat="47.4418" lon="7.26142">
        <ele>667.77</ele>
        <time>2017-03-28T09:07:33Z</time>
      </trkpt>
      <trkpt lat="47.44185" lon="7.26178">
        <ele>670.18</ele>
        <time>2017-03-28T09:07:53Z</time>
      </trkpt>
      <trkpt lat="47.44189" lon="7.26203">
        <ele>671.14</ele>
        <time>2017-03-28T09:08:07Z</time>
      </trkpt>
      <trkpt lat="47.44197" lon="7.26233">
        <ele>673.06</ele>
        <time>2017-03-28T09:08:25Z</time>
      </trkpt>
      <trkpt lat="47.44206" lon="7.26264">
        <ele>674.98</ele>
        <time>2017-03-28T09:08:44Z</time>
      </trkpt>
      <trkpt lat="47.44217" lon="7.26289">
        <ele>676.91</ele>
        <time>2017-03-28T09:09:02Z</time>
      </trkpt>
      <trkpt lat="47.4423" lon="7.26321">
        <ele>678.83</ele>
        <time>2017-03-28T09:09:21Z</time>
      </trkpt>
      <trkpt lat="47.44242" lon="7.26349">
        <ele>680.27</ele>
        <time>2017-03-28T09:09:39Z</time>
      </trkpt>
      <trkpt lat="47.44252" lon="7.26377">
        <ele>681.71</ele>
        <time>2017-03-28T09:09:56Z</time>
      </trkpt>
      <trkpt lat="47.44264" lon="7.26407">
        <ele>682.67</ele>
        <time>2017-03-28T09:10:14Z</time>
      </trkpt>
      <trkpt lat="47.44279" lon="7.26442">
        <ele>684.12</ele>
        <time>2017-03-28T09:10:36Z</time>
      </trkpt>
      <trkpt lat="47.44292" lon="7.26476">
        <ele>685.08</ele>
        <time>2017-03-28T09:10:56Z</time>
      </trkpt>
      <trkpt lat="47.44304" lon="7.26509">
        <ele>686.04</ele>
        <time>2017-03-28T09:11:16Z</time>
      </trkpt>
      <trkpt lat="47.44316" lon="7.2654">
        <ele>687.48</ele>
        <time>2017-03-28T09:11:35Z</time>
      </trkpt>
      <trkpt lat="47.44327" lon="7.26572">
        <ele>688.92</ele>
        <time>2017-03-28T09:11:55Z</time>
      </trkpt>
      <trkpt lat="47.44337" lon="7.26601">
        <ele>689.88</ele>
        <time>2017-03-28T09:12:13Z</time>
      </trkpt>
      <trkpt lat="47.44345" lon="7.26634">
        <ele>691.81</ele>
        <time>2017-03-28T09:12:32Z</time>
      </trkpt>
      <trkpt lat="47.44351" lon="7.26667">
        <ele>692.77</ele>
        <time>2017-03-28T09:12:50Z</time>
      </trkpt>
      <trkpt lat="47.44358" lon="7.26702">
        <ele>694.21</ele>
        <time>2017-03-28T09:13:10Z</time>
      </trkpt>
      <trkpt lat="47.4436" lon="7.26736">
        <ele>694.69</ele>
        <time>2017-03-28T09:13:28Z</time>
      </trkpt>
      <trkpt lat="47.44348" lon="7.26748">
        <ele>694.69</ele>
        <time>2017-03-28T09:13:42Z</time>
      </trkpt>
      <trkpt lat="47.44341" lon="7.26748">
        <ele>694.69</ele>
        <time>2017-03-28T09:13:48Z</time>
      </trkpt>
      <trkpt lat="47.44328" lon="7.26745">
        <ele>694.69</ele>
        <time>2017-03-28T09:14:00Z</time>
      </trkpt>
      <trkpt lat="47.44323" lon="7.26745">
        <ele>694.69</ele>
        <time>2017-03-28T09:14:05Z</time>
      </trkpt>
      <trkpt lat="47.44302" lon="7.26744">
        <ele>694.69</ele>
        <time>2017-03-28T09:14:22Z</time>
      </trkpt>
      <trkpt lat="47.44283" lon="7.26745">
        <ele>694.69</ele>
        <time>2017-03-28T09:14:37Z</time>
      </trkpt>
      <trkpt lat="47.44259" lon="7.26746">
        <ele>695.17</ele>
        <time>2017-03-28T09:14:55Z</time>
      </trkpt>
      <trkpt lat="47.44237" lon="7.26743">
        <ele>695.65</ele>
        <time>2017-03-28T09:15:12Z</time>
      </trkpt>
      <trkpt lat="47.44214" lon="7.26743">
        <ele>696.61</ele>
        <time>2017-03-28T09:15:28Z</time>
      </trkpt>
      <trkpt lat="47.44198" lon="7.26743">
        <ele>697.57</ele>
        <time>2017-03-28T09:15:41Z</time>
      </trkpt>
      <trkpt lat="47.44178" lon="7.26744">
        <ele>698.53</ele>
        <time>2017-03-28T09:15:57Z</time>
      </trkpt>
      <trkpt lat="47.44154" lon="7.26743">
        <ele>699.5</ele>
        <time>2017-03-28T09:16:15Z</time>
      </trkpt>
      <trkpt lat="47.44131" lon="7.26744">
        <ele>699.98</ele>
        <time>2017-03-28T09:16:33Z</time>
      </trkpt>
      <trkpt lat="47.44109" lon="7.26742">
        <ele>699.98</ele>
        <time>2017-03-28T09:16:49Z</time>
      </trkpt>
      <trkpt lat="47.44087" lon="7.26742">
        <ele>699.98</ele>
        <time>2017-03-28T09:17:06Z</time>
      </trkpt>
      <trkpt lat="47.44069" lon="7.26742">
        <ele>699.98</ele>
        <time>2017-03-28T09:17:20Z</time>
      </trkpt>
      <trkpt lat="47.44048" lon="7.26742">
        <ele>699.02</ele>
        <time>2017-03-28T09:17:35Z</time>
      </trkpt>
      <trkpt lat="47.44037" lon="7.26743">
        <ele>698.53</ele>
        <time>2017-03-28T09:17:44Z</time>
      </trkpt>
      <trkpt lat="47.44017" lon="7.26741">
        <ele>698.05</ele>
        <time>2017-03-28T09:17:59Z</time>
      </trkpt>
      <trkpt lat="47.43998" lon="7.26741">
        <ele>697.09</ele>
        <time>2017-03-28T09:18:13Z</time>
      </trkpt>
      <trkpt lat="47.43985" lon="7.26742">
        <ele>697.09</ele>
        <time>2017-03-28T09:18:26Z</time>
      </trkpt>
      <trkpt lat="47.43967" lon="7.26743">
        <ele>697.09</ele>
        <time>2017-03-28T09:18:41Z</time>
      </trkpt>
      <trkpt lat="47.43947" lon="7.26743">
        <ele>696.13</ele>
        <time>2017-03-28T09:18:58Z</time>
      </trkpt>
      <trkpt lat="47.43926" lon="7.26741">
        <ele>696.13</ele>
        <time>2017-03-28T09:19:15Z</time>
      </trkpt>
      <trkpt lat="47.43922" lon="7.26739">
        <ele>696.13</ele>
        <time>2017-03-28T09:19:18Z</time>
      </trkpt>
      <trkpt lat="47.43901" lon="7.26735">
        <ele>695.65</ele>
        <time>2017-03-28T09:19:34Z</time>
      </trkpt>
      <trkpt lat="47.43883" lon="7.26737">
        <ele>695.17</ele>
        <time>2017-03-28T09:19:49Z</time>
      </trkpt>
      <trkpt lat="47.43864" lon="7.26757">
        <ele>694.69</ele>
        <time>2017-03-28T09:20:06Z</time>
      </trkpt>
      <trkpt lat="47.43852" lon="7.26789">
        <ele>694.69</ele>
        <time>2017-03-28T09:20:24Z</time>
      </trkpt>
      <trkpt lat="47.43844" lon="7.26825">
        <ele>694.21</ele>
        <time>2017-03-28T09:20:42Z</time>
      </trkpt>
      <trkpt lat="47.43843" lon="7.26842">
        <ele>693.73</ele>
        <time>2017-03-28T09:20:50Z</time>
      </trkpt>
      <trkpt lat="47.43839" lon="7.26871">
        <ele>693.25</ele>
        <time>2017-03-28T09:21:04Z</time>
      </trkpt>
      <trkpt lat="47.43835" lon="7.269">
        <ele>692.29</ele>
        <time>2017-03-28T09:21:19Z</time>
      </trkpt>
      <trkpt lat="47.4383" lon="7.26934">
        <ele>691.33</ele>
        <time>2017-03-28T09:21:37Z</time>
      </trkpt>
      <trkpt lat="47.43824" lon="7.26968">
        <ele>689.4</ele>
        <time>2017-03-28T09:21:55Z</time>
      </trkpt>
      <trkpt lat="47.43812" lon="7.26992">
        <ele>688.44</ele>
        <time>2017-03-28T09:22:11Z</time>
      </trkpt>
      <trkpt lat="47.43797" lon="7.27011">
        <ele>687.48</ele>
        <time>2017-03-28T09:22:28Z</time>
      </trkpt>
      <trkpt lat="47.43785" lon="7.27027">
        <ele>686.52</ele>
        <time>2017-03-28T09:22:42Z</time>
      </trkpt>
      <trkpt lat="47.43779" lon="7.27033">
        <ele>686.04</ele>
        <time>2017-03-28T09:22:48Z</time>
      </trkpt>
      <trkpt lat="47.43775" lon="7.27036">
        <ele>686.04</ele>
        <time>2017-03-28T09:22:52Z</time>
      </trkpt>
      <trkpt lat="47.43766" lon="7.2705">
        <ele>685.08</ele>
        <time>2017-03-28T09:23:07Z</time>
      </trkpt>
      <trkpt lat="47.43765" lon="7.27051">
        <ele>684.6</ele>
        <time>2017-03-28T09:23:09Z</time>
      </trkpt>
      <trkpt lat="47.43754" lon="7.27064">
        <ele>683.63</ele>
        <time>2017-03-28T09:23:24Z</time>
      </trkpt>
      <trkpt lat="47.43746" lon="7.27074">
        <ele>683.15</ele>
        <time>2017-03-28T09:23:35Z</time>
      </trkpt>
      <trkpt lat="47.43729" lon="7.27083">
        <ele>682.19</ele>
        <time>2017-03-28T09:23:50Z</time>
      </trkpt>
      <trkpt lat="47.43721" lon="7.27089">
        <ele>681.71</ele>
        <time>2017-03-28T09:24:01Z</time>
      </trkpt>
      <trkpt lat="47.4372" lon="7.27089">
        <ele>681.23</ele>
        <time>2017-03-28T09:24:02Z</time>
      </trkpt>
      <trkpt lat="47.43702" lon="7.27098">
        <ele>681.23</ele>
        <time>2017-03-28T09:24:20Z</time>
      </trkpt>
      <trkpt lat="47.43701" lon="7.27092">
        <ele>680.27</ele>
        <time>2017-03-28T09:24:33Z</time>
      </trkpt>
      <trkpt lat="47.437" lon="7.27088">
        <ele>680.27</ele>
        <time>2017-03-28T09:25:17Z</time>
      </trkpt>
      <trkpt lat="47.43698" lon="7.27086">
        <ele>681.71</ele>
        <time>2017-03-28T09:25:38Z</time>
      </trkpt>
      <trkpt lat="47.43698" lon="7.2709">
        <ele>681.71</ele>
        <time>2017-03-28T09:25:56Z</time>
      </trkpt>
      <trkpt lat="47.43697" lon="7.27092">
        <ele>681.71</ele>
        <time>2017-03-28T09:26:16Z</time>
      </trkpt>
      <trkpt lat="47.43695" lon="7.27094">
        <ele>681.71</ele>
        <time>2017-03-28T09:26:40Z</time>
      </trkpt>
      <trkpt lat="47.43694" lon="7.27093">
        <ele>681.71</ele>
        <time>2017-03-28T09:26:56Z</time>
      </trkpt>
      <trkpt lat="47.43695" lon="7.27093">
        <ele>681.71</ele>
        <time>2017-03-28T09:27:15Z</time>
      </trkpt>
      <trkpt lat="47.43697" lon="7.27091">
        <ele>681.71</ele>
        <time>2017-03-28T09:27:35Z</time>
      </trkpt>
      <trkpt lat="47.437" lon="7.27094">
        <ele>681.71</ele>
        <time>2017-03-28T09:28:00Z</time>
      </trkpt>
      <trkpt lat="47.43697" lon="7.27086">
        <ele>681.71</ele>
        <time>2017-03-28T09:28:19Z</time>
      </trkpt>
      <trkpt lat="47.43701" lon="7.27084">
        <ele>681.71</ele>
        <time>2017-03-28T09:28:52Z</time>
      </trkpt>
      <trkpt lat="47.43695" lon="7.27092">
        <ele>681.71</ele>
        <time>2017-03-28T09:29:14Z</time>
      </trkpt>
      <trkpt lat="47.43694" lon="7.27092">
        <ele>682.19</ele>
        <time>2017-03-28T09:29:30Z</time>
      </trkpt>
      <trkpt lat="47.43698" lon="7.27092">
        <ele>682.19</ele>
        <time>2017-03-28T09:29:50Z</time>
      </trkpt>
      <trkpt lat="47.437" lon="7.27092">
        <ele>682.19</ele>
        <time>2017-03-28T09:30:06Z</time>
      </trkpt>
      <trkpt lat="47.437" lon="7.27086">
        <ele>682.19</ele>
        <time>2017-03-28T09:30:28Z</time>
      </trkpt>
      <trkpt lat="47.43701" lon="7.27088">
        <ele>682.19</ele>
        <time>2017-03-28T09:30:44Z</time>
      </trkpt>
      <trkpt lat="47.437" lon="7.27088">
        <ele>680.75</ele>
        <time>2017-03-28T09:31:01Z</time>
      </trkpt>
      <trkpt lat="47.43698" lon="7.27084">
        <ele>681.23</ele>
        <time>2017-03-28T09:31:23Z</time>
      </trkpt>
      <trkpt lat="47.43686" lon="7.27087">
        <ele>680.27</ele>
        <time>2017-03-28T09:31:41Z</time>
      </trkpt>
      <trkpt lat="47.43673" lon="7.27091">
        <ele>679.79</ele>
        <time>2017-03-28T09:31:53Z</time>
      </trkpt>
      <trkpt lat="47.43665" lon="7.2709">
        <ele>679.31</ele>
        <time>2017-03-28T09:32:01Z</time>
      </trkpt>
      <trkpt lat="47.43656" lon="7.27074">
        <ele>678.83</ele>
        <time>2017-03-28T09:32:17Z</time>
      </trkpt>
      <trkpt lat="47.43651" lon="7.27052">
        <ele>678.83</ele>
        <time>2017-03-28T09:32:31Z</time>
      </trkpt>
      <trkpt lat="47.43649" lon="7.27041">
        <ele>678.83</ele>
        <time>2017-03-28T09:32:39Z</time>
      </trkpt>
      <trkpt lat="47.43648" lon="7.27032">
        <ele>678.83</ele>
        <time>2017-03-28T09:32:44Z</time>
      </trkpt>
      <trkpt lat="47.43637" lon="7.27008">
        <ele>678.83</ele>
        <time>2017-03-28T09:33:00Z</time>
      </trkpt>
      <trkpt lat="47.43622" lon="7.26981">
        <ele>678.83</ele>
        <time>2017-03-28T09:33:18Z</time>
      </trkpt>
      <trkpt lat="47.43607" lon="7.26958">
        <ele>678.35</ele>
        <time>2017-03-28T09:33:34Z</time>
      </trkpt>
      <trkpt lat="47.43593" lon="7.2693">
        <ele>678.35</ele>
        <time>2017-03-28T09:33:53Z</time>
      </trkpt>
      <trkpt lat="47.43583" lon="7.26904">
        <ele>677.39</ele>
        <time>2017-03-28T09:34:10Z</time>
      </trkpt>
      <trkpt lat="47.43572" lon="7.26876">
        <ele>677.39</ele>
        <time>2017-03-28T09:34:28Z</time>
      </trkpt>
      <trkpt lat="47.43559" lon="7.26849">
        <ele>677.39</ele>
        <time>2017-03-28T09:34:46Z</time>
      </trkpt>
      <trkpt lat="47.43544" lon="7.2682">
        <ele>677.39</ele>
        <time>2017-03-28T09:35:05Z</time>
      </trkpt>
      <trkpt lat="47.43532" lon="7.26794">
        <ele>677.39</ele>
        <time>2017-03-28T09:35:22Z</time>
      </trkpt>
      <trkpt lat="47.43517" lon="7.26765">
        <ele>677.39</ele>
        <time>2017-03-28T09:35:41Z</time>
      </trkpt>
      <trkpt lat="47.43502" lon="7.26749">
        <ele>677.87</ele>
        <time>2017-03-28T09:35:58Z</time>
      </trkpt>
      <trkpt lat="47.43501" lon="7.26749">
        <ele>678.83</ele>
        <time>2017-03-28T09:36:19Z</time>
      </trkpt>
      <trkpt lat="47.43501" lon="7.26751">
        <ele>678.83</ele>
        <time>2017-03-28T09:36:36Z</time>
      </trkpt>
      <trkpt lat="47.435" lon="7.26751">
        <ele>678.83</ele>
        <time>2017-03-28T09:36:49Z</time>
      </trkpt>
      <trkpt lat="47.435" lon="7.26752">
        <ele>678.83</ele>
        <time>2017-03-28T09:37:15Z</time>
      </trkpt>
      <trkpt lat="47.43498" lon="7.26747">
        <ele>678.83</ele>
        <time>2017-03-28T09:37:32Z</time>
      </trkpt>
      <trkpt lat="47.43497" lon="7.26741">
        <ele>678.83</ele>
        <time>2017-03-28T09:37:37Z</time>
      </trkpt>
      <trkpt lat="47.43496" lon="7.26733">
        <ele>678.83</ele>
        <time>2017-03-28T09:37:41Z</time>
      </trkpt>
      <trkpt lat="47.43488" lon="7.26697">
        <ele>678.83</ele>
        <time>2017-03-28T09:38:01Z</time>
      </trkpt>
      <trkpt lat="47.43481" lon="7.26665">
        <ele>679.31</ele>
        <time>2017-03-28T09:38:18Z</time>
      </trkpt>
      <trkpt lat="47.43476" lon="7.26634">
        <ele>679.31</ele>
        <time>2017-03-28T09:38:35Z</time>
      </trkpt>
      <trkpt lat="47.43471" lon="7.26602">
        <ele>679.79</ele>
        <time>2017-03-28T09:38:53Z</time>
      </trkpt>
      <trkpt lat="47.4347" lon="7.26596">
        <ele>679.79</ele>
        <time>2017-03-28T09:38:56Z</time>
      </trkpt>
      <trkpt lat="47.43468" lon="7.26594">
        <ele>679.79</ele>
        <time>2017-03-28T09:38:59Z</time>
      </trkpt>
      <trkpt lat="47.43445" lon="7.26591">
        <ele>679.79</ele>
        <time>2017-03-28T09:39:14Z</time>
      </trkpt>
      <trkpt lat="47.43424" lon="7.26589">
        <ele>678.35</ele>
        <time>2017-03-28T09:39:28Z</time>
      </trkpt>
      <trkpt lat="47.43405" lon="7.26588">
        <ele>677.87</ele>
        <time>2017-03-28T09:39:41Z</time>
      </trkpt>
      <trkpt lat="47.43397" lon="7.26584">
        <ele>677.87</ele>
        <time>2017-03-28T09:39:50Z</time>
      </trkpt>
      <trkpt lat="47.43386" lon="7.26575">
        <ele>677.39</ele>
        <time>2017-03-28T09:40:04Z</time>
      </trkpt>
      <trkpt lat="47.43378" lon="7.26573">
        <ele>677.39</ele>
        <time>2017-03-28T09:40:10Z</time>
      </trkpt>
      <trkpt lat="47.43356" lon="7.26569">
        <ele>676.91</ele>
        <time>2017-03-28T09:40:25Z</time>
      </trkpt>
      <trkpt lat="47.43341" lon="7.26569">
        <ele>675.94</ele>
        <time>2017-03-28T09:40:35Z</time>
      </trkpt>
      <trkpt lat="47.43337" lon="7.26569">
        <ele>675.94</ele>
        <time>2017-03-28T09:40:38Z</time>
      </trkpt>
      <trkpt lat="47.4332" lon="7.26575">
        <ele>674.98</ele>
        <time>2017-03-28T09:40:50Z</time>
      </trkpt>
      <trkpt lat="47.43309" lon="7.26583">
        <ele>674.5</ele>
        <time>2017-03-28T09:40:59Z</time>
      </trkpt>
      <trkpt lat="47.4329" lon="7.26597">
        <ele>674.02</ele>
        <time>2017-03-28T09:41:13Z</time>
      </trkpt>
      <trkpt lat="47.43284" lon="7.26605">
        <ele>674.98</ele>
        <time>2017-03-28T09:41:18Z</time>
      </trkpt>
      <trkpt lat="47.43276" lon="7.26614">
        <ele>674.02</ele>
        <time>2017-03-28T09:41:25Z</time>
      </trkpt>
      <trkpt lat="47.43261" lon="7.26638">
        <ele>673.06</ele>
        <time>2017-03-28T09:41:40Z</time>
      </trkpt>
      <trkpt lat="47.43246" lon="7.26658">
        <ele>671.62</ele>
        <time>2017-03-28T09:41:55Z</time>
      </trkpt>
      <trkpt lat="47.43228" lon="7.26663">
        <ele>670.18</ele>
        <time>2017-03-28T09:42:10Z</time>
      </trkpt>
      <trkpt lat="47.43211" lon="7.26664">
        <ele>669.7</ele>
        <time>2017-03-28T09:42:25Z</time>
      </trkpt>
      <trkpt lat="47.43184" lon="7.2666">
        <ele>668.73</ele>
        <time>2017-03-28T09:42:46Z</time>
      </trkpt>
      <trkpt lat="47.43183" lon="7.26658">
        <ele>668.73</ele>
        <time>2017-03-28T09:43:06Z</time>
      </trkpt>
      <trkpt lat="47.43167" lon="7.26653">
        <ele>668.25</ele>
        <time>2017-03-28T09:43:18Z</time>
      </trkpt>
      <trkpt lat="47.43151" lon="7.26651">
        <ele>667.77</ele>
        <time>2017-03-28T09:43:29Z</time>
      </trkpt>
      <trkpt lat="47.43132" lon="7.26648">
        <ele>666.81</ele>
        <time>2017-03-28T09:43:43Z</time>
      </trkpt>
      <trkpt lat="47.43122" lon="7.26646">
        <ele>666.81</ele>
        <time>2017-03-28T09:43:51Z</time>
      </trkpt>
      <trkpt lat="47.43102" lon="7.26635">
        <ele>666.33</ele>
        <time>2017-03-28T09:44:04Z</time>
      </trkpt>
      <trkpt lat="47.43087" lon="7.26626">
        <ele>666.33</ele>
        <time>2017-03-28T09:44:17Z</time>
      </trkpt>
      <trkpt lat="47.43084" lon="7.26623">
        <ele>666.33</ele>
        <time>2017-03-28T09:44:20Z</time>
      </trkpt>
      <trkpt lat="47.43065" lon="7.26613">
        <ele>667.77</ele>
        <time>2017-03-28T09:44:33Z</time>
      </trkpt>
      <trkpt lat="47.43062" lon="7.26613">
        <ele>666.33</ele>
        <time>2017-03-28T09:44:35Z</time>
      </trkpt>
      <trkpt lat="47.43048" lon="7.266">
        <ele>665.85</ele>
        <time>2017-03-28T09:44:47Z</time>
      </trkpt>
      <trkpt lat="47.43044" lon="7.26596">
        <ele>665.85</ele>
        <time>2017-03-28T09:45:01Z</time>
      </trkpt>
      <trkpt lat="47.43038" lon="7.26584">
        <ele>665.37</ele>
        <time>2017-03-28T09:45:18Z</time>
      </trkpt>
      <trkpt lat="47.43028" lon="7.26565">
        <ele>665.37</ele>
        <time>2017-03-28T09:45:33Z</time>
      </trkpt>
      <trkpt lat="47.43026" lon="7.26561">
        <ele>666.81</ele>
        <time>2017-03-28T09:45:36Z</time>
      </trkpt>
      <trkpt lat="47.43005" lon="7.26541">
        <ele>664.89</ele>
        <time>2017-03-28T09:45:52Z</time>
      </trkpt>
      <trkpt lat="47.4299" lon="7.26514">
        <ele>663.45</ele>
        <time>2017-03-28T09:46:09Z</time>
      </trkpt>
      <trkpt lat="47.4298" lon="7.26493">
        <ele>661.04</ele>
        <time>2017-03-28T09:46:25Z</time>
      </trkpt>
      <trkpt lat="47.42976" lon="7.26466">
        <ele>658.64</ele>
        <time>2017-03-28T09:46:41Z</time>
      </trkpt>
      <trkpt lat="47.42979" lon="7.26434">
        <ele>656.24</ele>
        <time>2017-03-28T09:46:58Z</time>
      </trkpt>
      <trkpt lat="47.4298" lon="7.26417">
        <ele>654.8</ele>
        <time>2017-03-28T09:47:09Z</time>
      </trkpt>
      <trkpt lat="47.4298" lon="7.26414">
        <ele>654.8</ele>
        <time>2017-03-28T09:47:11Z</time>
      </trkpt>
      <trkpt lat="47.42981" lon="7.26403">
        <ele>653.83</ele>
        <time>2017-03-28T09:47:17Z</time>
      </trkpt>
      <trkpt lat="47.42983" lon="7.26393">
        <ele>653.35</ele>
        <time>2017-03-28T09:47:22Z</time>
      </trkpt>
      <trkpt lat="47.42991" lon="7.2637">
        <ele>651.91</ele>
        <time>2017-03-28T09:47:36Z</time>
      </trkpt>
      <trkpt lat="47.42992" lon="7.26369">
        <ele>651.43</ele>
        <time>2017-03-28T09:47:37Z</time>
      </trkpt>
      <trkpt lat="47.42999" lon="7.26347">
        <ele>649.51</ele>
        <time>2017-03-28T09:47:52Z</time>
      </trkpt>
      <trkpt lat="47.43004" lon="7.26337">
        <ele>648.55</ele>
        <time>2017-03-28T09:47:59Z</time>
      </trkpt>
      <trkpt lat="47.43015" lon="7.26321">
        <ele>647.1</ele>
        <time>2017-03-28T09:48:13Z</time>
      </trkpt>
      <trkpt lat="47.43026" lon="7.26305">
        <ele>645.66</ele>
        <time>2017-03-28T09:48:27Z</time>
      </trkpt>
      <trkpt lat="47.43027" lon="7.26304">
        <ele>645.18</ele>
        <time>2017-03-28T09:48:28Z</time>
      </trkpt>
      <trkpt lat="47.43042" lon="7.26284">
        <ele>643.74</ele>
        <time>2017-03-28T09:48:44Z</time>
      </trkpt>
      <trkpt lat="47.43057" lon="7.26266">
        <ele>641.82</ele>
        <time>2017-03-28T09:48:58Z</time>
      </trkpt>
      <trkpt lat="47.43062" lon="7.2626">
        <ele>641.34</ele>
        <time>2017-03-28T09:49:03Z</time>
      </trkpt>
      <trkpt lat="47.43076" lon="7.26245">
        <ele>639.41</ele>
        <time>2017-03-28T09:49:17Z</time>
      </trkpt>
      <trkpt lat="47.43079" lon="7.26242">
        <ele>639.41</ele>
        <time>2017-03-28T09:49:21Z</time>
      </trkpt>
      <trkpt lat="47.43095" lon="7.2623">
        <ele>637.97</ele>
        <time>2017-03-28T09:49:36Z</time>
      </trkpt>
      <trkpt lat="47.43111" lon="7.26218">
        <ele>636.53</ele>
        <time>2017-03-28T09:49:49Z</time>
      </trkpt>
      <trkpt lat="47.43125" lon="7.26215">
        <ele>636.05</ele>
        <time>2017-03-28T09:50:01Z</time>
      </trkpt>
      <trkpt lat="47.43131" lon="7.2621">
        <ele>635.57</ele>
        <time>2017-03-28T09:50:07Z</time>
      </trkpt>
      <trkpt lat="47.43146" lon="7.262">
        <ele>634.61</ele>
        <time>2017-03-28T09:50:20Z</time>
      </trkpt>
      <trkpt lat="47.43155" lon="7.26191">
        <ele>633.65</ele>
        <time>2017-03-28T09:50:28Z</time>
      </trkpt>
      <trkpt lat="47.43171" lon="7.2618">
        <ele>633.17</ele>
        <time>2017-03-28T09:50:40Z</time>
      </trkpt>
      <trkpt lat="47.43193" lon="7.26159">
        <ele>631.72</ele>
        <time>2017-03-28T09:50:58Z</time>
      </trkpt>
      <trkpt lat="47.4321" lon="7.26154">
        <ele>630.76</ele>
        <time>2017-03-28T09:51:12Z</time>
      </trkpt>
      <trkpt lat="47.4323" lon="7.2616">
        <ele>630.28</ele>
        <time>2017-03-28T09:51:31Z</time>
      </trkpt>
      <trkpt lat="47.43232" lon="7.26161">
        <ele>627.88</ele>
        <time>2017-03-28T09:51:33Z</time>
      </trkpt>
      <trkpt lat="47.43248" lon="7.26166">
        <ele>627.4</ele>
        <time>2017-03-28T09:51:42Z</time>
      </trkpt>
      <trkpt lat="47.43259" lon="7.26172">
        <ele>626.92</ele>
        <time>2017-03-28T09:51:53Z</time>
      </trkpt>
      <trkpt lat="47.4326" lon="7.26173">
        <ele>628.36</ele>
        <time>2017-03-28T09:51:55Z</time>
      </trkpt>
      <trkpt lat="47.43267" lon="7.26183">
        <ele>631.24</ele>
        <time>2017-03-28T09:52:07Z</time>
      </trkpt>
      <trkpt lat="47.4327" lon="7.26183">
        <ele>632.2</ele>
        <time>2017-03-28T09:52:10Z</time>
      </trkpt>
      <trkpt lat="47.43275" lon="7.26183">
        <ele>633.65</ele>
        <time>2017-03-28T09:52:16Z</time>
      </trkpt>
      <trkpt lat="47.43285" lon="7.26182">
        <ele>635.57</ele>
        <time>2017-03-28T09:52:26Z</time>
      </trkpt>
      <trkpt lat="47.43293" lon="7.26182">
        <ele>638.93</ele>
        <time>2017-03-28T09:52:39Z</time>
      </trkpt>
      <trkpt lat="47.43295" lon="7.26182">
        <ele>638.93</ele>
        <time>2017-03-28T09:52:42Z</time>
      </trkpt>
      <trkpt lat="47.43302" lon="7.26183">
        <ele>641.34</ele>
        <time>2017-03-28T09:52:49Z</time>
      </trkpt>
      <trkpt lat="47.433" lon="7.2617">
        <ele>643.74</ele>
        <time>2017-03-28T09:53:01Z</time>
      </trkpt>
      <trkpt lat="47.43296" lon="7.2616">
        <ele>646.14</ele>
        <time>2017-03-28T09:53:11Z</time>
      </trkpt>
      <trkpt lat="47.43294" lon="7.26142">
        <ele>648.55</ele>
        <time>2017-03-28T09:53:23Z</time>
      </trkpt>
      <trkpt lat="47.43291" lon="7.26124">
        <ele>650.95</ele>
        <time>2017-03-28T09:53:35Z</time>
      </trkpt>
      <trkpt lat="47.43281" lon="7.26102">
        <ele>652.87</ele>
        <time>2017-03-28T09:53:46Z</time>
      </trkpt>
      <trkpt lat="47.43277" lon="7.26091">
        <ele>654.8</ele>
        <time>2017-03-28T09:53:59Z</time>
      </trkpt>
      <trkpt lat="47.43272" lon="7.26084">
        <ele>657.68</ele>
        <time>2017-03-28T09:54:10Z</time>
      </trkpt>
      <trkpt lat="47.43269" lon="7.26072">
        <ele>660.56</ele>
        <time>2017-03-28T09:54:22Z</time>
      </trkpt>
      <trkpt lat="47.43263" lon="7.26055">
        <ele>663.93</ele>
        <time>2017-03-28T09:54:36Z</time>
      </trkpt>
      <trkpt lat="47.43254" lon="7.26046">
        <ele>667.29</ele>
        <time>2017-03-28T09:54:47Z</time>
      </trkpt>
      <trkpt lat="47.43248" lon="7.26039">
        <ele>668.25</ele>
        <time>2017-03-28T09:54:54Z</time>
      </trkpt>
      <trkpt lat="47.43239" lon="7.26038">
        <ele>668.25</ele>
        <time>2017-03-28T09:54:59Z</time>
      </trkpt>
      <trkpt lat="47.43223" lon="7.26025">
        <ele>668.73</ele>
        <time>2017-03-28T09:55:12Z</time>
      </trkpt>
      <trkpt lat="47.43217" lon="7.26012">
        <ele>672.1</ele>
        <time>2017-03-28T09:55:22Z</time>
      </trkpt>
      <trkpt lat="47.43208" lon="7.26004">
        <ele>674.98</ele>
        <time>2017-03-28T09:55:33Z</time>
      </trkpt>
      <trkpt lat="47.43204" lon="7.25997">
        <ele>676.91</ele>
        <time>2017-03-28T09:55:41Z</time>
      </trkpt>
      <trkpt lat="47.43196" lon="7.25991">
        <ele>679.79</ele>
        <time>2017-03-28T09:55:52Z</time>
      </trkpt>
      <trkpt lat="47.43185" lon="7.25987">
        <ele>682.19</ele>
        <time>2017-03-28T09:56:05Z</time>
      </trkpt>
      <trkpt lat="47.43183" lon="7.25987">
        <ele>682.67</ele>
        <time>2017-03-28T09:56:07Z</time>
      </trkpt>
      <trkpt lat="47.43163" lon="7.25991">
        <ele>684.6</ele>
        <time>2017-03-28T09:56:22Z</time>
      </trkpt>
      <trkpt lat="47.43161" lon="7.25992">
        <ele>684.6</ele>
        <time>2017-03-28T09:56:25Z</time>
      </trkpt>
      <trkpt lat="47.43149" lon="7.25992">
        <ele>685.08</ele>
        <time>2017-03-28T09:56:28Z</time>
      </trkpt>
      <trkpt lat="47.43127" lon="7.26">
        <ele>685.56</ele>
        <time>2017-03-28T09:56:42Z</time>
      </trkpt>
      <trkpt lat="47.43109" lon="7.26014">
        <ele>685.56</ele>
        <time>2017-03-28T09:56:55Z</time>
      </trkpt>
      <trkpt lat="47.43097" lon="7.26023">
        <ele>684.12</ele>
        <time>2017-03-28T09:57:08Z</time>
      </trkpt>
      <trkpt lat="47.43092" lon="7.26023">
        <ele>684.6</ele>
        <time>2017-03-28T09:57:20Z</time>
      </trkpt>
      <trkpt lat="47.43084" lon="7.26022">
        <ele>684.6</ele>
        <time>2017-03-28T09:57:33Z</time>
      </trkpt>
      <trkpt lat="47.43076" lon="7.26022">
        <ele>684.6</ele>
        <time>2017-03-28T09:57:48Z</time>
      </trkpt>
      <trkpt lat="47.43061" lon="7.26023">
        <ele>684.6</ele>
        <time>2017-03-28T09:58:10Z</time>
      </trkpt>
      <trkpt lat="47.43044" lon="7.26029">
        <ele>683.63</ele>
        <time>2017-03-28T09:58:25Z</time>
      </trkpt>
      <trkpt lat="47.43039" lon="7.26031">
        <ele>683.15</ele>
        <time>2017-03-28T09:58:41Z</time>
      </trkpt>
      <trkpt lat="47.43039" lon="7.26029">
        <ele>683.15</ele>
        <time>2017-03-28T09:59:07Z</time>
      </trkpt>
      <trkpt lat="47.43041" lon="7.26028">
        <ele>683.15</ele>
        <time>2017-03-28T09:59:12Z</time>
      </trkpt>
      <trkpt lat="47.4305" lon="7.26029">
        <ele>684.12</ele>
        <time>2017-03-28T09:59:21Z</time>
      </trkpt>
      <trkpt lat="47.43063" lon="7.26031">
        <ele>685.08</ele>
        <time>2017-03-28T09:59:33Z</time>
      </trkpt>
      <trkpt lat="47.43079" lon="7.26032">
        <ele>686.04</ele>
        <time>2017-03-28T09:59:48Z</time>
      </trkpt>
      <trkpt lat="47.43079" lon="7.26034">
        <ele>686.04</ele>
        <time>2017-03-28T10:00:11Z</time>
      </trkpt>
      <trkpt lat="47.43087" lon="7.26034">
        <ele>686.04</ele>
        <time>2017-03-28T10:00:30Z</time>
      </trkpt>
      <trkpt lat="47.43084" lon="7.26037">
        <ele>687</ele>
        <time>2017-03-28T10:00:47Z</time>
      </trkpt>
      <trkpt lat="47.43083" lon="7.26038">
        <ele>687</ele>
        <time>2017-03-28T10:01:11Z</time>
      </trkpt>
      <trkpt lat="47.43081" lon="7.26039">
        <ele>686.52</ele>
        <time>2017-03-28T10:01:31Z</time>
      </trkpt>
      <trkpt lat="47.43087" lon="7.26046">
        <ele>686.52</ele>
        <time>2017-03-28T10:01:48Z</time>
      </trkpt>
      <trkpt lat="47.43095" lon="7.26037">
        <ele>686.52</ele>
        <time>2017-03-28T10:02:00Z</time>
      </trkpt>
      <trkpt lat="47.43104" lon="7.26015">
        <ele>686.52</ele>
        <time>2017-03-28T10:02:14Z</time>
      </trkpt>
      <trkpt lat="47.4311" lon="7.25994">
        <ele>687</ele>
        <time>2017-03-28T10:02:25Z</time>
      </trkpt>
      <trkpt lat="47.43113" lon="7.25985">
        <ele>687.48</ele>
        <time>2017-03-28T10:02:29Z</time>
      </trkpt>
      <trkpt lat="47.43119" lon="7.25961">
        <ele>687.96</ele>
        <time>2017-03-28T10:02:44Z</time>
      </trkpt>
      <trkpt lat="47.43123" lon="7.25937">
        <ele>688.92</ele>
        <time>2017-03-28T10:03:00Z</time>
      </trkpt>
      <trkpt lat="47.43128" lon="7.25913">
        <ele>690.36</ele>
        <time>2017-03-28T10:03:14Z</time>
      </trkpt>
      <trkpt lat="47.43133" lon="7.25895">
        <ele>690.84</ele>
        <time>2017-03-28T10:03:24Z</time>
      </trkpt>
      <trkpt lat="47.43147" lon="7.25877">
        <ele>691.33</ele>
        <time>2017-03-28T10:03:40Z</time>
      </trkpt>
      <trkpt lat="47.43155" lon="7.25865">
        <ele>692.29</ele>
        <time>2017-03-28T10:03:49Z</time>
      </trkpt>
      <trkpt lat="47.43168" lon="7.25855">
        <ele>693.73</ele>
        <time>2017-03-28T10:04:03Z</time>
      </trkpt>
      <trkpt lat="47.43179" lon="7.25847">
        <ele>695.65</ele>
        <time>2017-03-28T10:04:15Z</time>
      </trkpt>
      <trkpt lat="47.43187" lon="7.25829">
        <ele>695.65</ele>
        <time>2017-03-28T10:04:23Z</time>
      </trkpt>
      <trkpt lat="47.43193" lon="7.25818">
        <ele>696.61</ele>
        <time>2017-03-28T10:04:28Z</time>
      </trkpt>
      <trkpt lat="47.43202" lon="7.25806">
        <ele>697.57</ele>
        <time>2017-03-28T10:04:42Z</time>
      </trkpt>
      <trkpt lat="47.43211" lon="7.25782">
        <ele>699.02</ele>
        <time>2017-03-28T10:04:57Z</time>
      </trkpt>
      <trkpt lat="47.43212" lon="7.25779">
        <ele>699.5</ele>
        <time>2017-03-28T10:04:59Z</time>
      </trkpt>
      <trkpt lat="47.43211" lon="7.25759">
        <ele>699.98</ele>
        <time>2017-03-28T10:05:16Z</time>
      </trkpt>
      <trkpt lat="47.43209" lon="7.25756">
        <ele>700.46</ele>
        <time>2017-03-28T10:05:30Z</time>
      </trkpt>
      <trkpt lat="47.43209" lon="7.25758">
        <ele>700.46</ele>
        <time>2017-03-28T10:06:06Z</time>
      </trkpt>
      <trkpt lat="47.43212" lon="7.25759">
        <ele>700.46</ele>
        <time>2017-03-28T10:06:18Z</time>
      </trkpt>
      <trkpt lat="47.43212" lon="7.25747">
        <ele>700.46</ele>
        <time>2017-03-28T10:06:34Z</time>
      </trkpt>
      <trkpt lat="47.43214" lon="7.25741">
        <ele>700.46</ele>
        <time>2017-03-28T10:06:40Z</time>
      </trkpt>
      <trkpt lat="47.43215" lon="7.25735">
        <ele>702.38</ele>
        <time>2017-03-28T10:06:45Z</time>
      </trkpt>
      <trkpt lat="47.43215" lon="7.25729">
        <ele>701.42</ele>
        <time>2017-03-28T10:06:49Z</time>
      </trkpt>
      <trkpt lat="47.43215" lon="7.25724">
        <ele>700.94</ele>
        <time>2017-03-28T10:07:04Z</time>
      </trkpt>
      <trkpt lat="47.43215" lon="7.25723">
        <ele>700.94</ele>
        <time>2017-03-28T10:07:05Z</time>
      </trkpt>
      <trkpt lat="47.43215" lon="7.257">
        <ele>702.38</ele>
        <time>2017-03-28T10:07:21Z</time>
      </trkpt>
      <trkpt lat="47.43215" lon="7.25699">
        <ele>702.38</ele>
        <time>2017-03-28T10:07:22Z</time>
      </trkpt>
      <trkpt lat="47.43215" lon="7.25691">
        <ele>702.86</ele>
        <time>2017-03-28T10:07:31Z</time>
      </trkpt>
      <trkpt lat="47.43215" lon="7.25682">
        <ele>702.86</ele>
        <time>2017-03-28T10:07:37Z</time>
      </trkpt>
      <trkpt lat="47.43216" lon="7.25656">
        <ele>703.82</ele>
        <time>2017-03-28T10:07:53Z</time>
      </trkpt>
      <trkpt lat="47.43217" lon="7.25645">
        <ele>703.82</ele>
        <time>2017-03-28T10:07:59Z</time>
      </trkpt>
      <trkpt lat="47.43217" lon="7.25639">
        <ele>704.3</ele>
        <time>2017-03-28T10:08:03Z</time>
      </trkpt>
      <trkpt lat="47.4322" lon="7.25612">
        <ele>705.26</ele>
        <time>2017-03-28T10:08:18Z</time>
      </trkpt>
      <trkpt lat="47.4322" lon="7.25595">
        <ele>705.75</ele>
        <time>2017-03-28T10:08:28Z</time>
      </trkpt>
      <trkpt lat="47.43221" lon="7.2559">
        <ele>705.75</ele>
        <time>2017-03-28T10:08:31Z</time>
      </trkpt>
      <trkpt lat="47.43223" lon="7.25559">
        <ele>706.23</ele>
        <time>2017-03-28T10:08:49Z</time>
      </trkpt>
      <trkpt lat="47.43224" lon="7.25555">
        <ele>706.23</ele>
        <time>2017-03-28T10:08:51Z</time>
      </trkpt>
      <trkpt lat="47.43225" lon="7.25548">
        <ele>706.71</ele>
        <time>2017-03-28T10:08:55Z</time>
      </trkpt>
      <trkpt lat="47.43231" lon="7.25526">
        <ele>707.19</ele>
        <time>2017-03-28T10:09:10Z</time>
      </trkpt>
      <trkpt lat="47.43235" lon="7.25518">
        <ele>707.19</ele>
        <time>2017-03-28T10:09:25Z</time>
      </trkpt>
      <trkpt lat="47.43238" lon="7.25515">
        <ele>706.71</ele>
        <time>2017-03-28T10:09:48Z</time>
      </trkpt>
      <trkpt lat="47.4324" lon="7.25517">
        <ele>706.71</ele>
        <time>2017-03-28T10:10:02Z</time>
      </trkpt>
      <trkpt lat="47.43249" lon="7.25517">
        <ele>706.71</ele>
        <time>2017-03-28T10:10:14Z</time>
      </trkpt>
      <trkpt lat="47.43269" lon="7.25508">
        <ele>705.26</ele>
        <time>2017-03-28T10:10:31Z</time>
      </trkpt>
      <trkpt lat="47.43289" lon="7.25491">
        <ele>704.78</ele>
        <time>2017-03-28T10:10:49Z</time>
      </trkpt>
      <trkpt lat="47.43304" lon="7.25477">
        <ele>704.3</ele>
        <time>2017-03-28T10:11:05Z</time>
      </trkpt>
      <trkpt lat="47.4331" lon="7.25474">
        <ele>703.82</ele>
        <time>2017-03-28T10:11:12Z</time>
      </trkpt>
      <trkpt lat="47.43327" lon="7.25476">
        <ele>703.34</ele>
        <time>2017-03-28T10:11:27Z</time>
      </trkpt>
      <trkpt lat="47.43345" lon="7.25475">
        <ele>703.34</ele>
        <time>2017-03-28T10:11:43Z</time>
      </trkpt>
      <trkpt lat="47.43369" lon="7.2547">
        <ele>702.86</ele>
        <time>2017-03-28T10:12:01Z</time>
      </trkpt>
      <trkpt lat="47.4339" lon="7.25466">
        <ele>704.3</ele>
        <time>2017-03-28T10:12:17Z</time>
      </trkpt>
      <trkpt lat="47.43409" lon="7.25463">
        <ele>706.71</ele>
        <time>2017-03-28T10:12:33Z</time>
      </trkpt>
      <trkpt lat="47.43419" lon="7.25432">
        <ele>708.15</ele>
        <time>2017-03-28T10:12:50Z</time>
      </trkpt>
      <trkpt lat="47.43421" lon="7.25402">
        <ele>711.03</ele>
        <time>2017-03-28T10:13:07Z</time>
      </trkpt>
      <trkpt lat="47.4343" lon="7.25379">
        <ele>711.51</ele>
        <time>2017-03-28T10:13:22Z</time>
      </trkpt>
      <trkpt lat="47.43439" lon="7.25354">
        <ele>711.99</ele>
        <time>2017-03-28T10:13:36Z</time>
      </trkpt>
      <trkpt lat="47.4345" lon="7.25329">
        <ele>712.47</ele>
        <time>2017-03-28T10:13:53Z</time>
      </trkpt>
      <trkpt lat="47.43462" lon="7.25317">
        <ele>712.47</ele>
        <time>2017-03-28T10:14:07Z</time>
      </trkpt>
      <trkpt lat="47.43481" lon="7.25304">
        <ele>712.47</ele>
        <time>2017-03-28T10:14:23Z</time>
      </trkpt>
      <trkpt lat="47.43497" lon="7.2529">
        <ele>712.95</ele>
        <time>2017-03-28T10:14:38Z</time>
      </trkpt>
      <trkpt lat="47.43503" lon="7.25259">
        <ele>712.95</ele>
        <time>2017-03-28T10:14:53Z</time>
      </trkpt>
      <trkpt lat="47.43506" lon="7.25228">
        <ele>712.95</ele>
        <time>2017-03-28T10:15:09Z</time>
      </trkpt>
      <trkpt lat="47.43507" lon="7.25223">
        <ele>711.51</ele>
        <time>2017-03-28T10:15:11Z</time>
      </trkpt>
      <trkpt lat="47.43512" lon="7.25191">
        <ele>711.03</ele>
        <time>2017-03-28T10:15:28Z</time>
      </trkpt>
      <trkpt lat="47.43516" lon="7.25157">
        <ele>710.55</ele>
        <time>2017-03-28T10:15:46Z</time>
      </trkpt>
      <trkpt lat="47.43518" lon="7.25122">
        <ele>709.59</ele>
        <time>2017-03-28T10:16:04Z</time>
      </trkpt>
      <trkpt lat="47.43522" lon="7.25091">
        <ele>709.11</ele>
        <time>2017-03-28T10:16:21Z</time>
      </trkpt>
      <trkpt lat="47.43523" lon="7.25061">
        <ele>707.67</ele>
        <time>2017-03-28T10:16:37Z</time>
      </trkpt>
      <trkpt lat="47.43524" lon="7.2503">
        <ele>706.71</ele>
        <time>2017-03-28T10:16:53Z</time>
      </trkpt>
      <trkpt lat="47.43524" lon="7.25018">
        <ele>706.23</ele>
        <time>2017-03-28T10:16:59Z</time>
      </trkpt>
      <trkpt lat="47.43526" lon="7.24984">
        <ele>704.78</ele>
        <time>2017-03-28T10:17:16Z</time>
      </trkpt>
      <trkpt lat="47.43528" lon="7.24957">
        <ele>703.34</ele>
        <time>2017-03-28T10:17:31Z</time>
      </trkpt>
      <trkpt lat="47.43528" lon="7.24927">
        <ele>701.42</ele>
        <time>2017-03-28T10:17:48Z</time>
      </trkpt>
      <trkpt lat="47.43528" lon="7.24916">
        <ele>700.94</ele>
        <time>2017-03-28T10:17:54Z</time>
      </trkpt>
      <trkpt lat="47.4353" lon="7.24887">
        <ele>699.98</ele>
        <time>2017-03-28T10:18:11Z</time>
      </trkpt>
      <trkpt lat="47.4353" lon="7.24861">
        <ele>699.02</ele>
        <time>2017-03-28T10:18:27Z</time>
      </trkpt>
      <trkpt lat="47.4353" lon="7.24858">
        <ele>699.02</ele>
        <time>2017-03-28T10:18:30Z</time>
      </trkpt>
      <trkpt lat="47.43533" lon="7.24855">
        <ele>699.02</ele>
        <time>2017-03-28T10:18:33Z</time>
      </trkpt>
      <trkpt lat="47.43533" lon="7.24842">
        <ele>698.53</ele>
        <time>2017-03-28T10:18:49Z</time>
      </trkpt>
      <trkpt lat="47.43535" lon="7.24842">
        <ele>698.53</ele>
        <time>2017-03-28T10:19:21Z</time>
      </trkpt>
      <trkpt lat="47.43528" lon="7.24836">
        <ele>698.53</ele>
        <time>2017-03-28T10:19:39Z</time>
      </trkpt>
      <trkpt lat="47.43515" lon="7.24822">
        <ele>699.98</ele>
        <time>2017-03-28T10:19:52Z</time>
      </trkpt>
      <trkpt lat="47.43513" lon="7.24821">
        <ele>699.98</ele>
        <time>2017-03-28T10:19:53Z</time>
      </trkpt>
      <trkpt lat="47.43499" lon="7.24815">
        <ele>700.46</ele>
        <time>2017-03-28T10:20:04Z</time>
      </trkpt>
      <trkpt lat="47.43481" lon="7.24814">
        <ele>701.42</ele>
        <time>2017-03-28T10:20:19Z</time>
      </trkpt>
      <trkpt lat="47.43463" lon="7.24809">
        <ele>702.38</ele>
        <time>2017-03-28T10:20:33Z</time>
      </trkpt>
      <trkpt lat="47.43448" lon="7.24806">
        <ele>702.38</ele>
        <time>2017-03-28T10:20:47Z</time>
      </trkpt>
      <trkpt lat="47.4344" lon="7.24803">
        <ele>702.38</ele>
        <time>2017-03-28T10:20:54Z</time>
      </trkpt>
      <trkpt lat="47.43428" lon="7.24798">
        <ele>700.94</ele>
        <time>2017-03-28T10:21:03Z</time>
      </trkpt>
      <trkpt lat="47.43409" lon="7.24793">
        <ele>699.02</ele>
        <time>2017-03-28T10:21:19Z</time>
      </trkpt>
      <trkpt lat="47.43401" lon="7.2479">
        <ele>698.05</ele>
        <time>2017-03-28T10:21:26Z</time>
      </trkpt>
      <trkpt lat="47.434" lon="7.24773">
        <ele>698.05</ele>
        <time>2017-03-28T10:21:41Z</time>
      </trkpt>
      <trkpt lat="47.43397" lon="7.24752">
        <ele>698.05</ele>
        <time>2017-03-28T10:21:57Z</time>
      </trkpt>
      <trkpt lat="47.43394" lon="7.24745">
        <ele>699.02</ele>
        <time>2017-03-28T10:22:14Z</time>
      </trkpt>
      <trkpt lat="47.43393" lon="7.24732">
        <ele>699.02</ele>
        <time>2017-03-28T10:22:28Z</time>
      </trkpt>
      <trkpt lat="47.43392" lon="7.24728">
        <ele>699.02</ele>
        <time>2017-03-28T10:22:32Z</time>
      </trkpt>
      <trkpt lat="47.43387" lon="7.2472">
        <ele>699.5</ele>
        <time>2017-03-28T10:22:39Z</time>
      </trkpt>
      <trkpt lat="47.43382" lon="7.24714">
        <ele>699.5</ele>
        <time>2017-03-28T10:22:44Z</time>
      </trkpt>
      <trkpt lat="47.43364" lon="7.24708">
        <ele>700.46</ele>
        <time>2017-03-28T10:22:59Z</time>
      </trkpt>
      <trkpt lat="47.43355" lon="7.2471">
        <ele>700.94</ele>
        <time>2017-03-28T10:23:15Z</time>
      </trkpt>
      <trkpt lat="47.4335" lon="7.24702">
        <ele>701.42</ele>
        <time>2017-03-28T10:23:40Z</time>
      </trkpt>
      <trkpt lat="47.43339" lon="7.24691">
        <ele>702.38</ele>
        <time>2017-03-28T10:23:52Z</time>
      </trkpt>
      <trkpt lat="47.43325" lon="7.24677">
        <ele>703.34</ele>
        <time>2017-03-28T10:24:07Z</time>
      </trkpt>
      <trkpt lat="47.43318" lon="7.24666">
        <ele>703.82</ele>
        <time>2017-03-28T10:24:16Z</time>
      </trkpt>
      <trkpt lat="47.43313" lon="7.2465">
        <ele>704.78</ele>
        <time>2017-03-28T10:24:29Z</time>
      </trkpt>
      <trkpt lat="47.43313" lon="7.24649">
        <ele>704.78</ele>
        <time>2017-03-28T10:24:30Z</time>
      </trkpt>
      <trkpt lat="47.43311" lon="7.24646">
        <ele>705.26</ele>
        <time>2017-03-28T10:24:35Z</time>
      </trkpt>
      <trkpt lat="47.43309" lon="7.24642">
        <ele>705.26</ele>
        <time>2017-03-28T10:24:39Z</time>
      </trkpt>
      <trkpt lat="47.43307" lon="7.24621">
        <ele>705.75</ele>
        <time>2017-03-28T10:24:53Z</time>
      </trkpt>
      <trkpt lat="47.43306" lon="7.24611">
        <ele>706.71</ele>
        <time>2017-03-28T10:25:00Z</time>
      </trkpt>
      <trkpt lat="47.43304" lon="7.24593">
        <ele>707.19</ele>
        <time>2017-03-28T10:25:12Z</time>
      </trkpt>
      <trkpt lat="47.43299" lon="7.24575">
        <ele>707.67</ele>
        <time>2017-03-28T10:25:25Z</time>
      </trkpt>
      <trkpt lat="47.4329" lon="7.2455">
        <ele>709.11</ele>
        <time>2017-03-28T10:25:38Z</time>
      </trkpt>
      <trkpt lat="47.43291" lon="7.24537">
        <ele>709.59</ele>
        <time>2017-03-28T10:25:47Z</time>
      </trkpt>
      <trkpt lat="47.43292" lon="7.24525">
        <ele>711.03</ele>
        <time>2017-03-28T10:26:01Z</time>
      </trkpt>
      <trkpt lat="47.43296" lon="7.24521">
        <ele>711.51</ele>
        <time>2017-03-28T10:26:14Z</time>
      </trkpt>
      <trkpt lat="47.43303" lon="7.24516">
        <ele>712.95</ele>
        <time>2017-03-28T10:26:26Z</time>
      </trkpt>
      <trkpt lat="47.43308" lon="7.2451">
        <ele>714.4</ele>
        <time>2017-03-28T10:26:39Z</time>
      </trkpt>
      <trkpt lat="47.43317" lon="7.24499">
        <ele>715.84</ele>
        <time>2017-03-28T10:26:51Z</time>
      </trkpt>
      <trkpt lat="47.43332" lon="7.24485">
        <ele>716.8</ele>
        <time>2017-03-28T10:27:03Z</time>
      </trkpt>
      <trkpt lat="47.43338" lon="7.24472">
        <ele>717.28</ele>
        <time>2017-03-28T10:27:10Z</time>
      </trkpt>
      <trkpt lat="47.43349" lon="7.24441">
        <ele>718.24</ele>
        <time>2017-03-28T10:27:25Z</time>
      </trkpt>
      <trkpt lat="47.43357" lon="7.24414">
        <ele>719.2</ele>
        <time>2017-03-28T10:27:38Z</time>
      </trkpt>
      <trkpt lat="47.43365" lon="7.2438">
        <ele>720.16</ele>
        <time>2017-03-28T10:27:53Z</time>
      </trkpt>
      <trkpt lat="47.43367" lon="7.24363">
        <ele>721.13</ele>
        <time>2017-03-28T10:28:05Z</time>
      </trkpt>
      <trkpt lat="47.43369" lon="7.24341">
        <ele>723.05</ele>
        <time>2017-03-28T10:28:17Z</time>
      </trkpt>
      <trkpt lat="47.43372" lon="7.24331">
        <ele>723.53</ele>
        <time>2017-03-28T10:28:23Z</time>
      </trkpt>
      <trkpt lat="47.43373" lon="7.24311">
        <ele>724.49</ele>
        <time>2017-03-28T10:28:34Z</time>
      </trkpt>
      <trkpt lat="47.43377" lon="7.24297">
        <ele>724.97</ele>
        <time>2017-03-28T10:28:42Z</time>
      </trkpt>
      <trkpt lat="47.43378" lon="7.24292">
        <ele>725.45</ele>
        <time>2017-03-28T10:28:45Z</time>
      </trkpt>
      <trkpt lat="47.43379" lon="7.24288">
        <ele>725.45</ele>
        <time>2017-03-28T10:28:48Z</time>
      </trkpt>
      <trkpt lat="47.4338" lon="7.24285">
        <ele>726.41</ele>
        <time>2017-03-28T10:28:50Z</time>
      </trkpt>
      <trkpt lat="47.43381" lon="7.24279">
        <ele>726.89</ele>
        <time>2017-03-28T10:28:53Z</time>
      </trkpt>
      <trkpt lat="47.43385" lon="7.2427">
        <ele>726.89</ele>
        <time>2017-03-28T10:28:58Z</time>
      </trkpt>
      <trkpt lat="47.43388" lon="7.24259">
        <ele>727.86</ele>
        <time>2017-03-28T10:29:05Z</time>
      </trkpt>
      <trkpt lat="47.43395" lon="7.24237">
        <ele>728.82</ele>
        <time>2017-03-28T10:29:19Z</time>
      </trkpt>
      <trkpt lat="47.43398" lon="7.24224">
        <ele>729.3</ele>
        <time>2017-03-28T10:29:27Z</time>
      </trkpt>
      <trkpt lat="47.43399" lon="7.24214">
        <ele>729.78</ele>
        <time>2017-03-28T10:29:35Z</time>
      </trkpt>
      <trkpt lat="47.43404" lon="7.24201">
        <ele>731.22</ele>
        <time>2017-03-28T10:29:43Z</time>
      </trkpt>
      <trkpt lat="47.43407" lon="7.24194">
        <ele>731.22</ele>
        <time>2017-03-28T10:29:47Z</time>
      </trkpt>
      <trkpt lat="47.43413" lon="7.24169">
        <ele>733.14</ele>
        <time>2017-03-28T10:30:01Z</time>
      </trkpt>
      <trkpt lat="47.43415" lon="7.24161">
        <ele>733.62</ele>
        <time>2017-03-28T10:30:06Z</time>
      </trkpt>
      <trkpt lat="47.43415" lon="7.24154">
        <ele>734.58</ele>
        <time>2017-03-28T10:30:14Z</time>
      </trkpt>
      <trkpt lat="47.43415" lon="7.24141">
        <ele>736.03</ele>
        <time>2017-03-28T10:30:24Z</time>
      </trkpt>
      <trkpt lat="47.43417" lon="7.24116">
        <ele>737.47</ele>
        <time>2017-03-28T10:30:37Z</time>
      </trkpt>
      <trkpt lat="47.43412" lon="7.24089">
        <ele>738.91</ele>
        <time>2017-03-28T10:30:51Z</time>
      </trkpt>
      <trkpt lat="47.43406" lon="7.24069">
        <ele>740.35</ele>
        <time>2017-03-28T10:31:04Z</time>
      </trkpt>
      <trkpt lat="47.43405" lon="7.24052">
        <ele>741.79</ele>
        <time>2017-03-28T10:31:14Z</time>
      </trkpt>
      <trkpt lat="47.43399" lon="7.2403">
        <ele>743.24</ele>
        <time>2017-03-28T10:31:27Z</time>
      </trkpt>
      <trkpt lat="47.43398" lon="7.24025">
        <ele>743.24</ele>
        <time>2017-03-28T10:31:31Z</time>
      </trkpt>
      <trkpt lat="47.43391" lon="7.24001">
        <ele>744.68</ele>
        <time>2017-03-28T10:31:46Z</time>
      </trkpt>
      <trkpt lat="47.43391" lon="7.23995">
        <ele>744.68</ele>
        <time>2017-03-28T10:31:49Z</time>
      </trkpt>
      <trkpt lat="47.4339" lon="7.2399">
        <ele>744.68</ele>
        <time>2017-03-28T10:31:52Z</time>
      </trkpt>
      <trkpt lat="47.43385" lon="7.23983">
        <ele>745.64</ele>
        <time>2017-03-28T10:31:56Z</time>
      </trkpt>
      <trkpt lat="47.43375" lon="7.23961">
        <ele>746.12</ele>
        <time>2017-03-28T10:32:09Z</time>
      </trkpt>
      <trkpt lat="47.43373" lon="7.23959">
        <ele>746.12</ele>
        <time>2017-03-28T10:32:10Z</time>
      </trkpt>
      <trkpt lat="47.4337" lon="7.23954">
        <ele>746.12</ele>
        <time>2017-03-28T10:32:13Z</time>
      </trkpt>
      <trkpt lat="47.43366" lon="7.23938">
        <ele>747.08</ele>
        <time>2017-03-28T10:32:23Z</time>
      </trkpt>
      <trkpt lat="47.43359" lon="7.23911">
        <ele>747.56</ele>
        <time>2017-03-28T10:32:38Z</time>
      </trkpt>
      <trkpt lat="47.43358" lon="7.23908">
        <ele>747.56</ele>
        <time>2017-03-28T10:32:40Z</time>
      </trkpt>
      <trkpt lat="47.43352" lon="7.23893">
        <ele>748.04</ele>
        <time>2017-03-28T10:32:51Z</time>
      </trkpt>
      <trkpt lat="47.43342" lon="7.23894">
        <ele>748.52</ele>
        <time>2017-03-28T10:33:07Z</time>
      </trkpt>
      <trkpt lat="47.43337" lon="7.23897">
        <ele>749</ele>
        <time>2017-03-28T10:33:29Z</time>
      </trkpt>
      <trkpt lat="47.43319" lon="7.23899">
        <ele>749</ele>
        <time>2017-03-28T10:33:55Z</time>
      </trkpt>
      <trkpt lat="47.43316" lon="7.23898">
        <ele>749.49</ele>
        <time>2017-03-28T10:34:21Z</time>
      </trkpt>
      <trkpt lat="47.43318" lon="7.23888">
        <ele>749.49</ele>
        <time>2017-03-28T10:34:39Z</time>
      </trkpt>
      <trkpt lat="47.43314" lon="7.23891">
        <ele>749.97</ele>
        <time>2017-03-28T10:35:08Z</time>
      </trkpt>
      <trkpt lat="47.43323" lon="7.23898">
        <ele>749.97</ele>
        <time>2017-03-28T10:35:29Z</time>
      </trkpt>
      <trkpt lat="47.43328" lon="7.23891">
        <ele>748.52</ele>
        <time>2017-03-28T10:35:47Z</time>
      </trkpt>
      <trkpt lat="47.43332" lon="7.23891">
        <ele>748.04</ele>
        <time>2017-03-28T10:36:02Z</time>
      </trkpt>
      <trkpt lat="47.43339" lon="7.2389">
        <ele>746.6</ele>
        <time>2017-03-28T10:36:09Z</time>
      </trkpt>
      <trkpt lat="47.43351" lon="7.23887">
        <ele>746.12</ele>
        <time>2017-03-28T10:36:23Z</time>
      </trkpt>
      <trkpt lat="47.43365" lon="7.2388">
        <ele>745.64</ele>
        <time>2017-03-28T10:36:38Z</time>
      </trkpt>
      <trkpt lat="47.43368" lon="7.23878">
        <ele>745.64</ele>
        <time>2017-03-28T10:36:40Z</time>
      </trkpt>
      <trkpt lat="47.43382" lon="7.23867">
        <ele>744.68</ele>
        <time>2017-03-28T10:36:54Z</time>
      </trkpt>
      <trkpt lat="47.43394" lon="7.23855">
        <ele>744.68</ele>
        <time>2017-03-28T10:37:05Z</time>
      </trkpt>
      <trkpt lat="47.43409" lon="7.23844">
        <ele>744.68</ele>
        <time>2017-03-28T10:37:17Z</time>
      </trkpt>
      <trkpt lat="47.43425" lon="7.23835">
        <ele>744.2</ele>
        <time>2017-03-28T10:37:32Z</time>
      </trkpt>
      <trkpt lat="47.43435" lon="7.23826">
        <ele>745.64</ele>
        <time>2017-03-28T10:37:41Z</time>
      </trkpt>
      <trkpt lat="47.43449" lon="7.23813">
        <ele>746.12</ele>
        <time>2017-03-28T10:37:54Z</time>
      </trkpt>
      <trkpt lat="47.43454" lon="7.23803">
        <ele>746.12</ele>
        <time>2017-03-28T10:38:10Z</time>
      </trkpt>
      <trkpt lat="47.43456" lon="7.23796">
        <ele>745.64</ele>
        <time>2017-03-28T10:38:36Z</time>
      </trkpt>
      <trkpt lat="47.43465" lon="7.23778">
        <ele>744.68</ele>
        <time>2017-03-28T10:38:55Z</time>
      </trkpt>
      <trkpt lat="47.43475" lon="7.23778">
        <ele>743.24</ele>
        <time>2017-03-28T10:39:10Z</time>
      </trkpt>
      <trkpt lat="47.43486" lon="7.23776">
        <ele>741.31</ele>
        <time>2017-03-28T10:39:22Z</time>
      </trkpt>
      <trkpt lat="47.43495" lon="7.23766">
        <ele>738.43</ele>
        <time>2017-03-28T10:39:35Z</time>
      </trkpt>
      <trkpt lat="47.43509" lon="7.23757">
        <ele>735.55</ele>
        <time>2017-03-28T10:39:49Z</time>
      </trkpt>
      <trkpt lat="47.43522" lon="7.23749">
        <ele>733.14</ele>
        <time>2017-03-28T10:40:02Z</time>
      </trkpt>
      <trkpt lat="47.43539" lon="7.23737">
        <ele>731.22</ele>
        <time>2017-03-28T10:40:15Z</time>
      </trkpt>
      <trkpt lat="47.43554" lon="7.23725">
        <ele>728.82</ele>
        <time>2017-03-28T10:40:28Z</time>
      </trkpt>
      <trkpt lat="47.43566" lon="7.23715">
        <ele>727.86</ele>
        <time>2017-03-28T10:40:41Z</time>
      </trkpt>
      <trkpt lat="47.43575" lon="7.23704">
        <ele>726.89</ele>
        <time>2017-03-28T10:40:56Z</time>
      </trkpt>
      <trkpt lat="47.43581" lon="7.23694">
        <ele>725.45</ele>
        <time>2017-03-28T10:41:09Z</time>
      </trkpt>
      <trkpt lat="47.43593" lon="7.23681">
        <ele>723.53</ele>
        <time>2017-03-28T10:41:22Z</time>
      </trkpt>
      <trkpt lat="47.43603" lon="7.23674">
        <ele>722.57</ele>
        <time>2017-03-28T10:41:31Z</time>
      </trkpt>
      <trkpt lat="47.4362" lon="7.23662">
        <ele>720.65</ele>
        <time>2017-03-28T10:41:47Z</time>
      </trkpt>
      <trkpt lat="47.43622" lon="7.2366">
        <ele>720.65</ele>
        <time>2017-03-28T10:41:49Z</time>
      </trkpt>
      <trkpt lat="47.43627" lon="7.23656">
        <ele>720.65</ele>
        <time>2017-03-28T10:41:54Z</time>
      </trkpt>
      <trkpt lat="47.43644" lon="7.23633">
        <ele>718.72</ele>
        <time>2017-03-28T10:42:10Z</time>
      </trkpt>
      <trkpt lat="47.43658" lon="7.23615">
        <ele>716.32</ele>
        <time>2017-03-28T10:42:24Z</time>
      </trkpt>
      <trkpt lat="47.4367" lon="7.23604">
        <ele>714.4</ele>
        <time>2017-03-28T10:42:37Z</time>
      </trkpt>
      <trkpt lat="47.43678" lon="7.23598">
        <ele>713.44</ele>
        <time>2017-03-28T10:42:48Z</time>
      </trkpt>
      <trkpt lat="47.43694" lon="7.23584">
        <ele>711.99</ele>
        <time>2017-03-28T10:43:01Z</time>
      </trkpt>
      <trkpt lat="47.43702" lon="7.23582">
        <ele>710.55</ele>
        <time>2017-03-28T10:43:13Z</time>
      </trkpt>
      <trkpt lat="47.43707" lon="7.23588">
        <ele>710.55</ele>
        <time>2017-03-28T10:43:23Z</time>
      </trkpt>
      <trkpt lat="47.43717" lon="7.23604">
        <ele>710.55</ele>
        <time>2017-03-28T10:43:35Z</time>
      </trkpt>
      <trkpt lat="47.4372" lon="7.23607">
        <ele>711.99</ele>
        <time>2017-03-28T10:43:38Z</time>
      </trkpt>
      <trkpt lat="47.43727" lon="7.23617">
        <ele>713.44</ele>
        <time>2017-03-28T10:43:51Z</time>
      </trkpt>
      <trkpt lat="47.43732" lon="7.23601">
        <ele>712.95</ele>
        <time>2017-03-28T10:44:02Z</time>
      </trkpt>
      <trkpt lat="47.43733" lon="7.23599">
        <ele>712.95</ele>
        <time>2017-03-28T10:44:22Z</time>
      </trkpt>
      <trkpt lat="47.43736" lon="7.23598">
        <ele>712.95</ele>
        <time>2017-03-28T10:44:37Z</time>
      </trkpt>
      <trkpt lat="47.43739" lon="7.23591">
        <ele>712.95</ele>
        <time>2017-03-28T10:45:06Z</time>
      </trkpt>
      <trkpt lat="47.43738" lon="7.23588">
        <ele>711.51</ele>
        <time>2017-03-28T10:45:33Z</time>
      </trkpt>
      <trkpt lat="47.43743" lon="7.23587">
        <ele>711.51</ele>
        <time>2017-03-28T10:46:06Z</time>
      </trkpt>
      <trkpt lat="47.43746" lon="7.23585">
        <ele>711.51</ele>
        <time>2017-03-28T10:46:32Z</time>
      </trkpt>
      <trkpt lat="47.43748" lon="7.23585">
        <ele>712.95</ele>
        <time>2017-03-28T10:47:08Z</time>
      </trkpt>
      <trkpt lat="47.43739" lon="7.23592">
        <ele>711.51</ele>
        <time>2017-03-28T10:47:29Z</time>
      </trkpt>
      <trkpt lat="47.43735" lon="7.23592">
        <ele>711.51</ele>
        <time>2017-03-28T10:48:05Z</time>
      </trkpt>
      <trkpt lat="47.43735" lon="7.23584">
        <ele>711.51</ele>
        <time>2017-03-28T10:48:36Z</time>
      </trkpt>
      <trkpt lat="47.43736" lon="7.23592">
        <ele>711.51</ele>
        <time>2017-03-28T10:49:04Z</time>
      </trkpt>
      <trkpt lat="47.43737" lon="7.23591">
        <ele>711.51</ele>
        <time>2017-03-28T10:49:37Z</time>
      </trkpt>
      <trkpt lat="47.43736" lon="7.2359">
        <ele>711.03</ele>
        <time>2017-03-28T10:50:03Z</time>
      </trkpt>
      <trkpt lat="47.43735" lon="7.23589">
        <ele>711.03</ele>
        <time>2017-03-28T10:50:33Z</time>
      </trkpt>
      <trkpt lat="47.43741" lon="7.23591">
        <ele>711.03</ele>
        <time>2017-03-28T10:51:09Z</time>
      </trkpt>
      <trkpt lat="47.43741" lon="7.23586">
        <ele>711.03</ele>
        <time>2017-03-28T10:51:37Z</time>
      </trkpt>
      <trkpt lat="47.4374" lon="7.23584">
        <ele>711.03</ele>
        <time>2017-03-28T10:52:00Z</time>
      </trkpt>
      <trkpt lat="47.43743" lon="7.23579">
        <ele>711.03</ele>
        <time>2017-03-28T10:52:28Z</time>
      </trkpt>
      <trkpt lat="47.4374" lon="7.23579">
        <ele>711.51</ele>
        <time>2017-03-28T10:53:00Z</time>
      </trkpt>
      <trkpt lat="47.43737" lon="7.23582">
        <ele>711.99</ele>
        <time>2017-03-28T10:53:33Z</time>
      </trkpt>
      <trkpt lat="47.43744" lon="7.23579">
        <ele>711.99</ele>
        <time>2017-03-28T10:54:05Z</time>
      </trkpt>
      <trkpt lat="47.4374" lon="7.23585">
        <ele>711.99</ele>
        <time>2017-03-28T10:54:24Z</time>
      </trkpt>
      <trkpt lat="47.43737" lon="7.23591">
        <ele>712.47</ele>
        <time>2017-03-28T10:54:55Z</time>
      </trkpt>
      <trkpt lat="47.43737" lon="7.23587">
        <ele>712.47</ele>
        <time>2017-03-28T10:55:27Z</time>
      </trkpt>
      <trkpt lat="47.4374" lon="7.23587">
        <ele>711.99</ele>
        <time>2017-03-28T10:55:54Z</time>
      </trkpt>
      <trkpt lat="47.43743" lon="7.23591">
        <ele>711.99</ele>
        <time>2017-03-28T10:56:34Z</time>
      </trkpt>
      <trkpt lat="47.43742" lon="7.23586">
        <ele>711.99</ele>
        <time>2017-03-28T10:57:12Z</time>
      </trkpt>
      <trkpt lat="47.43738" lon="7.23589">
        <ele>711.51</ele>
        <time>2017-03-28T10:57:52Z</time>
      </trkpt>
      <trkpt lat="47.43741" lon="7.23588">
        <ele>711.51</ele>
        <time>2017-03-28T10:58:21Z</time>
      </trkpt>
      <trkpt lat="47.43735" lon="7.23593">
        <ele>711.51</ele>
        <time>2017-03-28T10:58:49Z</time>
      </trkpt>
      <trkpt lat="47.43739" lon="7.23587">
        <ele>711.51</ele>
        <time>2017-03-28T10:59:24Z</time>
      </trkpt>
      <trkpt lat="47.4374" lon="7.23591">
        <ele>711.51</ele>
        <time>2017-03-28T10:59:56Z</time>
      </trkpt>
      <trkpt lat="47.43738" lon="7.23588">
        <ele>711.51</ele>
        <time>2017-03-28T11:00:22Z</time>
      </trkpt>
      <trkpt lat="47.43734" lon="7.23589">
        <ele>711.51</ele>
        <time>2017-03-28T11:00:55Z</time>
      </trkpt>
      <trkpt lat="47.4374" lon="7.23588">
        <ele>711.51</ele>
        <time>2017-03-28T11:01:24Z</time>
      </trkpt>
      <trkpt lat="47.4374" lon="7.2359">
        <ele>711.51</ele>
        <time>2017-03-28T11:01:59Z</time>
      </trkpt>
      <trkpt lat="47.43734" lon="7.23591">
        <ele>712.47</ele>
        <time>2017-03-28T11:02:32Z</time>
      </trkpt>
      <trkpt lat="47.43733" lon="7.23592">
        <ele>712.47</ele>
        <time>2017-03-28T11:03:03Z</time>
      </trkpt>
      <trkpt lat="47.43736" lon="7.23585">
        <ele>712.47</ele>
        <time>2017-03-28T11:03:41Z</time>
      </trkpt>
      <trkpt lat="47.43738" lon="7.2359">
        <ele>712.47</ele>
        <time>2017-03-28T11:04:13Z</time>
      </trkpt>
      <trkpt lat="47.43737" lon="7.23588">
        <ele>712.47</ele>
        <time>2017-03-28T11:04:43Z</time>
      </trkpt>
      <trkpt lat="47.43736" lon="7.23589">
        <ele>712.47</ele>
        <time>2017-03-28T11:05:12Z</time>
      </trkpt>
      <trkpt lat="47.43739" lon="7.23591">
        <ele>712.95</ele>
        <time>2017-03-28T11:05:46Z</time>
      </trkpt>
      <trkpt lat="47.43741" lon="7.23597">
        <ele>712.95</ele>
        <time>2017-03-28T11:06:20Z</time>
      </trkpt>
      <trkpt lat="47.43738" lon="7.23599">
        <ele>712.95</ele>
        <time>2017-03-28T11:06:54Z</time>
      </trkpt>
      <trkpt lat="47.43739" lon="7.23595">
        <ele>712.95</ele>
        <time>2017-03-28T11:07:25Z</time>
      </trkpt>
      <trkpt lat="47.43738" lon="7.23594">
        <ele>712.95</ele>
        <time>2017-03-28T11:07:54Z</time>
      </trkpt>
      <trkpt lat="47.43736" lon="7.23587">
        <ele>712.95</ele>
        <time>2017-03-28T11:08:26Z</time>
      </trkpt>
      <trkpt lat="47.4374" lon="7.2359">
        <ele>713.44</ele>
        <time>2017-03-28T11:08:52Z</time>
      </trkpt>
      <trkpt lat="47.43742" lon="7.23588">
        <ele>713.44</ele>
        <time>2017-03-28T11:09:21Z</time>
      </trkpt>
      <trkpt lat="47.43744" lon="7.23588">
        <ele>713.44</ele>
        <time>2017-03-28T11:09:49Z</time>
      </trkpt>
      <trkpt lat="47.43747" lon="7.23587">
        <ele>713.92</ele>
        <time>2017-03-28T11:10:12Z</time>
      </trkpt>
      <trkpt lat="47.43739" lon="7.23583">
        <ele>713.92</ele>
        <time>2017-03-28T11:10:42Z</time>
      </trkpt>
      <trkpt lat="47.43738" lon="7.23587">
        <ele>714.4</ele>
        <time>2017-03-28T11:11:10Z</time>
      </trkpt>
      <trkpt lat="47.43736" lon="7.23585">
        <ele>714.4</ele>
        <time>2017-03-28T11:11:32Z</time>
      </trkpt>
      <trkpt lat="47.43738" lon="7.23588">
        <ele>714.88</ele>
        <time>2017-03-28T11:12:01Z</time>
      </trkpt>
      <trkpt lat="47.4374" lon="7.23586">
        <ele>714.88</ele>
        <time>2017-03-28T11:12:32Z</time>
      </trkpt>
      <trkpt lat="47.43734" lon="7.23588">
        <ele>715.36</ele>
        <time>2017-03-28T11:13:05Z</time>
      </trkpt>
      <trkpt lat="47.43743" lon="7.23585">
        <ele>715.36</ele>
        <time>2017-03-28T11:13:42Z</time>
      </trkpt>
      <trkpt lat="47.43738" lon="7.23576">
        <ele>715.84</ele>
        <time>2017-03-28T11:14:17Z</time>
      </trkpt>
      <trkpt lat="47.43739" lon="7.23582">
        <ele>716.32</ele>
        <time>2017-03-28T11:14:51Z</time>
      </trkpt>
      <trkpt lat="47.43736" lon="7.23584">
        <ele>716.32</ele>
        <time>2017-03-28T11:15:25Z</time>
      </trkpt>
      <trkpt lat="47.43734" lon="7.23582">
        <ele>716.32</ele>
        <time>2017-03-28T11:15:58Z</time>
      </trkpt>
      <trkpt lat="47.43734" lon="7.23587">
        <ele>716.32</ele>
        <time>2017-03-28T11:16:24Z</time>
      </trkpt>
      <trkpt lat="47.43732" lon="7.23586">
        <ele>716.32</ele>
        <time>2017-03-28T11:16:48Z</time>
      </trkpt>
      <trkpt lat="47.43733" lon="7.23588">
        <ele>716.32</ele>
        <time>2017-03-28T11:17:08Z</time>
      </trkpt>
      <trkpt lat="47.43735" lon="7.23589">
        <ele>716.32</ele>
        <time>2017-03-28T11:17:36Z</time>
      </trkpt>
      <trkpt lat="47.43739" lon="7.23585">
        <ele>716.32</ele>
        <time>2017-03-28T11:17:59Z</time>
      </trkpt>
      <trkpt lat="47.43741" lon="7.23588">
        <ele>716.32</ele>
        <time>2017-03-28T11:18:19Z</time>
      </trkpt>
      <trkpt lat="47.43744" lon="7.23588">
        <ele>716.32</ele>
        <time>2017-03-28T11:18:46Z</time>
      </trkpt>
      <trkpt lat="47.43743" lon="7.23587">
        <ele>716.32</ele>
        <time>2017-03-28T11:19:18Z</time>
      </trkpt>
      <trkpt lat="47.43743" lon="7.23587">
        <ele>716.32</ele>
        <time>2017-03-28T11:19:41Z</time>
      </trkpt>
      <trkpt lat="47.43743" lon="7.23587">
        <ele>716.32</ele>
        <time>2017-03-28T11:20:06Z</time>
      </trkpt>
      <trkpt lat="47.43743" lon="7.23592">
        <ele>716.32</ele>
        <time>2017-03-28T11:20:32Z</time>
      </trkpt>
      <trkpt lat="47.43743" lon="7.2359">
        <ele>716.32</ele>
        <time>2017-03-28T11:21:05Z</time>
      </trkpt>
      <trkpt lat="47.43738" lon="7.23588">
        <ele>716.8</ele>
        <time>2017-03-28T11:21:36Z</time>
      </trkpt>
      <trkpt lat="47.43732" lon="7.23584">
        <ele>716.8</ele>
        <time>2017-03-28T11:22:03Z</time>
      </trkpt>
      <trkpt lat="47.4373" lon="7.23584">
        <ele>716.8</ele>
        <time>2017-03-28T11:22:22Z</time>
      </trkpt>
      <trkpt lat="47.43733" lon="7.2358">
        <ele>716.8</ele>
        <time>2017-03-28T11:22:39Z</time>
      </trkpt>
      <trkpt lat="47.43737" lon="7.23584">
        <ele>716.8</ele>
        <time>2017-03-28T11:23:11Z</time>
      </trkpt>
      <trkpt lat="47.4374" lon="7.23582">
        <ele>717.28</ele>
        <time>2017-03-28T11:23:34Z</time>
      </trkpt>
      <trkpt lat="47.4374" lon="7.23583">
        <ele>717.28</ele>
        <time>2017-03-28T11:23:57Z</time>
      </trkpt>
      <trkpt lat="47.43737" lon="7.23585">
        <ele>717.28</ele>
        <time>2017-03-28T11:24:16Z</time>
      </trkpt>
      <trkpt lat="47.43737" lon="7.23585">
        <ele>717.76</ele>
        <time>2017-03-28T11:24:43Z</time>
      </trkpt>
      <trkpt lat="47.43736" lon="7.23585">
        <ele>718.24</ele>
        <time>2017-03-28T11:25:13Z</time>
      </trkpt>
      <trkpt lat="47.43733" lon="7.23583">
        <ele>718.24</ele>
        <time>2017-03-28T11:25:39Z</time>
      </trkpt>
      <trkpt lat="47.4373" lon="7.23586">
        <ele>718.24</ele>
        <time>2017-03-28T11:26:05Z</time>
      </trkpt>
      <trkpt lat="47.43733" lon="7.23586">
        <ele>718.24</ele>
        <time>2017-03-28T11:26:33Z</time>
      </trkpt>
      <trkpt lat="47.43734" lon="7.23585">
        <ele>718.24</ele>
        <time>2017-03-28T11:27:01Z</time>
      </trkpt>
      <trkpt lat="47.43732" lon="7.23589">
        <ele>718.24</ele>
        <time>2017-03-28T11:27:33Z</time>
      </trkpt>
      <trkpt lat="47.4373" lon="7.23587">
        <ele>718.24</ele>
        <time>2017-03-28T11:28:03Z</time>
      </trkpt>
      <trkpt lat="47.43734" lon="7.23584">
        <ele>718.24</ele>
        <time>2017-03-28T11:28:38Z</time>
      </trkpt>
      <trkpt lat="47.43732" lon="7.23582">
        <ele>718.24</ele>
        <time>2017-03-28T11:29:06Z</time>
      </trkpt>
      <trkpt lat="47.43733" lon="7.2359">
        <ele>718.24</ele>
        <time>2017-03-28T11:29:42Z</time>
      </trkpt>
      <trkpt lat="47.43735" lon="7.23585">
        <ele>718.24</ele>
        <time>2017-03-28T11:30:08Z</time>
      </trkpt>
      <trkpt lat="47.43732" lon="7.23583">
        <ele>718.24</ele>
        <time>2017-03-28T11:30:36Z</time>
      </trkpt>
      <trkpt lat="47.43733" lon="7.23585">
        <ele>718.24</ele>
        <time>2017-03-28T11:31:04Z</time>
      </trkpt>
      <trkpt lat="47.43734" lon="7.23582">
        <ele>718.24</ele>
        <time>2017-03-28T11:31:30Z</time>
      </trkpt>
      <trkpt lat="47.43736" lon="7.2358">
        <ele>718.24</ele>
        <time>2017-03-28T11:31:58Z</time>
      </trkpt>
      <trkpt lat="47.43736" lon="7.23584">
        <ele>718.24</ele>
        <time>2017-03-28T11:32:25Z</time>
      </trkpt>
      <trkpt lat="47.4373" lon="7.23585">
        <ele>718.72</ele>
        <time>2017-03-28T11:32:50Z</time>
      </trkpt>
      <trkpt lat="47.4373" lon="7.23585">
        <ele>718.72</ele>
        <time>2017-03-28T11:33:12Z</time>
      </trkpt>
      <trkpt lat="47.43733" lon="7.23583">
        <ele>718.24</ele>
        <time>2017-03-28T11:33:43Z</time>
      </trkpt>
      <trkpt lat="47.43732" lon="7.23582">
        <ele>718.24</ele>
        <time>2017-03-28T11:34:09Z</time>
      </trkpt>
      <trkpt lat="47.43734" lon="7.23583">
        <ele>718.24</ele>
        <time>2017-03-28T11:34:41Z</time>
      </trkpt>
      <trkpt lat="47.43735" lon="7.23581">
        <ele>718.24</ele>
        <time>2017-03-28T11:35:15Z</time>
      </trkpt>
      <trkpt lat="47.43735" lon="7.23584">
        <ele>718.72</ele>
        <time>2017-03-28T11:35:36Z</time>
      </trkpt>
      <trkpt lat="47.43735" lon="7.23585">
        <ele>718.72</ele>
        <time>2017-03-28T11:36:10Z</time>
      </trkpt>
      <trkpt lat="47.43734" lon="7.23584">
        <ele>718.24</ele>
        <time>2017-03-28T11:36:40Z</time>
      </trkpt>
      <trkpt lat="47.43736" lon="7.23588">
        <ele>718.24</ele>
        <time>2017-03-28T11:37:06Z</time>
      </trkpt>
      <trkpt lat="47.43738" lon="7.23591">
        <ele>718.24</ele>
        <time>2017-03-28T11:37:28Z</time>
      </trkpt>
      <trkpt lat="47.4374" lon="7.23587">
        <ele>718.24</ele>
        <time>2017-03-28T11:38:01Z</time>
      </trkpt>
      <trkpt lat="47.43738" lon="7.23585">
        <ele>718.24</ele>
        <time>2017-03-28T11:38:30Z</time>
      </trkpt>
      <trkpt lat="47.43738" lon="7.23581">
        <ele>718.24</ele>
        <time>2017-03-28T11:38:56Z</time>
      </trkpt>
      <trkpt lat="47.43739" lon="7.23583">
        <ele>718.24</ele>
        <time>2017-03-28T11:39:28Z</time>
      </trkpt>
      <trkpt lat="47.43737" lon="7.23583">
        <ele>718.24</ele>
        <time>2017-03-28T11:39:51Z</time>
      </trkpt>
      <trkpt lat="47.43737" lon="7.23586">
        <ele>718.24</ele>
        <time>2017-03-28T11:40:28Z</time>
      </trkpt>
      <trkpt lat="47.43739" lon="7.23586">
        <ele>718.24</ele>
        <time>2017-03-28T11:41:00Z</time>
      </trkpt>
      <trkpt lat="47.4374" lon="7.23586">
        <ele>717.76</ele>
        <time>2017-03-28T11:41:30Z</time>
      </trkpt>
      <trkpt lat="47.43742" lon="7.23584">
        <ele>718.24</ele>
        <time>2017-03-28T11:42:09Z</time>
      </trkpt>
      <trkpt lat="47.43741" lon="7.23586">
        <ele>718.24</ele>
        <time>2017-03-28T11:42:37Z</time>
      </trkpt>
      <trkpt lat="47.4374" lon="7.23592">
        <ele>718.24</ele>
        <time>2017-03-28T11:43:00Z</time>
      </trkpt>
      <trkpt lat="47.43745" lon="7.23589">
        <ele>718.24</ele>
        <time>2017-03-28T11:43:23Z</time>
      </trkpt>
      <trkpt lat="47.43743" lon="7.23588">
        <ele>718.24</ele>
        <time>2017-03-28T11:43:49Z</time>
      </trkpt>
      <trkpt lat="47.43745" lon="7.23584">
        <ele>718.24</ele>
        <time>2017-03-28T11:44:14Z</time>
      </trkpt>
      <trkpt lat="47.43743" lon="7.23586">
        <ele>718.24</ele>
        <time>2017-03-28T11:44:35Z</time>
      </trkpt>
      <trkpt lat="47.43744" lon="7.23586">
        <ele>718.24</ele>
        <time>2017-03-28T11:44:56Z</time>
      </trkpt>
      <trkpt lat="47.43747" lon="7.23585">
        <ele>718.24</ele>
        <time>2017-03-28T11:45:14Z</time>
      </trkpt>
      <trkpt lat="47.43746" lon="7.23588">
        <ele>718.24</ele>
        <time>2017-03-28T11:45:26Z</time>
      </trkpt>
      <trkpt lat="47.43745" lon="7.23589">
        <ele>718.24</ele>
        <time>2017-03-28T11:45:40Z</time>
      </trkpt>
      <trkpt lat="47.43745" lon="7.23587">
        <ele>717.76</ele>
        <time>2017-03-28T11:45:53Z</time>
      </trkpt>
      <trkpt lat="47.43743" lon="7.23588">
        <ele>718.24</ele>
        <time>2017-03-28T11:46:14Z</time>
      </trkpt>
      <trkpt lat="47.4374" lon="7.23586">
        <ele>718.24</ele>
        <time>2017-03-28T11:46:33Z</time>
      </trkpt>
      <trkpt lat="47.43738" lon="7.23588">
        <ele>718.24</ele>
        <time>2017-03-28T11:47:04Z</time>
      </trkpt>
      <trkpt lat="47.43733" lon="7.23591">
        <ele>717.76</ele>
        <time>2017-03-28T11:47:25Z</time>
      </trkpt>
      <trkpt lat="47.43732" lon="7.23593">
        <ele>717.76</ele>
        <time>2017-03-28T11:47:58Z</time>
      </trkpt>
      <trkpt lat="47.43732" lon="7.23595">
        <ele>717.76</ele>
        <time>2017-03-28T11:48:24Z</time>
      </trkpt>
      <trkpt lat="47.43732" lon="7.23598">
        <ele>711.99</ele>
        <time>2017-03-28T11:48:36Z</time>
      </trkpt>
      <trkpt lat="47.43732" lon="7.23598">
        <ele>723.53</ele>
        <time>2017-03-28T11:48:37Z</time>
      </trkpt>
      <trkpt lat="47.43732" lon="7.23597">
        <ele>718.24</ele>
        <time>2017-03-28T11:48:38Z</time>
      </trkpt>
      <trkpt lat="47.43734" lon="7.23596">
        <ele>718.24</ele>
        <time>2017-03-28T11:49:07Z</time>
      </trkpt>
      <trkpt lat="47.43732" lon="7.23597">
        <ele>718.24</ele>
        <time>2017-03-28T11:49:40Z</time>
      </trkpt>
      <trkpt lat="47.43728" lon="7.236">
        <ele>718.24</ele>
        <time>2017-03-28T11:50:07Z</time>
      </trkpt>
      <trkpt lat="47.43728" lon="7.23607">
        <ele>718.24</ele>
        <time>2017-03-28T11:50:34Z</time>
      </trkpt>
      <trkpt lat="47.43725" lon="7.23601">
        <ele>718.24</ele>
        <time>2017-03-28T11:51:12Z</time>
      </trkpt>
      <trkpt lat="47.43727" lon="7.23599">
        <ele>718.72</ele>
        <time>2017-03-28T11:51:48Z</time>
      </trkpt>
      <trkpt lat="47.43725" lon="7.23597">
        <ele>718.72</ele>
        <time>2017-03-28T11:52:20Z</time>
      </trkpt>
      <trkpt lat="47.43726" lon="7.23596">
        <ele>720.16</ele>
        <time>2017-03-28T11:52:40Z</time>
      </trkpt>
      <trkpt lat="47.43729" lon="7.23596">
        <ele>720.16</ele>
        <time>2017-03-28T11:53:02Z</time>
      </trkpt>
      <trkpt lat="47.43728" lon="7.23598">
        <ele>720.16</ele>
        <time>2017-03-28T11:53:32Z</time>
      </trkpt>
      <trkpt lat="47.4373" lon="7.23595">
        <ele>720.16</ele>
        <time>2017-03-28T11:54:02Z</time>
      </trkpt>
      <trkpt lat="47.43734" lon="7.23594">
        <ele>718.24</ele>
        <time>2017-03-28T11:54:22Z</time>
      </trkpt>
      <trkpt lat="47.43734" lon="7.23591">
        <ele>719.2</ele>
        <time>2017-03-28T11:54:39Z</time>
      </trkpt>
      <trkpt lat="47.43738" lon="7.23592">
        <ele>719.2</ele>
        <time>2017-03-28T11:54:53Z</time>
      </trkpt>
      <trkpt lat="47.43735" lon="7.23594">
        <ele>719.2</ele>
        <time>2017-03-28T11:55:09Z</time>
      </trkpt>
      <trkpt lat="47.43731" lon="7.23594">
        <ele>719.2</ele>
        <time>2017-03-28T11:55:26Z</time>
      </trkpt>
      <trkpt lat="47.43728" lon="7.23592">
        <ele>719.2</ele>
        <time>2017-03-28T11:55:40Z</time>
      </trkpt>
      <trkpt lat="47.43731" lon="7.23594">
        <ele>719.2</ele>
        <time>2017-03-28T11:56:02Z</time>
      </trkpt>
      <trkpt lat="47.43734" lon="7.23596">
        <ele>719.2</ele>
        <time>2017-03-28T11:56:25Z</time>
      </trkpt>
      <trkpt lat="47.4373" lon="7.23592">
        <ele>718.72</ele>
        <time>2017-03-28T11:56:43Z</time>
      </trkpt>
      <trkpt lat="47.43728" lon="7.23587">
        <ele>716.8</ele>
        <time>2017-03-28T11:56:59Z</time>
      </trkpt>
      <trkpt lat="47.43721" lon="7.23583">
        <ele>716.32</ele>
        <time>2017-03-28T11:57:12Z</time>
      </trkpt>
      <trkpt lat="47.43714" lon="7.23575">
        <ele>715.84</ele>
        <time>2017-03-28T11:57:24Z</time>
      </trkpt>
      <trkpt lat="47.43713" lon="7.23572">
        <ele>715.36</ele>
        <time>2017-03-28T11:57:28Z</time>
      </trkpt>
      <trkpt lat="47.43707" lon="7.23559">
        <ele>714.88</ele>
        <time>2017-03-28T11:57:44Z</time>
      </trkpt>
      <trkpt lat="47.43706" lon="7.23558">
        <ele>714.88</ele>
        <time>2017-03-28T11:58:02Z</time>
      </trkpt>
      <trkpt lat="47.43711" lon="7.23554">
        <ele>714.88</ele>
        <time>2017-03-28T11:58:18Z</time>
      </trkpt>
      <trkpt lat="47.43721" lon="7.23542">
        <ele>714.88</ele>
        <time>2017-03-28T11:58:33Z</time>
      </trkpt>
      <trkpt lat="47.43732" lon="7.23531">
        <ele>716.8</ele>
        <time>2017-03-28T11:58:48Z</time>
      </trkpt>
      <trkpt lat="47.43744" lon="7.23515">
        <ele>717.76</ele>
        <time>2017-03-28T11:59:06Z</time>
      </trkpt>
      <trkpt lat="47.43749" lon="7.23493">
        <ele>719.68</ele>
        <time>2017-03-28T11:59:24Z</time>
      </trkpt>
      <trkpt lat="47.43751" lon="7.2348">
        <ele>720.65</ele>
        <time>2017-03-28T11:59:33Z</time>
      </trkpt>
      <trkpt lat="47.43751" lon="7.23452">
        <ele>723.05</ele>
        <time>2017-03-28T11:59:51Z</time>
      </trkpt>
      <trkpt lat="47.43752" lon="7.23428">
        <ele>724.49</ele>
        <time>2017-03-28T12:00:07Z</time>
      </trkpt>
      <trkpt lat="47.43755" lon="7.23397">
        <ele>725.45</ele>
        <time>2017-03-28T12:00:26Z</time>
      </trkpt>
      <trkpt lat="47.43756" lon="7.23371">
        <ele>726.41</ele>
        <time>2017-03-28T12:00:42Z</time>
      </trkpt>
      <trkpt lat="47.43758" lon="7.23343">
        <ele>726.89</ele>
        <time>2017-03-28T12:00:58Z</time>
      </trkpt>
      <trkpt lat="47.4376" lon="7.23316">
        <ele>727.37</ele>
        <time>2017-03-28T12:01:15Z</time>
      </trkpt>
      <trkpt lat="47.43762" lon="7.23286">
        <ele>728.82</ele>
        <time>2017-03-28T12:01:33Z</time>
      </trkpt>
      <trkpt lat="47.43763" lon="7.23278">
        <ele>729.78</ele>
        <time>2017-03-28T12:01:39Z</time>
      </trkpt>
      <trkpt lat="47.43767" lon="7.23253">
        <ele>729.78</ele>
        <time>2017-03-28T12:01:55Z</time>
      </trkpt>
      <trkpt lat="47.43776" lon="7.2323">
        <ele>730.74</ele>
        <time>2017-03-28T12:02:12Z</time>
      </trkpt>
      <trkpt lat="47.4378" lon="7.23225">
        <ele>730.74</ele>
        <time>2017-03-28T12:02:19Z</time>
      </trkpt>
      <trkpt lat="47.43793" lon="7.23217">
        <ele>731.22</ele>
        <time>2017-03-28T12:02:35Z</time>
      </trkpt>
      <trkpt lat="47.43805" lon="7.23214">
        <ele>732.18</ele>
        <time>2017-03-28T12:02:49Z</time>
      </trkpt>
      <trkpt lat="47.4381" lon="7.23211">
        <ele>732.18</ele>
        <time>2017-03-28T12:03:10Z</time>
      </trkpt>
      <trkpt lat="47.43815" lon="7.23214">
        <ele>732.18</ele>
        <time>2017-03-28T12:03:16Z</time>
      </trkpt>
      <trkpt lat="47.43832" lon="7.23223">
        <ele>730.74</ele>
        <time>2017-03-28T12:03:32Z</time>
      </trkpt>
      <trkpt lat="47.43855" lon="7.23218">
        <ele>729.78</ele>
        <time>2017-03-28T12:03:49Z</time>
      </trkpt>
      <trkpt lat="47.43873" lon="7.23204">
        <ele>729.3</ele>
        <time>2017-03-28T12:04:06Z</time>
      </trkpt>
      <trkpt lat="47.43891" lon="7.23182">
        <ele>727.37</ele>
        <time>2017-03-28T12:04:25Z</time>
      </trkpt>
      <trkpt lat="47.43906" lon="7.23159">
        <ele>726.89</ele>
        <time>2017-03-28T12:04:43Z</time>
      </trkpt>
      <trkpt lat="47.4392" lon="7.23135">
        <ele>726.89</ele>
        <time>2017-03-28T12:05:01Z</time>
      </trkpt>
      <trkpt lat="47.43931" lon="7.23112">
        <ele>726.41</ele>
        <time>2017-03-28T12:05:17Z</time>
      </trkpt>
      <trkpt lat="47.43934" lon="7.23104">
        <ele>726.41</ele>
        <time>2017-03-28T12:05:22Z</time>
      </trkpt>
      <trkpt lat="47.43942" lon="7.23075">
        <ele>726.41</ele>
        <time>2017-03-28T12:05:40Z</time>
      </trkpt>
      <trkpt lat="47.43951" lon="7.23044">
        <ele>726.41</ele>
        <time>2017-03-28T12:05:58Z</time>
      </trkpt>
      <trkpt lat="47.43959" lon="7.23013">
        <ele>725.93</ele>
        <time>2017-03-28T12:06:16Z</time>
      </trkpt>
      <trkpt lat="47.43968" lon="7.2298">
        <ele>726.89</ele>
        <time>2017-03-28T12:06:35Z</time>
      </trkpt>
      <trkpt lat="47.43976" lon="7.22947">
        <ele>726.41</ele>
        <time>2017-03-28T12:06:54Z</time>
      </trkpt>
      <trkpt lat="47.43982" lon="7.22924">
        <ele>727.37</ele>
        <time>2017-03-28T12:07:10Z</time>
      </trkpt>
      <trkpt lat="47.43984" lon="7.22921">
        <ele>725.93</ele>
        <time>2017-03-28T12:07:16Z</time>
      </trkpt>
      <trkpt lat="47.43986" lon="7.22916">
        <ele>725.45</ele>
        <time>2017-03-28T12:07:30Z</time>
      </trkpt>
      <trkpt lat="47.43991" lon="7.22905">
        <ele>724.97</ele>
        <time>2017-03-28T12:07:39Z</time>
      </trkpt>
      <trkpt lat="47.43996" lon="7.22896">
        <ele>724.49</ele>
        <time>2017-03-28T12:07:46Z</time>
      </trkpt>
      <trkpt lat="47.44004" lon="7.2288">
        <ele>724.49</ele>
        <time>2017-03-28T12:08:03Z</time>
      </trkpt>
      <trkpt lat="47.44008" lon="7.22875">
        <ele>724.01</ele>
        <time>2017-03-28T12:08:25Z</time>
      </trkpt>
      <trkpt lat="47.44024" lon="7.22872">
        <ele>724.01</ele>
        <time>2017-03-28T12:08:41Z</time>
      </trkpt>
      <trkpt lat="47.44037" lon="7.22869">
        <ele>724.01</ele>
        <time>2017-03-28T12:08:54Z</time>
      </trkpt>
      <trkpt lat="47.4405" lon="7.2285">
        <ele>723.53</ele>
        <time>2017-03-28T12:09:10Z</time>
      </trkpt>
      <trkpt lat="47.44057" lon="7.22832">
        <ele>724.49</ele>
        <time>2017-03-28T12:09:21Z</time>
      </trkpt>
      <trkpt lat="47.44064" lon="7.22805">
        <ele>722.57</ele>
        <time>2017-03-28T12:09:37Z</time>
      </trkpt>
      <trkpt lat="47.44066" lon="7.228">
        <ele>725.45</ele>
        <time>2017-03-28T12:09:40Z</time>
      </trkpt>
      <trkpt lat="47.44077" lon="7.22772">
        <ele>723.53</ele>
        <time>2017-03-28T12:09:57Z</time>
      </trkpt>
      <trkpt lat="47.44091" lon="7.22744">
        <ele>723.05</ele>
        <time>2017-03-28T12:10:16Z</time>
      </trkpt>
      <trkpt lat="47.44106" lon="7.22721">
        <ele>722.57</ele>
        <time>2017-03-28T12:10:34Z</time>
      </trkpt>
      <trkpt lat="47.4412" lon="7.22693">
        <ele>720.65</ele>
        <time>2017-03-28T12:10:53Z</time>
      </trkpt>
      <trkpt lat="47.44139" lon="7.22665">
        <ele>718.72</ele>
        <time>2017-03-28T12:11:13Z</time>
      </trkpt>
      <trkpt lat="47.44159" lon="7.22639">
        <ele>717.76</ele>
        <time>2017-03-28T12:11:33Z</time>
      </trkpt>
      <trkpt lat="47.44177" lon="7.22615">
        <ele>716.8</ele>
        <time>2017-03-28T12:11:52Z</time>
      </trkpt>
      <trkpt lat="47.44187" lon="7.22591">
        <ele>716.8</ele>
        <time>2017-03-28T12:12:09Z</time>
      </trkpt>
      <trkpt lat="47.44188" lon="7.22568">
        <ele>715.84</ele>
        <time>2017-03-28T12:12:25Z</time>
      </trkpt>
      <trkpt lat="47.44189" lon="7.22553">
        <ele>715.84</ele>
        <time>2017-03-28T12:12:37Z</time>
      </trkpt>
      <trkpt lat="47.44189" lon="7.22551">
        <ele>715.84</ele>
        <time>2017-03-28T12:12:38Z</time>
      </trkpt>
      <trkpt lat="47.44194" lon="7.22543">
        <ele>715.84</ele>
        <time>2017-03-28T12:12:54Z</time>
      </trkpt>
      <trkpt lat="47.44193" lon="7.22539">
        <ele>715.84</ele>
        <time>2017-03-28T12:13:23Z</time>
      </trkpt>
      <trkpt lat="47.44198" lon="7.2254">
        <ele>715.84</ele>
        <time>2017-03-28T12:13:52Z</time>
      </trkpt>
      <trkpt lat="47.44199" lon="7.22542">
        <ele>715.84</ele>
        <time>2017-03-28T12:14:23Z</time>
      </trkpt>
      <trkpt lat="47.44196" lon="7.2254">
        <ele>715.84</ele>
        <time>2017-03-28T12:14:40Z</time>
      </trkpt>
      <trkpt lat="47.44192" lon="7.22542">
        <ele>713.44</ele>
        <time>2017-03-28T12:14:57Z</time>
      </trkpt>
      <trkpt lat="47.44191" lon="7.22544">
        <ele>721.13</ele>
        <time>2017-03-28T12:14:58Z</time>
      </trkpt>
      <trkpt lat="47.4419" lon="7.22545">
        <ele>716.32</ele>
        <time>2017-03-28T12:14:59Z</time>
      </trkpt>
      <trkpt lat="47.44189" lon="7.22544">
        <ele>716.32</ele>
        <time>2017-03-28T12:15:11Z</time>
      </trkpt>
      <trkpt lat="47.44187" lon="7.22545">
        <ele>716.32</ele>
        <time>2017-03-28T12:15:37Z</time>
      </trkpt>
      <trkpt lat="47.44185" lon="7.22544">
        <ele>716.32</ele>
        <time>2017-03-28T12:16:07Z</time>
      </trkpt>
      <trkpt lat="47.44185" lon="7.22544">
        <ele>716.8</ele>
        <time>2017-03-28T12:16:22Z</time>
      </trkpt>
      <trkpt lat="47.44185" lon="7.22547">
        <ele>716.32</ele>
        <time>2017-03-28T12:16:52Z</time>
      </trkpt>
      <trkpt lat="47.44185" lon="7.22544">
        <ele>716.32</ele>
        <time>2017-03-28T12:17:16Z</time>
      </trkpt>
      <trkpt lat="47.44187" lon="7.22544">
        <ele>716.32</ele>
        <time>2017-03-28T12:17:41Z</time>
      </trkpt>
      <trkpt lat="47.44187" lon="7.22548">
        <ele>716.32</ele>
        <time>2017-03-28T12:18:08Z</time>
      </trkpt>
      <trkpt lat="47.44188" lon="7.22547">
        <ele>716.32</ele>
        <time>2017-03-28T12:18:33Z</time>
      </trkpt>
      <trkpt lat="47.44191" lon="7.22549">
        <ele>716.32</ele>
        <time>2017-03-28T12:18:57Z</time>
      </trkpt>
      <trkpt lat="47.44187" lon="7.22546">
        <ele>716.32</ele>
        <time>2017-03-28T12:19:13Z</time>
      </trkpt>
      <trkpt lat="47.44182" lon="7.22541">
        <ele>716.32</ele>
        <time>2017-03-28T12:19:31Z</time>
      </trkpt>
      <trkpt lat="47.44178" lon="7.22539">
        <ele>715.36</ele>
        <time>2017-03-28T12:19:53Z</time>
      </trkpt>
      <trkpt lat="47.44176" lon="7.22536">
        <ele>715.36</ele>
        <time>2017-03-28T12:20:12Z</time>
      </trkpt>
      <trkpt lat="47.44169" lon="7.22529">
        <ele>713.44</ele>
        <time>2017-03-28T12:20:27Z</time>
      </trkpt>
      <trkpt lat="47.44164" lon="7.22519">
        <ele>711.03</ele>
        <time>2017-03-28T12:20:42Z</time>
      </trkpt>
      <trkpt lat="47.4416" lon="7.22505">
        <ele>708.15</ele>
        <time>2017-03-28T12:20:56Z</time>
      </trkpt>
      <trkpt lat="47.44155" lon="7.2249">
        <ele>705.26</ele>
        <time>2017-03-28T12:21:08Z</time>
      </trkpt>
      <trkpt lat="47.44152" lon="7.22472">
        <ele>701.42</ele>
        <time>2017-03-28T12:21:22Z</time>
      </trkpt>
      <trkpt lat="47.44146" lon="7.22455">
        <ele>698.53</ele>
        <time>2017-03-28T12:21:36Z</time>
      </trkpt>
      <trkpt lat="47.44141" lon="7.22435">
        <ele>695.17</ele>
        <time>2017-03-28T12:21:50Z</time>
      </trkpt>
      <trkpt lat="47.44134" lon="7.22413">
        <ele>692.77</ele>
        <time>2017-03-28T12:22:05Z</time>
      </trkpt>
      <trkpt lat="47.44129" lon="7.22397">
        <ele>689.88</ele>
        <time>2017-03-28T12:22:17Z</time>
      </trkpt>
      <trkpt lat="47.44123" lon="7.22378">
        <ele>686.52</ele>
        <time>2017-03-28T12:22:32Z</time>
      </trkpt>
      <trkpt lat="47.44119" lon="7.22365">
        <ele>684.12</ele>
        <time>2017-03-28T12:22:43Z</time>
      </trkpt>
      <trkpt lat="47.4411" lon="7.22345">
        <ele>681.71</ele>
        <time>2017-03-28T12:23:01Z</time>
      </trkpt>
      <trkpt lat="47.44106" lon="7.22333">
        <ele>678.35</ele>
        <time>2017-03-28T12:23:12Z</time>
      </trkpt>
      <trkpt lat="47.441" lon="7.22313">
        <ele>675.46</ele>
        <time>2017-03-28T12:23:24Z</time>
      </trkpt>
      <trkpt lat="47.44099" lon="7.22298">
        <ele>672.1</ele>
        <time>2017-03-28T12:23:35Z</time>
      </trkpt>
      <trkpt lat="47.44095" lon="7.2228">
        <ele>668.73</ele>
        <time>2017-03-28T12:23:48Z</time>
      </trkpt>
      <trkpt lat="47.44089" lon="7.22261">
        <ele>666.33</ele>
        <time>2017-03-28T12:24:00Z</time>
      </trkpt>
      <trkpt lat="47.44088" lon="7.22259">
        <ele>665.37</ele>
        <time>2017-03-28T12:24:01Z</time>
      </trkpt>
      <trkpt lat="47.44082" lon="7.22236">
        <ele>662.01</ele>
        <time>2017-03-28T12:24:15Z</time>
      </trkpt>
      <trkpt lat="47.44079" lon="7.22217">
        <ele>660.08</ele>
        <time>2017-03-28T12:24:24Z</time>
      </trkpt>
      <trkpt lat="47.44078" lon="7.22198">
        <ele>657.2</ele>
        <time>2017-03-28T12:24:36Z</time>
      </trkpt>
      <trkpt lat="47.44076" lon="7.22186">
        <ele>656.24</ele>
        <time>2017-03-28T12:24:42Z</time>
      </trkpt>
      <trkpt lat="47.44075" lon="7.22163">
        <ele>652.87</ele>
        <time>2017-03-28T12:24:53Z</time>
      </trkpt>
      <trkpt lat="47.44073" lon="7.2214">
        <ele>649.99</ele>
        <time>2017-03-28T12:25:07Z</time>
      </trkpt>
      <trkpt lat="47.44073" lon="7.2212">
        <ele>646.62</ele>
        <time>2017-03-28T12:25:21Z</time>
      </trkpt>
      <trkpt lat="47.44076" lon="7.22108">
        <ele>644.22</ele>
        <time>2017-03-28T12:25:29Z</time>
      </trkpt>
      <trkpt lat="47.44081" lon="7.2209">
        <ele>641.34</ele>
        <time>2017-03-28T12:25:40Z</time>
      </trkpt>
      <trkpt lat="47.44085" lon="7.22069">
        <ele>639.89</ele>
        <time>2017-03-28T12:25:55Z</time>
      </trkpt>
      <trkpt lat="47.44087" lon="7.22062">
        <ele>639.41</ele>
        <time>2017-03-28T12:26:20Z</time>
      </trkpt>
      <trkpt lat="47.44084" lon="7.22061">
        <ele>639.89</ele>
        <time>2017-03-28T12:26:44Z</time>
      </trkpt>
      <trkpt lat="47.44086" lon="7.22062">
        <ele>639.89</ele>
        <time>2017-03-28T12:27:12Z</time>
      </trkpt>
      <trkpt lat="47.44086" lon="7.22051">
        <ele>640.38</ele>
        <time>2017-03-28T12:27:29Z</time>
      </trkpt>
      <trkpt lat="47.44078" lon="7.22033">
        <ele>639.41</ele>
        <time>2017-03-28T12:27:43Z</time>
      </trkpt>
      <trkpt lat="47.44071" lon="7.22014">
        <ele>638.93</ele>
        <time>2017-03-28T12:27:55Z</time>
      </trkpt>
      <trkpt lat="47.44063" lon="7.21988">
        <ele>638.45</ele>
        <time>2017-03-28T12:28:12Z</time>
      </trkpt>
      <trkpt lat="47.44054" lon="7.21967">
        <ele>638.45</ele>
        <time>2017-03-28T12:28:28Z</time>
      </trkpt>
      <trkpt lat="47.44047" lon="7.21947">
        <ele>637.49</ele>
        <time>2017-03-28T12:28:44Z</time>
      </trkpt>
      <trkpt lat="47.44043" lon="7.21925">
        <ele>637.01</ele>
        <time>2017-03-28T12:28:58Z</time>
      </trkpt>
      <trkpt lat="47.44036" lon="7.21902">
        <ele>636.53</ele>
        <time>2017-03-28T12:29:13Z</time>
      </trkpt>
      <trkpt lat="47.4403" lon="7.21884">
        <ele>637.01</ele>
        <time>2017-03-28T12:29:25Z</time>
      </trkpt>
      <trkpt lat="47.44024" lon="7.21859">
        <ele>637.01</ele>
        <time>2017-03-28T12:29:41Z</time>
      </trkpt>
      <trkpt lat="47.44016" lon="7.21836">
        <ele>637.01</ele>
        <time>2017-03-28T12:29:56Z</time>
      </trkpt>
      <trkpt lat="47.44014" lon="7.2183">
        <ele>637.01</ele>
        <time>2017-03-28T12:30:00Z</time>
      </trkpt>
      <trkpt lat="47.44003" lon="7.21807">
        <ele>637.01</ele>
        <time>2017-03-28T12:30:14Z</time>
      </trkpt>
      <trkpt lat="47.43996" lon="7.21786">
        <ele>637.01</ele>
        <time>2017-03-28T12:30:28Z</time>
      </trkpt>
      <trkpt lat="47.43995" lon="7.21781">
        <ele>636.05</ele>
        <time>2017-03-28T12:30:32Z</time>
      </trkpt>
      <trkpt lat="47.43987" lon="7.21763">
        <ele>637.01</ele>
        <time>2017-03-28T12:30:42Z</time>
      </trkpt>
      <trkpt lat="47.43993" lon="7.21746">
        <ele>636.05</ele>
        <time>2017-03-28T12:30:52Z</time>
      </trkpt>
      <trkpt lat="47.44" lon="7.21743">
        <ele>635.09</ele>
        <time>2017-03-28T12:31:07Z</time>
      </trkpt>
      <trkpt lat="47.44008" lon="7.21756">
        <ele>634.61</ele>
        <time>2017-03-28T12:31:21Z</time>
      </trkpt>
      <trkpt lat="47.44007" lon="7.21757">
        <ele>634.61</ele>
        <time>2017-03-28T12:31:36Z</time>
      </trkpt>
      <trkpt lat="47.44009" lon="7.21753">
        <ele>635.09</ele>
        <time>2017-03-28T12:31:53Z</time>
      </trkpt>
      <trkpt lat="47.44015" lon="7.21758">
        <ele>635.09</ele>
        <time>2017-03-28T12:32:03Z</time>
      </trkpt>
      <trkpt lat="47.44016" lon="7.21763">
        <ele>633.65</ele>
        <time>2017-03-28T12:32:07Z</time>
      </trkpt>
      <trkpt lat="47.44016" lon="7.21765">
        <ele>633.65</ele>
        <time>2017-03-28T12:32:08Z</time>
      </trkpt>
      <trkpt lat="47.44022" lon="7.21776">
        <ele>632.68</ele>
        <time>2017-03-28T12:32:17Z</time>
      </trkpt>
      <trkpt lat="47.44032" lon="7.21796">
        <ele>631.24</ele>
        <time>2017-03-28T12:32:30Z</time>
      </trkpt>
      <trkpt lat="47.44044" lon="7.21815">
        <ele>629.8</ele>
        <time>2017-03-28T12:32:45Z</time>
      </trkpt>
      <trkpt lat="47.44049" lon="7.21824">
        <ele>628.84</ele>
        <time>2017-03-28T12:32:53Z</time>
      </trkpt>
      <trkpt lat="47.44055" lon="7.21834">
        <ele>627.88</ele>
        <time>2017-03-28T12:33:02Z</time>
      </trkpt>
      <trkpt lat="47.44057" lon="7.21837">
        <ele>627.88</ele>
        <time>2017-03-28T12:33:04Z</time>
      </trkpt>
      <trkpt lat="47.44062" lon="7.21849">
        <ele>626.44</ele>
        <time>2017-03-28T12:33:11Z</time>
      </trkpt>
      <trkpt lat="47.44065" lon="7.21853">
        <ele>626.44</ele>
        <time>2017-03-28T12:33:14Z</time>
      </trkpt>
      <trkpt lat="47.44076" lon="7.21868">
        <ele>624.99</ele>
        <time>2017-03-28T12:33:27Z</time>
      </trkpt>
      <trkpt lat="47.44087" lon="7.21887">
        <ele>623.55</ele>
        <time>2017-03-28T12:33:41Z</time>
      </trkpt>
      <trkpt lat="47.441" lon="7.21909">
        <ele>622.59</ele>
        <time>2017-03-28T12:33:58Z</time>
      </trkpt>
      <trkpt lat="47.44107" lon="7.21915">
        <ele>621.15</ele>
        <time>2017-03-28T12:34:10Z</time>
      </trkpt>
      <trkpt lat="47.44123" lon="7.21924">
        <ele>619.71</ele>
        <time>2017-03-28T12:34:23Z</time>
      </trkpt>
      <trkpt lat="47.44128" lon="7.21926">
        <ele>619.71</ele>
        <time>2017-03-28T12:34:28Z</time>
      </trkpt>
      <trkpt lat="47.44143" lon="7.21928">
        <ele>618.26</ele>
        <time>2017-03-28T12:34:40Z</time>
      </trkpt>
      <trkpt lat="47.44151" lon="7.2193">
        <ele>616.82</ele>
        <time>2017-03-28T12:34:46Z</time>
      </trkpt>
      <trkpt lat="47.4416" lon="7.21933">
        <ele>615.86</ele>
        <time>2017-03-28T12:34:52Z</time>
      </trkpt>
      <trkpt lat="47.44165" lon="7.21935">
        <ele>615.86</ele>
        <time>2017-03-28T12:34:57Z</time>
      </trkpt>
      <trkpt lat="47.44174" lon="7.21937">
        <ele>614.9</ele>
        <time>2017-03-28T12:35:04Z</time>
      </trkpt>
      <trkpt lat="47.44184" lon="7.21941">
        <ele>613.94</ele>
        <time>2017-03-28T12:35:12Z</time>
      </trkpt>
      <trkpt lat="47.44191" lon="7.21944">
        <ele>612.98</ele>
        <time>2017-03-28T12:35:17Z</time>
      </trkpt>
      <trkpt lat="47.44213" lon="7.21948">
        <ele>611.54</ele>
        <time>2017-03-28T12:35:32Z</time>
      </trkpt>
      <trkpt lat="47.44224" lon="7.21951">
        <ele>611.06</ele>
        <time>2017-03-28T12:35:40Z</time>
      </trkpt>
      <trkpt lat="47.44245" lon="7.21963">
        <ele>609.61</ele>
        <time>2017-03-28T12:35:56Z</time>
      </trkpt>
      <trkpt lat="47.44258" lon="7.21974">
        <ele>608.65</ele>
        <time>2017-03-28T12:36:08Z</time>
      </trkpt>
      <trkpt lat="47.4426" lon="7.21975">
        <ele>605.29</ele>
        <time>2017-03-28T12:36:10Z</time>
      </trkpt>
      <trkpt lat="47.4426" lon="7.21975">
        <ele>613.94</ele>
        <time>2017-03-28T12:36:11Z</time>
      </trkpt>
      <trkpt lat="47.44262" lon="7.21976">
        <ele>609.13</ele>
        <time>2017-03-28T12:36:12Z</time>
      </trkpt>
      <trkpt lat="47.44286" lon="7.21996">
        <ele>606.25</ele>
        <time>2017-03-28T12:36:30Z</time>
      </trkpt>
      <trkpt lat="47.44297" lon="7.22012">
        <ele>604.33</ele>
        <time>2017-03-28T12:36:44Z</time>
      </trkpt>
      <trkpt lat="47.44305" lon="7.22026">
        <ele>603.36</ele>
        <time>2017-03-28T12:36:55Z</time>
      </trkpt>
      <trkpt lat="47.4432" lon="7.22046">
        <ele>601.92</ele>
        <time>2017-03-28T12:37:10Z</time>
      </trkpt>
      <trkpt lat="47.44327" lon="7.22056">
        <ele>600.96</ele>
        <time>2017-03-28T12:37:18Z</time>
      </trkpt>
      <trkpt lat="47.44338" lon="7.22077">
        <ele>599.52</ele>
        <time>2017-03-28T12:37:33Z</time>
      </trkpt>
      <trkpt lat="47.44353" lon="7.221">
        <ele>597.6</ele>
        <time>2017-03-28T12:37:47Z</time>
      </trkpt>
      <trkpt lat="47.44368" lon="7.2212">
        <ele>596.15</ele>
        <time>2017-03-28T12:38:02Z</time>
      </trkpt>
      <trkpt lat="47.44383" lon="7.22138">
        <ele>593.75</ele>
        <time>2017-03-28T12:38:17Z</time>
      </trkpt>
      <trkpt lat="47.44399" lon="7.22148">
        <ele>591.35</ele>
        <time>2017-03-28T12:38:30Z</time>
      </trkpt>
      <trkpt lat="47.44412" lon="7.22122">
        <ele>589.43</ele>
        <time>2017-03-28T12:38:45Z</time>
      </trkpt>
      <trkpt lat="47.44415" lon="7.22109">
        <ele>588.95</ele>
        <time>2017-03-28T12:38:52Z</time>
      </trkpt>
      <trkpt lat="47.44417" lon="7.22094">
        <ele>588.46</ele>
        <time>2017-03-28T12:39:00Z</time>
      </trkpt>
      <trkpt lat="47.44418" lon="7.22084">
        <ele>587.5</ele>
        <time>2017-03-28T12:39:05Z</time>
      </trkpt>
      <trkpt lat="47.44418" lon="7.22053">
        <ele>584.62</ele>
        <time>2017-03-28T12:39:22Z</time>
      </trkpt>
      <trkpt lat="47.44419" lon="7.22021">
        <ele>581.25</ele>
        <time>2017-03-28T12:39:39Z</time>
      </trkpt>
      <trkpt lat="47.4442" lon="7.22013">
        <ele>580.77</ele>
        <time>2017-03-28T12:39:43Z</time>
      </trkpt>
      <trkpt lat="47.44419" lon="7.22005">
        <ele>579.81</ele>
        <time>2017-03-28T12:39:47Z</time>
      </trkpt>
      <trkpt lat="47.44418" lon="7.21972">
        <ele>576.45</ele>
        <time>2017-03-28T12:40:04Z</time>
      </trkpt>
      <trkpt lat="47.4442" lon="7.21934">
        <ele>573.56</ele>
        <time>2017-03-28T12:40:23Z</time>
      </trkpt>
      <trkpt lat="47.4442" lon="7.21894">
        <ele>570.68</ele>
        <time>2017-03-28T12:40:43Z</time>
      </trkpt>
      <trkpt lat="47.4442" lon="7.2187">
        <ele>569.24</ele>
        <time>2017-03-28T12:40:56Z</time>
      </trkpt>
      <trkpt lat="47.4442" lon="7.21844">
        <ele>567.32</ele>
        <time>2017-03-28T12:41:10Z</time>
      </trkpt>
      <trkpt lat="47.44416" lon="7.21829">
        <ele>566.35</ele>
        <time>2017-03-28T12:41:25Z</time>
      </trkpt>
      <trkpt lat="47.44409" lon="7.21822">
        <ele>566.35</ele>
        <time>2017-03-28T12:41:53Z</time>
      </trkpt>
      <trkpt lat="47.4441" lon="7.21816">
        <ele>565.39</ele>
        <time>2017-03-28T12:42:03Z</time>
      </trkpt>
      <trkpt lat="47.44411" lon="7.2181">
        <ele>564.91</ele>
        <time>2017-03-28T12:42:08Z</time>
      </trkpt>
      <trkpt lat="47.44414" lon="7.21797">
        <ele>563.95</ele>
        <time>2017-03-28T12:42:15Z</time>
      </trkpt>
      <trkpt lat="47.44413" lon="7.2177">
        <ele>561.55</ele>
        <time>2017-03-28T12:42:31Z</time>
      </trkpt>
      <trkpt lat="47.44414" lon="7.21744">
        <ele>560.11</ele>
        <time>2017-03-28T12:42:45Z</time>
      </trkpt>
      <trkpt lat="47.44413" lon="7.21718">
        <ele>557.7</ele>
        <time>2017-03-28T12:42:59Z</time>
      </trkpt>
      <trkpt lat="47.44414" lon="7.21702">
        <ele>556.26</ele>
        <time>2017-03-28T12:43:08Z</time>
      </trkpt>
      <trkpt lat="47.44414" lon="7.21682">
        <ele>554.34</ele>
        <time>2017-03-28T12:43:21Z</time>
      </trkpt>
      <trkpt lat="47.44412" lon="7.21643">
        <ele>552.41</ele>
        <time>2017-03-28T12:43:36Z</time>
      </trkpt>
      <trkpt lat="47.44402" lon="7.21614">
        <ele>551.93</ele>
        <time>2017-03-28T12:43:52Z</time>
      </trkpt>
      <trkpt lat="47.44399" lon="7.21624">
        <ele>551.93</ele>
        <time>2017-03-28T12:44:15Z</time>
      </trkpt>
      <trkpt lat="47.44394" lon="7.21625">
        <ele>551.93</ele>
        <time>2017-03-28T12:44:28Z</time>
      </trkpt>
      <trkpt lat="47.44394" lon="7.21613">
        <ele>551.45</ele>
        <time>2017-03-28T12:44:43Z</time>
      </trkpt>
      <trkpt lat="47.44396" lon="7.21614">
        <ele>550.97</ele>
        <time>2017-03-28T12:44:55Z</time>
      </trkpt>
      <trkpt lat="47.44395" lon="7.21615">
        <ele>550.49</ele>
        <time>2017-03-28T12:45:10Z</time>
      </trkpt>
      <trkpt lat="47.44393" lon="7.21613">
        <ele>551.93</ele>
        <time>2017-03-28T12:45:14Z</time>
      </trkpt>
      <trkpt lat="47.44396" lon="7.21611">
        <ele>551.93</ele>
        <time>2017-03-28T12:45:28Z</time>
      </trkpt>
      <trkpt lat="47.44395" lon="7.2161">
        <ele>550.49</ele>
        <time>2017-03-28T12:45:34Z</time>
      </trkpt>
      <trkpt lat="47.44396" lon="7.21611">
        <ele>550.01</ele>
        <time>2017-03-28T12:45:47Z</time>
      </trkpt>
      <trkpt lat="47.44398" lon="7.21615">
        <ele>550.01</ele>
        <time>2017-03-28T12:46:03Z</time>
      </trkpt>
      <trkpt lat="47.444" lon="7.21615">
        <ele>550.97</ele>
        <time>2017-03-28T12:46:20Z</time>
      </trkpt>
      <trkpt lat="47.44401" lon="7.21613">
        <ele>550.97</ele>
        <time>2017-03-28T12:46:33Z</time>
      </trkpt>
      <trkpt lat="47.444" lon="7.21608">
        <ele>550.97</ele>
        <time>2017-03-28T12:46:38Z</time>
      </trkpt>
      <trkpt lat="47.44399" lon="7.21605">
        <ele>550.97</ele>
        <time>2017-03-28T12:46:40Z</time>
      </trkpt>
      <trkpt lat="47.44397" lon="7.21603">
        <ele>550.97</ele>
        <time>2017-03-28T12:46:43Z</time>
      </trkpt>
      <trkpt lat="47.44394" lon="7.21589">
        <ele>550.97</ele>
        <time>2017-03-28T12:46:56Z</time>
      </trkpt>
      <trkpt lat="47.44392" lon="7.2158">
        <ele>549.53</ele>
        <time>2017-03-28T12:47:01Z</time>
      </trkpt>
      <trkpt lat="47.44389" lon="7.21568">
        <ele>548.57</ele>
        <time>2017-03-28T12:47:09Z</time>
      </trkpt>
      <trkpt lat="47.44387" lon="7.21556">
        <ele>547.61</ele>
        <time>2017-03-28T12:47:16Z</time>
      </trkpt>
      <trkpt lat="47.44384" lon="7.21532">
        <ele>544.24</ele>
        <time>2017-03-28T12:47:33Z</time>
      </trkpt>
      <trkpt lat="47.44383" lon="7.21526">
        <ele>542.8</ele>
        <time>2017-03-28T12:47:44Z</time>
      </trkpt>
      <trkpt lat="47.44388" lon="7.21526">
        <ele>542.8</ele>
        <time>2017-03-28T12:47:48Z</time>
      </trkpt>
      <trkpt lat="47.44395" lon="7.21518">
        <ele>541.84</ele>
        <time>2017-03-28T12:47:56Z</time>
      </trkpt>
      <trkpt lat="47.44397" lon="7.21512">
        <ele>541.36</ele>
        <time>2017-03-28T12:48:00Z</time>
      </trkpt>
      <trkpt lat="47.44406" lon="7.215">
        <ele>539.44</ele>
        <time>2017-03-28T12:48:11Z</time>
      </trkpt>
      <trkpt lat="47.44409" lon="7.21501">
        <ele>539.44</ele>
        <time>2017-03-28T12:48:14Z</time>
      </trkpt>
      <trkpt lat="47.44412" lon="7.21501">
        <ele>539.44</ele>
        <time>2017-03-28T12:48:18Z</time>
      </trkpt>
      <trkpt lat="47.44414" lon="7.21503">
        <ele>539.44</ele>
        <time>2017-03-28T12:48:21Z</time>
      </trkpt>
      <trkpt lat="47.44419" lon="7.21508">
        <ele>539.44</ele>
        <time>2017-03-28T12:48:30Z</time>
      </trkpt>
      <trkpt lat="47.44423" lon="7.21512">
        <ele>540.88</ele>
        <time>2017-03-28T12:48:37Z</time>
      </trkpt>
      <trkpt lat="47.44427" lon="7.21509">
        <ele>540.88</ele>
        <time>2017-03-28T12:48:57Z</time>
      </trkpt>
      <trkpt lat="47.44434" lon="7.21519">
        <ele>540.88</ele>
        <time>2017-03-28T12:49:07Z</time>
      </trkpt>
      <trkpt lat="47.44438" lon="7.2154">
        <ele>541.84</ele>
        <time>2017-03-28T12:49:21Z</time>
      </trkpt>
      <trkpt lat="47.44444" lon="7.21565">
        <ele>542.8</ele>
        <time>2017-03-28T12:49:37Z</time>
      </trkpt>
      <trkpt lat="47.4445" lon="7.21598">
        <ele>543.28</ele>
        <time>2017-03-28T12:49:55Z</time>
      </trkpt>
      <trkpt lat="47.4445" lon="7.21607">
        <ele>543.76</ele>
        <time>2017-03-28T12:50:00Z</time>
      </trkpt>
      <trkpt lat="47.44453" lon="7.21615">
        <ele>544.24</ele>
        <time>2017-03-28T12:50:05Z</time>
      </trkpt>
      <trkpt lat="47.44458" lon="7.21645">
        <ele>544.72</ele>
        <time>2017-03-28T12:50:22Z</time>
      </trkpt>
      <trkpt lat="47.44464" lon="7.21675">
        <ele>545.2</ele>
        <time>2017-03-28T12:50:40Z</time>
      </trkpt>
      <trkpt lat="47.44468" lon="7.21695">
        <ele>547.13</ele>
        <time>2017-03-28T12:50:51Z</time>
      </trkpt>
      <trkpt lat="47.44469" lon="7.21701">
        <ele>545.69</ele>
        <time>2017-03-28T12:50:54Z</time>
      </trkpt>
      <trkpt lat="47.44476" lon="7.21727">
        <ele>545.69</ele>
        <time>2017-03-28T12:51:09Z</time>
      </trkpt>
      <trkpt lat="47.44478" lon="7.21734">
        <ele>546.65</ele>
        <time>2017-03-28T12:51:13Z</time>
      </trkpt>
      <trkpt lat="47.4448" lon="7.21739">
        <ele>547.13</ele>
        <time>2017-03-28T12:51:16Z</time>
      </trkpt>
      <trkpt lat="47.4449" lon="7.21764">
        <ele>547.61</ele>
        <time>2017-03-28T12:51:32Z</time>
      </trkpt>
      <trkpt lat="47.44501" lon="7.21791">
        <ele>549.05</ele>
        <time>2017-03-28T12:51:48Z</time>
      </trkpt>
      <trkpt lat="47.44513" lon="7.21815">
        <ele>550.01</ele>
        <time>2017-03-28T12:52:04Z</time>
      </trkpt>
      <trkpt lat="47.44524" lon="7.21837">
        <ele>550.49</ele>
        <time>2017-03-28T12:52:19Z</time>
      </trkpt>
      <trkpt lat="47.4453" lon="7.21846">
        <ele>550.97</ele>
        <time>2017-03-28T12:52:26Z</time>
      </trkpt>
      <trkpt lat="47.44537" lon="7.21853">
        <ele>551.45</ele>
        <time>2017-03-28T12:52:33Z</time>
      </trkpt>
      <trkpt lat="47.44541" lon="7.21861">
        <ele>550.97</ele>
        <time>2017-03-28T12:52:38Z</time>
      </trkpt>
      <trkpt lat="47.44546" lon="7.21865">
        <ele>550.97</ele>
        <time>2017-03-28T12:52:42Z</time>
      </trkpt>
      <trkpt lat="47.4455" lon="7.21866">
        <ele>550.97</ele>
        <time>2017-03-28T12:52:45Z</time>
      </trkpt>
      <trkpt lat="47.44564" lon="7.21876">
        <ele>551.45</ele>
        <time>2017-03-28T12:53:00Z</time>
      </trkpt>
      <trkpt lat="47.44584" lon="7.21876">
        <ele>552.41</ele>
        <time>2017-03-28T12:53:17Z</time>
      </trkpt>
      <trkpt lat="47.44603" lon="7.21881">
        <ele>553.86</ele>
        <time>2017-03-28T12:53:32Z</time>
      </trkpt>
      <trkpt lat="47.44616" lon="7.21881">
        <ele>554.82</ele>
        <time>2017-03-28T12:53:42Z</time>
      </trkpt>
      <trkpt lat="47.4462" lon="7.21878">
        <ele>554.82</ele>
        <time>2017-03-28T12:53:45Z</time>
      </trkpt>
      <trkpt lat="47.44624" lon="7.21869">
        <ele>555.3</ele>
        <time>2017-03-28T12:53:50Z</time>
      </trkpt>
      <trkpt lat="47.44623" lon="7.2186">
        <ele>555.3</ele>
        <time>2017-03-28T12:53:54Z</time>
      </trkpt>
      <trkpt lat="47.44613" lon="7.21826">
        <ele>555.3</ele>
        <time>2017-03-28T12:54:11Z</time>
      </trkpt>
      <trkpt lat="47.44613" lon="7.21824">
        <ele>555.3</ele>
        <time>2017-03-28T12:54:12Z</time>
      </trkpt>
      <trkpt lat="47.44612" lon="7.21821">
        <ele>555.3</ele>
        <time>2017-03-28T12:54:14Z</time>
      </trkpt>
      <trkpt lat="47.44604" lon="7.218">
        <ele>555.3</ele>
        <time>2017-03-28T12:54:26Z</time>
      </trkpt>
      <trkpt lat="47.44602" lon="7.21789">
        <ele>555.3</ele>
        <time>2017-03-28T12:54:32Z</time>
      </trkpt>
      <trkpt lat="47.446" lon="7.21778">
        <ele>555.3</ele>
        <time>2017-03-28T12:54:38Z</time>
      </trkpt>
      <trkpt lat="47.44597" lon="7.21771">
        <ele>555.3</ele>
        <time>2017-03-28T12:54:42Z</time>
      </trkpt>
      <trkpt lat="47.44591" lon="7.21751">
        <ele>553.86</ele>
        <time>2017-03-28T12:54:53Z</time>
      </trkpt>
      <trkpt lat="47.44588" lon="7.21732">
        <ele>553.86</ele>
        <time>2017-03-28T12:55:02Z</time>
      </trkpt>
      <trkpt lat="47.44586" lon="7.21715">
        <ele>553.86</ele>
        <time>2017-03-28T12:55:12Z</time>
      </trkpt>
      <trkpt lat="47.44584" lon="7.2171">
        <ele>553.86</ele>
        <time>2017-03-28T12:55:15Z</time>
      </trkpt>
      <trkpt lat="47.44578" lon="7.21684">
        <ele>553.86</ele>
        <time>2017-03-28T12:55:30Z</time>
      </trkpt>
      <trkpt lat="47.44571" lon="7.21661">
        <ele>554.34</ele>
        <time>2017-03-28T12:55:43Z</time>
      </trkpt>
      <trkpt lat="47.44566" lon="7.21641">
        <ele>554.34</ele>
        <time>2017-03-28T12:55:56Z</time>
      </trkpt>
      <trkpt lat="47.44563" lon="7.2163">
        <ele>555.78</ele>
        <time>2017-03-28T12:56:03Z</time>
      </trkpt>
      <trkpt lat="47.44561" lon="7.21611">
        <ele>555.78</ele>
        <time>2017-03-28T12:56:14Z</time>
      </trkpt>
      <trkpt lat="47.4456" lon="7.21602">
        <ele>555.78</ele>
        <time>2017-03-28T12:56:18Z</time>
      </trkpt>
      <trkpt lat="47.4456" lon="7.21595">
        <ele>555.78</ele>
        <time>2017-03-28T12:56:21Z</time>
      </trkpt>
      <trkpt lat="47.44559" lon="7.21584">
        <ele>555.78</ele>
        <time>2017-03-28T12:56:26Z</time>
      </trkpt>
      <trkpt lat="47.44559" lon="7.21579">
        <ele>555.78</ele>
        <time>2017-03-28T12:56:29Z</time>
      </trkpt>
      <trkpt lat="47.44559" lon="7.21562">
        <ele>556.26</ele>
        <time>2017-03-28T12:56:37Z</time>
      </trkpt>
      <trkpt lat="47.44558" lon="7.21556">
        <ele>556.74</ele>
        <time>2017-03-28T12:56:41Z</time>
      </trkpt>
      <trkpt lat="47.44557" lon="7.21547">
        <ele>557.22</ele>
        <time>2017-03-28T12:56:46Z</time>
      </trkpt>
      <trkpt lat="47.44557" lon="7.21544">
        <ele>557.22</ele>
        <time>2017-03-28T12:56:48Z</time>
      </trkpt>
      <trkpt lat="47.44557" lon="7.21539">
        <ele>557.22</ele>
        <time>2017-03-28T12:56:51Z</time>
      </trkpt>
      <trkpt lat="47.44553" lon="7.21526">
        <ele>557.7</ele>
        <time>2017-03-28T12:57:04Z</time>
      </trkpt>
      <trkpt lat="47.44552" lon="7.21525">
        <ele>557.7</ele>
        <time>2017-03-28T12:57:07Z</time>
      </trkpt>
      <trkpt lat="47.4455" lon="7.21516">
        <ele>557.7</ele>
        <time>2017-03-28T12:57:11Z</time>
      </trkpt>
      <trkpt lat="47.44554" lon="7.21494">
        <ele>557.7</ele>
        <time>2017-03-28T12:57:17Z</time>
      </trkpt>
      <trkpt lat="47.44543" lon="7.21482">
        <ele>557.7</ele>
        <time>2017-03-28T12:57:30Z</time>
      </trkpt>
      <trkpt lat="47.44539" lon="7.21476">
        <ele>557.7</ele>
        <time>2017-03-28T12:58:04Z</time>
      </trkpt>
      <trkpt lat="47.44536" lon="7.21474">
        <ele>557.7</ele>
        <time>2017-03-28T12:58:28Z</time>
      </trkpt>
      <trkpt lat="47.4454" lon="7.21482">
        <ele>558.18</ele>
        <time>2017-03-28T12:58:43Z</time>
      </trkpt>
      <trkpt lat="47.44542" lon="7.2148">
        <ele>558.18</ele>
        <time>2017-03-28T12:58:48Z</time>
      </trkpt>
      <trkpt lat="47.44541" lon="7.21466">
        <ele>558.66</ele>
        <time>2017-03-28T12:59:02Z</time>
      </trkpt>
      <trkpt lat="47.44543" lon="7.21456">
        <ele>559.14</ele>
        <time>2017-03-28T12:59:13Z</time>
      </trkpt>
      <trkpt lat="47.44545" lon="7.21452">
        <ele>559.14</ele>
        <time>2017-03-28T12:59:19Z</time>
      </trkpt>
      <trkpt lat="47.4455" lon="7.21443">
        <ele>560.11</ele>
        <time>2017-03-28T12:59:32Z</time>
      </trkpt>
      <trkpt lat="47.44558" lon="7.21435">
        <ele>560.11</ele>
        <time>2017-03-28T12:59:55Z</time>
      </trkpt>
      <trkpt lat="47.4456" lon="7.21435">
        <ele>560.11</ele>
        <time>2017-03-28T13:00:08Z</time>
      </trkpt>
      <trkpt lat="47.4456" lon="7.21433">
        <ele>560.11</ele>
        <time>2017-03-28T13:00:10Z</time>
      </trkpt>
      <trkpt lat="47.44553" lon="7.21427">
        <ele>560.11</ele>
        <time>2017-03-28T13:00:23Z</time>
      </trkpt>
      <trkpt lat="47.44556" lon="7.21431">
        <ele>560.11</ele>
        <time>2017-03-28T13:00:37Z</time>
      </trkpt>
      <trkpt lat="47.4456" lon="7.21433">
        <ele>561.07</ele>
        <time>2017-03-28T13:00:47Z</time>
      </trkpt>
      <trkpt lat="47.44558" lon="7.21428">
        <ele>560.59</ele>
        <time>2017-03-28T13:00:59Z</time>
      </trkpt>
      <trkpt lat="47.44558" lon="7.21426">
        <ele>560.59</ele>
        <time>2017-03-28T13:01:20Z</time>
      </trkpt>
      <trkpt lat="47.44558" lon="7.21426">
        <ele>560.59</ele>
        <time>2017-03-28T13:01:47Z</time>
      </trkpt>
      <trkpt lat="47.44559" lon="7.21423">
        <ele>560.11</ele>
        <time>2017-03-28T13:02:00Z</time>
      </trkpt>
      <trkpt lat="47.44557" lon="7.21424">
        <ele>558.66</ele>
        <time>2017-03-28T13:02:21Z</time>
      </trkpt>
      <trkpt lat="47.44556" lon="7.21424">
        <ele>558.18</ele>
        <time>2017-03-28T13:02:48Z</time>
      </trkpt>
      <trkpt lat="47.44556" lon="7.21426">
        <ele>558.18</ele>
        <time>2017-03-28T13:03:14Z</time>
      </trkpt>
      <trkpt lat="47.44554" lon="7.21425">
        <ele>558.18</ele>
        <time>2017-03-28T13:03:43Z</time>
      </trkpt>
      <trkpt lat="47.44556" lon="7.21429">
        <ele>558.18</ele>
        <time>2017-03-28T13:04:17Z</time>
      </trkpt>
      <trkpt lat="47.44557" lon="7.21431">
        <ele>557.7</ele>
        <time>2017-03-28T13:04:56Z</time>
      </trkpt>
      <trkpt lat="47.44554" lon="7.21429">
        <ele>557.7</ele>
        <time>2017-03-28T13:05:30Z</time>
      </trkpt>
      <trkpt lat="47.44551" lon="7.21429">
        <ele>557.7</ele>
        <time>2017-03-28T13:06:03Z</time>
      </trkpt>
      <trkpt lat="47.4455" lon="7.21428">
        <ele>557.7</ele>
        <time>2017-03-28T13:06:37Z</time>
      </trkpt>
      <trkpt lat="47.44551" lon="7.21428">
        <ele>557.7</ele>
        <time>2017-03-28T13:07:11Z</time>
      </trkpt>
      <trkpt lat="47.44552" lon="7.21429">
        <ele>557.7</ele>
        <time>2017-03-28T13:07:41Z</time>
      </trkpt>
      <trkpt lat="47.44555" lon="7.21426">
        <ele>559.62</ele>
        <time>2017-03-28T13:08:02Z</time>
      </trkpt>
      <trkpt lat="47.44556" lon="7.21425">
        <ele>559.62</ele>
        <time>2017-03-28T13:08:28Z</time>
      </trkpt>
      <trkpt lat="47.44554" lon="7.21425">
        <ele>559.62</ele>
        <time>2017-03-28T13:08:50Z</time>
      </trkpt>
      <trkpt lat="47.44558" lon="7.21429">
        <ele>559.62</ele>
        <time>2017-03-28T13:09:12Z</time>
      </trkpt>
      <trkpt lat="47.4456" lon="7.21428">
        <ele>559.14</ele>
        <time>2017-03-28T13:09:39Z</time>
      </trkpt>
      <trkpt lat="47.44559" lon="7.21423">
        <ele>559.14</ele>
        <time>2017-03-28T13:10:03Z</time>
      </trkpt>
      <trkpt lat="47.44556" lon="7.21424">
        <ele>559.14</ele>
        <time>2017-03-28T13:10:23Z</time>
      </trkpt>
      <trkpt lat="47.44555" lon="7.21424">
        <ele>552.9</ele>
        <time>2017-03-28T13:10:27Z</time>
      </trkpt>
      <trkpt lat="47.44555" lon="7.21425">
        <ele>563.95</ele>
        <time>2017-03-28T13:10:28Z</time>
      </trkpt>
      <trkpt lat="47.44556" lon="7.21426">
        <ele>559.14</ele>
        <time>2017-03-28T13:10:29Z</time>
      </trkpt>
      <trkpt lat="47.44557" lon="7.2143">
        <ele>558.66</ele>
        <time>2017-03-28T13:10:55Z</time>
      </trkpt>
      <trkpt lat="47.44557" lon="7.2143">
        <ele>558.18</ele>
        <time>2017-03-28T13:11:10Z</time>
      </trkpt>
      <trkpt lat="47.44558" lon="7.21428">
        <ele>559.62</ele>
        <time>2017-03-28T13:11:36Z</time>
      </trkpt>
      <trkpt lat="47.44554" lon="7.21426">
        <ele>558.66</ele>
        <time>2017-03-28T13:11:57Z</time>
      </trkpt>
      <trkpt lat="47.4455" lon="7.21425">
        <ele>558.18</ele>
        <time>2017-03-28T13:12:20Z</time>
      </trkpt>
      <trkpt lat="47.44548" lon="7.21431">
        <ele>557.7</ele>
        <time>2017-03-28T13:12:49Z</time>
      </trkpt>
      <trkpt lat="47.44552" lon="7.21436">
        <ele>557.7</ele>
        <time>2017-03-28T13:13:12Z</time>
      </trkpt>
      <trkpt lat="47.44558" lon="7.2144">
        <ele>559.14</ele>
        <time>2017-03-28T13:13:31Z</time>
      </trkpt>
      <trkpt lat="47.44559" lon="7.2144">
        <ele>559.14</ele>
        <time>2017-03-28T13:13:32Z</time>
      </trkpt>
      <trkpt lat="47.4456" lon="7.2144">
        <ele>559.14</ele>
        <time>2017-03-28T13:13:33Z</time>
      </trkpt>
      <trkpt lat="47.44563" lon="7.2144">
        <ele>559.14</ele>
        <time>2017-03-28T13:13:36Z</time>
      </trkpt>
      <trkpt lat="47.44563" lon="7.21448">
        <ele>559.14</ele>
        <time>2017-03-28T13:13:41Z</time>
      </trkpt>
      <trkpt lat="47.44568" lon="7.21465">
        <ele>559.62</ele>
        <time>2017-03-28T13:13:55Z</time>
      </trkpt>
      <trkpt lat="47.44566" lon="7.21463">
        <ele>559.62</ele>
        <time>2017-03-28T13:14:01Z</time>
      </trkpt>
      <trkpt lat="47.44565" lon="7.2144">
        <ele>559.62</ele>
        <time>2017-03-28T13:14:13Z</time>
      </trkpt>
      <trkpt lat="47.4456" lon="7.21435">
        <ele>558.18</ele>
        <time>2017-03-28T13:14:21Z</time>
      </trkpt>
      <trkpt lat="47.44559" lon="7.21432">
        <ele>558.18</ele>
        <time>2017-03-28T13:14:41Z</time>
      </trkpt>
      <trkpt lat="47.4456" lon="7.21433">
        <ele>557.7</ele>
        <time>2017-03-28T13:14:49Z</time>
      </trkpt>
      <trkpt lat="47.44564" lon="7.2141">
        <ele>557.7</ele>
        <time>2017-03-28T13:15:02Z</time>
      </trkpt>
      <trkpt lat="47.44562" lon="7.21407">
        <ele>557.22</ele>
        <time>2017-03-28T13:15:14Z</time>
      </trkpt>
      <trkpt lat="47.44562" lon="7.2141">
        <ele>556.74</ele>
        <time>2017-03-28T13:15:53Z</time>
      </trkpt>
      <trkpt lat="47.44561" lon="7.21409">
        <ele>556.74</ele>
        <time>2017-03-28T13:16:14Z</time>
      </trkpt>
      <trkpt lat="47.44562" lon="7.21409">
        <ele>556.26</ele>
        <time>2017-03-28T13:16:20Z</time>
      </trkpt>
      <trkpt lat="47.44562" lon="7.21409">
        <ele>557.7</ele>
        <time>2017-03-28T13:16:22Z</time>
      </trkpt>
      <trkpt lat="47.44562" lon="7.2141">
        <ele>556.26</ele>
        <time>2017-03-28T13:16:25Z</time>
      </trkpt>
      <trkpt lat="47.44563" lon="7.21409">
        <ele>559.62</ele>
        <time>2017-03-28T13:16:27Z</time>
      </trkpt>
      <trkpt lat="47.44563" lon="7.21409">
        <ele>558.18</ele>
        <time>2017-03-28T13:16:28Z</time>
      </trkpt>
      <trkpt lat="47.44559" lon="7.21409">
        <ele>556.74</ele>
        <time>2017-03-28T13:16:46Z</time>
      </trkpt>
      <trkpt lat="47.44561" lon="7.21406">
        <ele>556.74</ele>
        <time>2017-03-28T13:17:22Z</time>
      </trkpt>
      <trkpt lat="47.4456" lon="7.21406">
        <ele>556.74</ele>
        <time>2017-03-28T13:17:47Z</time>
      </trkpt>
      <trkpt lat="47.44559" lon="7.21408">
        <ele>556.74</ele>
        <time>2017-03-28T13:18:11Z</time>
      </trkpt>
      <trkpt lat="47.4456" lon="7.21407">
        <ele>556.26</ele>
        <time>2017-03-28T13:18:33Z</time>
      </trkpt>
      <trkpt lat="47.44561" lon="7.21407">
        <ele>556.26</ele>
        <time>2017-03-28T13:19:11Z</time>
      </trkpt>
      <trkpt lat="47.4456" lon="7.21407">
        <ele>556.26</ele>
        <time>2017-03-28T13:19:44Z</time>
      </trkpt>
      <trkpt lat="47.4456" lon="7.21405">
        <ele>556.26</ele>
        <time>2017-03-28T13:20:20Z</time>
      </trkpt>
      <trkpt lat="47.4456" lon="7.21407">
        <ele>556.26</ele>
        <time>2017-03-28T13:20:44Z</time>
      </trkpt>
      <trkpt lat="47.4456" lon="7.21408">
        <ele>556.26</ele>
        <time>2017-03-28T13:21:14Z</time>
      </trkpt>
      <trkpt lat="47.44562" lon="7.21406">
        <ele>555.78</ele>
        <time>2017-03-28T13:21:38Z</time>
      </trkpt>
      <trkpt lat="47.44558" lon="7.21408">
        <ele>555.78</ele>
        <time>2017-03-28T13:22:12Z</time>
      </trkpt>
      <trkpt lat="47.44559" lon="7.21408">
        <ele>555.78</ele>
        <time>2017-03-28T13:22:37Z</time>
      </trkpt>
      <trkpt lat="47.4456" lon="7.21408">
        <ele>555.78</ele>
        <time>2017-03-28T13:23:05Z</time>
      </trkpt>
      <trkpt lat="47.4456" lon="7.21406">
        <ele>555.78</ele>
        <time>2017-03-28T13:23:34Z</time>
      </trkpt>
      <trkpt lat="47.44561" lon="7.21406">
        <ele>555.78</ele>
        <time>2017-03-28T13:24:03Z</time>
      </trkpt>
      <trkpt lat="47.44562" lon="7.21405">
        <ele>555.78</ele>
        <time>2017-03-28T13:24:30Z</time>
      </trkpt>
      <trkpt lat="47.4456" lon="7.21407">
        <ele>555.78</ele>
        <time>2017-03-28T13:24:55Z</time>
      </trkpt>
      <trkpt lat="47.44561" lon="7.21406">
        <ele>555.3</ele>
        <time>2017-03-28T13:25:21Z</time>
      </trkpt>
      <trkpt lat="47.44562" lon="7.21406">
        <ele>555.3</ele>
        <time>2017-03-28T13:25:41Z</time>
      </trkpt>
      <trkpt lat="47.44559" lon="7.21407">
        <ele>555.3</ele>
        <time>2017-03-28T13:26:08Z</time>
      </trkpt>
      <trkpt lat="47.44561" lon="7.21408">
        <ele>555.3</ele>
        <time>2017-03-28T13:26:31Z</time>
      </trkpt>
      <trkpt lat="47.44561" lon="7.21405">
        <ele>555.3</ele>
        <time>2017-03-28T13:26:59Z</time>
      </trkpt>
      <trkpt lat="47.44561" lon="7.21405">
        <ele>555.3</ele>
        <time>2017-03-28T13:27:30Z</time>
      </trkpt>
      <trkpt lat="47.44562" lon="7.21405">
        <ele>556.26</ele>
        <time>2017-03-28T13:27:59Z</time>
      </trkpt>
      <trkpt lat="47.44559" lon="7.21407">
        <ele>556.26</ele>
        <time>2017-03-28T13:28:26Z</time>
      </trkpt>
      <trkpt lat="47.4456" lon="7.21405">
        <ele>555.78</ele>
        <time>2017-03-28T13:29:00Z</time>
      </trkpt>
      <trkpt lat="47.44562" lon="7.21407">
        <ele>555.78</ele>
        <time>2017-03-28T13:29:31Z</time>
      </trkpt>
      <trkpt lat="47.44561" lon="7.21405">
        <ele>555.78</ele>
        <time>2017-03-28T13:29:58Z</time>
      </trkpt>
      <trkpt lat="47.4456" lon="7.21406">
        <ele>555.78</ele>
        <time>2017-03-28T13:30:25Z</time>
      </trkpt>
      <trkpt lat="47.44559" lon="7.21405">
        <ele>555.78</ele>
        <time>2017-03-28T13:30:51Z</time>
      </trkpt>
      <trkpt lat="47.44561" lon="7.21405">
        <ele>555.78</ele>
        <time>2017-03-28T13:31:16Z</time>
      </trkpt>
      <trkpt lat="47.44561" lon="7.21405">
        <ele>555.3</ele>
        <time>2017-03-28T13:31:36Z</time>
      </trkpt>
      <trkpt lat="47.44561" lon="7.21406">
        <ele>555.3</ele>
        <time>2017-03-28T13:31:58Z</time>
      </trkpt>
      <trkpt lat="47.44562" lon="7.21405">
        <ele>555.3</ele>
        <time>2017-03-28T13:32:17Z</time>
      </trkpt>
      <trkpt lat="47.44564" lon="7.21404">
        <ele>555.78</ele>
        <time>2017-03-28T13:32:40Z</time>
      </trkpt>
      <trkpt lat="47.44563" lon="7.21403">
        <ele>555.78</ele>
        <time>2017-03-28T13:33:03Z</time>
      </trkpt>
      <trkpt lat="47.44563" lon="7.21405">
        <ele>555.78</ele>
        <time>2017-03-28T13:33:25Z</time>
      </trkpt>
      <trkpt lat="47.44561" lon="7.21404">
        <ele>556.26</ele>
        <time>2017-03-28T13:33:59Z</time>
      </trkpt>
      <trkpt lat="47.44561" lon="7.21406">
        <ele>556.26</ele>
        <time>2017-03-28T13:34:26Z</time>
      </trkpt>
      <trkpt lat="47.44561" lon="7.21404">
        <ele>555.78</ele>
        <time>2017-03-28T13:34:59Z</time>
      </trkpt>
      <trkpt lat="47.44562" lon="7.21404">
        <ele>555.78</ele>
        <time>2017-03-28T13:35:09Z</time>
      </trkpt>
      <trkpt lat="47.4456" lon="7.21404">
        <ele>555.78</ele>
        <time>2017-03-28T13:35:32Z</time>
      </trkpt>
      <trkpt lat="47.44561" lon="7.21407">
        <ele>555.78</ele>
        <time>2017-03-28T13:35:49Z</time>
      </trkpt>
      <trkpt lat="47.44556" lon="7.21409">
        <ele>555.78</ele>
        <time>2017-03-28T13:36:04Z</time>
      </trkpt>
      <trkpt lat="47.44555" lon="7.21412">
        <ele>555.78</ele>
        <time>2017-03-28T13:36:21Z</time>
      </trkpt>
      <trkpt lat="47.44551" lon="7.21416">
        <ele>556.26</ele>
        <time>2017-03-28T13:36:38Z</time>
      </trkpt>
      <trkpt lat="47.44547" lon="7.21428">
        <ele>554.82</ele>
        <time>2017-03-28T13:36:51Z</time>
      </trkpt>
      <trkpt lat="47.44541" lon="7.21443">
        <ele>554.34</ele>
        <time>2017-03-28T13:37:05Z</time>
      </trkpt>
      <trkpt lat="47.44541" lon="7.21449">
        <ele>553.86</ele>
        <time>2017-03-28T13:37:09Z</time>
      </trkpt>
      <trkpt lat="47.44544" lon="7.21463">
        <ele>553.38</ele>
        <time>2017-03-28T13:37:15Z</time>
      </trkpt>
      <trkpt lat="47.44545" lon="7.21476">
        <ele>552.9</ele>
        <time>2017-03-28T13:37:29Z</time>
      </trkpt>
      <trkpt lat="47.44546" lon="7.21477">
        <ele>552.9</ele>
        <time>2017-03-28T13:37:30Z</time>
      </trkpt>
      <trkpt lat="47.44561" lon="7.21474">
        <ele>552.41</ele>
        <time>2017-03-28T13:37:44Z</time>
      </trkpt>
      <trkpt lat="47.44563" lon="7.21474">
        <ele>551.93</ele>
        <time>2017-03-28T13:37:46Z</time>
      </trkpt>
      <trkpt lat="47.44566" lon="7.21469">
        <ele>550.49</ele>
        <time>2017-03-28T13:37:57Z</time>
      </trkpt>
      <trkpt lat="47.44573" lon="7.21452">
        <ele>551.45</ele>
        <time>2017-03-28T13:41:06Z</time>
      </trkpt>
      <trkpt lat="47.44556" lon="7.21474">
        <ele>552.41</ele>
        <time>2017-03-28T13:41:20Z</time>
      </trkpt>
      <trkpt lat="47.44554" lon="7.21473">
        <ele>552.41</ele>
        <time>2017-03-28T13:41:22Z</time>
      </trkpt>
      <trkpt lat="47.44552" lon="7.21473">
        <ele>552.41</ele>
        <time>2017-03-28T13:41:24Z</time>
      </trkpt>
      <trkpt lat="47.44545" lon="7.21476">
        <ele>552.9</ele>
        <time>2017-03-28T13:41:38Z</time>
      </trkpt>
      <trkpt lat="47.44545" lon="7.2148">
        <ele>553.38</ele>
        <time>2017-03-28T13:41:53Z</time>
      </trkpt>
      <trkpt lat="47.4455" lon="7.21476">
        <ele>555.3</ele>
        <time>2017-03-28T13:42:10Z</time>
      </trkpt>
      <trkpt lat="47.44566" lon="7.21487">
        <ele>558.18</ele>
        <time>2017-03-28T13:42:27Z</time>
      </trkpt>
      <trkpt lat="47.44575" lon="7.21506">
        <ele>559.62</ele>
        <time>2017-03-28T13:42:47Z</time>
      </trkpt>
      <trkpt lat="47.4457" lon="7.2151">
        <ele>562.51</ele>
        <time>2017-03-28T13:43:01Z</time>
      </trkpt>
      <trkpt lat="47.44573" lon="7.21534">
        <ele>563.47</ele>
        <time>2017-03-28T13:43:22Z</time>
      </trkpt>
      <trkpt lat="47.44571" lon="7.21564">
        <ele>562.51</ele>
        <time>2017-03-28T13:43:42Z</time>
      </trkpt>
      <trkpt lat="47.44577" lon="7.21572">
        <ele>563.47</ele>
        <time>2017-03-28T13:44:02Z</time>
      </trkpt>
      <trkpt lat="47.44579" lon="7.21591">
        <ele>564.91</ele>
        <time>2017-03-28T13:44:23Z</time>
      </trkpt>
      <trkpt lat="47.44588" lon="7.21623">
        <ele>565.87</ele>
        <time>2017-03-28T13:44:46Z</time>
      </trkpt>
      <trkpt lat="47.44594" lon="7.21646">
        <ele>566.83</ele>
        <time>2017-03-28T13:45:06Z</time>
      </trkpt>
      <trkpt lat="47.44603" lon="7.21676">
        <ele>567.8</ele>
        <time>2017-03-28T13:45:30Z</time>
      </trkpt>
      <trkpt lat="47.44615" lon="7.21712">
        <ele>568.76</ele>
        <time>2017-03-28T13:45:52Z</time>
      </trkpt>
      <trkpt lat="47.44623" lon="7.21737">
        <ele>570.2</ele>
        <time>2017-03-28T13:46:10Z</time>
      </trkpt>
      <trkpt lat="47.44628" lon="7.21748">
        <ele>570.2</ele>
        <time>2017-03-28T13:46:30Z</time>
      </trkpt>
      <trkpt lat="47.44631" lon="7.21753">
        <ele>570.2</ele>
        <time>2017-03-28T13:46:54Z</time>
      </trkpt>
      <trkpt lat="47.44634" lon="7.21757">
        <ele>570.68</ele>
        <time>2017-03-28T13:47:16Z</time>
      </trkpt>
      <trkpt lat="47.44632" lon="7.2176">
        <ele>571.16</ele>
        <time>2017-03-28T13:47:55Z</time>
      </trkpt>
      <trkpt lat="47.44633" lon="7.21761">
        <ele>571.16</ele>
        <time>2017-03-28T13:48:07Z</time>
      </trkpt>
      <trkpt lat="47.44634" lon="7.21765">
        <ele>569.72</ele>
        <time>2017-03-28T13:48:13Z</time>
      </trkpt>
      <trkpt lat="47.4464" lon="7.2177">
        <ele>569.72</ele>
        <time>2017-03-28T13:48:38Z</time>
      </trkpt>
      <trkpt lat="47.4464" lon="7.21776">
        <ele>569.24</ele>
        <time>2017-03-28T13:48:55Z</time>
      </trkpt>
      <trkpt lat="47.44646" lon="7.2179">
        <ele>568.28</ele>
        <time>2017-03-28T13:49:10Z</time>
      </trkpt>
      <trkpt lat="47.44651" lon="7.2181">
        <ele>568.28</ele>
        <time>2017-03-28T13:49:26Z</time>
      </trkpt>
      <trkpt lat="47.44657" lon="7.21828">
        <ele>566.83</ele>
        <time>2017-03-28T13:49:41Z</time>
      </trkpt>
      <trkpt lat="47.44661" lon="7.2184">
        <ele>564.91</ele>
        <time>2017-03-28T13:49:57Z</time>
      </trkpt>
      <trkpt lat="47.44667" lon="7.21855">
        <ele>562.99</ele>
        <time>2017-03-28T13:50:12Z</time>
      </trkpt>
      <trkpt lat="47.44674" lon="7.21868">
        <ele>560.11</ele>
        <time>2017-03-28T13:50:26Z</time>
      </trkpt>
      <trkpt lat="47.44677" lon="7.21877">
        <ele>559.62</ele>
        <time>2017-03-28T13:50:39Z</time>
      </trkpt>
      <trkpt lat="47.44681" lon="7.21883">
        <ele>559.14</ele>
        <time>2017-03-28T13:50:56Z</time>
      </trkpt>
      <trkpt lat="47.44684" lon="7.21883">
        <ele>558.66</ele>
        <time>2017-03-28T13:51:29Z</time>
      </trkpt>
      <trkpt lat="47.44684" lon="7.21894">
        <ele>558.66</ele>
        <time>2017-03-28T13:52:03Z</time>
      </trkpt>
      <trkpt lat="47.44683" lon="7.21889">
        <ele>558.18</ele>
        <time>2017-03-28T13:52:31Z</time>
      </trkpt>
      <trkpt lat="47.44682" lon="7.21893">
        <ele>559.62</ele>
        <time>2017-03-28T13:52:46Z</time>
      </trkpt>
      <trkpt lat="47.44684" lon="7.219">
        <ele>561.07</ele>
        <time>2017-03-28T13:53:00Z</time>
      </trkpt>
      <trkpt lat="47.44687" lon="7.21908">
        <ele>562.03</ele>
        <time>2017-03-28T13:53:14Z</time>
      </trkpt>
      <trkpt lat="47.44691" lon="7.21918">
        <ele>561.55</ele>
        <time>2017-03-28T13:53:31Z</time>
      </trkpt>
      <trkpt lat="47.4469" lon="7.21924">
        <ele>562.03</ele>
        <time>2017-03-28T13:53:52Z</time>
      </trkpt>
      <trkpt lat="47.44683" lon="7.2193">
        <ele>560.59</ele>
        <time>2017-03-28T13:54:06Z</time>
      </trkpt>
      <trkpt lat="47.44679" lon="7.21946">
        <ele>558.18</ele>
        <time>2017-03-28T13:54:20Z</time>
      </trkpt>
      <trkpt lat="47.44676" lon="7.2196">
        <ele>556.26</ele>
        <time>2017-03-28T13:54:31Z</time>
      </trkpt>
      <trkpt lat="47.4467" lon="7.21977">
        <ele>554.82</ele>
        <time>2017-03-28T13:54:46Z</time>
      </trkpt>
      <trkpt lat="47.44664" lon="7.21988">
        <ele>554.34</ele>
        <time>2017-03-28T13:54:59Z</time>
      </trkpt>
      <trkpt lat="47.44663" lon="7.21999">
        <ele>553.86</ele>
        <time>2017-03-28T13:55:16Z</time>
      </trkpt>
      <trkpt lat="47.44662" lon="7.22009">
        <ele>553.38</ele>
        <time>2017-03-28T13:55:31Z</time>
      </trkpt>
      <trkpt lat="47.4466" lon="7.22016">
        <ele>552.9</ele>
        <time>2017-03-28T13:55:38Z</time>
      </trkpt>
      <trkpt lat="47.44651" lon="7.22037">
        <ele>551.45</ele>
        <time>2017-03-28T13:55:56Z</time>
      </trkpt>
      <trkpt lat="47.44646" lon="7.22057">
        <ele>550.01</ele>
        <time>2017-03-28T13:56:11Z</time>
      </trkpt>
      <trkpt lat="47.44644" lon="7.22079">
        <ele>549.05</ele>
        <time>2017-03-28T13:56:25Z</time>
      </trkpt>
      <trkpt lat="47.44645" lon="7.22089">
        <ele>548.09</ele>
        <time>2017-03-28T13:56:32Z</time>
      </trkpt>
      <trkpt lat="47.44645" lon="7.22091">
        <ele>548.09</ele>
        <time>2017-03-28T13:56:34Z</time>
      </trkpt>
      <trkpt lat="47.44646" lon="7.22107">
        <ele>546.65</ele>
        <time>2017-03-28T13:56:45Z</time>
      </trkpt>
      <trkpt lat="47.44652" lon="7.22132">
        <ele>544.72</ele>
        <time>2017-03-28T13:57:03Z</time>
      </trkpt>
      <trkpt lat="47.44661" lon="7.22155">
        <ele>543.28</ele>
        <time>2017-03-28T13:57:20Z</time>
      </trkpt>
      <trkpt lat="47.4467" lon="7.22176">
        <ele>541.84</ele>
        <time>2017-03-28T13:57:37Z</time>
      </trkpt>
      <trkpt lat="47.4468" lon="7.22196">
        <ele>539.92</ele>
        <time>2017-03-28T13:57:54Z</time>
      </trkpt>
      <trkpt lat="47.44683" lon="7.22201">
        <ele>538.96</ele>
        <time>2017-03-28T13:57:58Z</time>
      </trkpt>
      <trkpt lat="47.44688" lon="7.22213">
        <ele>538.96</ele>
        <time>2017-03-28T13:58:07Z</time>
      </trkpt>
      <trkpt lat="47.44694" lon="7.22226">
        <ele>538.48</ele>
        <time>2017-03-28T13:58:20Z</time>
      </trkpt>
      <trkpt lat="47.44695" lon="7.22223">
        <ele>537.51</ele>
        <time>2017-03-28T13:58:36Z</time>
      </trkpt>
      <trkpt lat="47.44705" lon="7.22234">
        <ele>537.51</ele>
        <time>2017-03-28T13:58:52Z</time>
      </trkpt>
      <trkpt lat="47.44714" lon="7.22247">
        <ele>537.03</ele>
        <time>2017-03-28T13:59:09Z</time>
      </trkpt>
      <trkpt lat="47.44726" lon="7.22259">
        <ele>536.55</ele>
        <time>2017-03-28T13:59:27Z</time>
      </trkpt>
      <trkpt lat="47.44736" lon="7.22272">
        <ele>536.07</ele>
        <time>2017-03-28T13:59:44Z</time>
      </trkpt>
      <trkpt lat="47.44741" lon="7.22279">
        <ele>535.59</ele>
        <time>2017-03-28T13:59:52Z</time>
      </trkpt>
      <trkpt lat="47.44752" lon="7.22293">
        <ele>534.15</ele>
        <time>2017-03-28T14:00:09Z</time>
      </trkpt>
      <trkpt lat="47.44767" lon="7.22306">
        <ele>533.19</ele>
        <time>2017-03-28T14:00:26Z</time>
      </trkpt>
      <trkpt lat="47.44771" lon="7.22308">
        <ele>532.71</ele>
        <time>2017-03-28T14:00:30Z</time>
      </trkpt>
      <trkpt lat="47.44784" lon="7.22319">
        <ele>531.27</ele>
        <time>2017-03-28T14:00:46Z</time>
      </trkpt>
      <trkpt lat="47.44792" lon="7.22325">
        <ele>530.3</ele>
        <time>2017-03-28T14:00:55Z</time>
      </trkpt>
      <trkpt lat="47.44795" lon="7.22327">
        <ele>530.3</ele>
        <time>2017-03-28T14:00:58Z</time>
      </trkpt>
      <trkpt lat="47.44813" lon="7.22334">
        <ele>528.86</ele>
        <time>2017-03-28T14:01:15Z</time>
      </trkpt>
      <trkpt lat="47.44833" lon="7.22336">
        <ele>527.42</ele>
        <time>2017-03-28T14:01:33Z</time>
      </trkpt>
      <trkpt lat="47.44845" lon="7.22336">
        <ele>526.94</ele>
        <time>2017-03-28T14:01:48Z</time>
      </trkpt>
      <trkpt lat="47.44844" lon="7.22337">
        <ele>526.46</ele>
        <time>2017-03-28T14:02:08Z</time>
      </trkpt>
      <trkpt lat="47.44845" lon="7.22338">
        <ele>525.98</ele>
        <time>2017-03-28T14:02:27Z</time>
      </trkpt>
      <trkpt lat="47.44846" lon="7.22337">
        <ele>525.98</ele>
        <time>2017-03-28T14:02:30Z</time>
      </trkpt>
      <trkpt lat="47.44848" lon="7.22336">
        <ele>525.98</ele>
        <time>2017-03-28T14:02:33Z</time>
      </trkpt>
      <trkpt lat="47.44867" lon="7.22321">
        <ele>525.5</ele>
        <time>2017-03-28T14:02:50Z</time>
      </trkpt>
      <trkpt lat="47.44889" lon="7.22305">
        <ele>524.06</ele>
        <time>2017-03-28T14:03:10Z</time>
      </trkpt>
      <trkpt lat="47.44905" lon="7.22293">
        <ele>522.13</ele>
        <time>2017-03-28T14:03:25Z</time>
      </trkpt>
      <trkpt lat="47.44927" lon="7.22281">
        <ele>521.17</ele>
        <time>2017-03-28T14:03:44Z</time>
      </trkpt>
      <trkpt lat="47.4495" lon="7.22269">
        <ele>518.77</ele>
        <time>2017-03-28T14:04:04Z</time>
      </trkpt>
      <trkpt lat="47.4497" lon="7.22262">
        <ele>518.29</ele>
        <time>2017-03-28T14:04:21Z</time>
      </trkpt>
      <trkpt lat="47.44993" lon="7.22251">
        <ele>517.33</ele>
        <time>2017-03-28T14:04:40Z</time>
      </trkpt>
      <trkpt lat="47.45008" lon="7.22245">
        <ele>516.37</ele>
        <time>2017-03-28T14:04:52Z</time>
      </trkpt>
      <trkpt lat="47.45031" lon="7.22231">
        <ele>514.92</ele>
        <time>2017-03-28T14:05:14Z</time>
      </trkpt>
      <trkpt lat="47.45052" lon="7.22217">
        <ele>513.96</ele>
        <time>2017-03-28T14:05:33Z</time>
      </trkpt>
      <trkpt lat="47.45071" lon="7.22203">
        <ele>512.52</ele>
        <time>2017-03-28T14:05:51Z</time>
      </trkpt>
      <trkpt lat="47.45096" lon="7.22187">
        <ele>512.04</ele>
        <time>2017-03-28T14:06:12Z</time>
      </trkpt>
      <trkpt lat="47.45117" lon="7.2217">
        <ele>511.56</ele>
        <time>2017-03-28T14:06:29Z</time>
      </trkpt>
      <trkpt lat="47.45137" lon="7.2215">
        <ele>509.16</ele>
        <time>2017-03-28T14:06:49Z</time>
      </trkpt>
      <trkpt lat="47.45154" lon="7.22132">
        <ele>509.16</ele>
        <time>2017-03-28T14:07:06Z</time>
      </trkpt>
      <trkpt lat="47.45174" lon="7.22115">
        <ele>507.23</ele>
        <time>2017-03-28T14:07:26Z</time>
      </trkpt>
      <trkpt lat="47.45198" lon="7.22103">
        <ele>506.27</ele>
        <time>2017-03-28T14:07:45Z</time>
      </trkpt>
      <trkpt lat="47.4522" lon="7.22111">
        <ele>504.35</ele>
        <time>2017-03-28T14:08:04Z</time>
      </trkpt>
      <trkpt lat="47.45241" lon="7.22132">
        <ele>502.91</ele>
        <time>2017-03-28T14:08:25Z</time>
      </trkpt>
      <trkpt lat="47.45259" lon="7.22151">
        <ele>502.43</ele>
        <time>2017-03-28T14:08:43Z</time>
      </trkpt>
      <trkpt lat="47.45277" lon="7.22173">
        <ele>501.95</ele>
        <time>2017-03-28T14:09:01Z</time>
      </trkpt>
      <trkpt lat="47.45295" lon="7.22201">
        <ele>501.95</ele>
        <time>2017-03-28T14:09:21Z</time>
      </trkpt>
      <trkpt lat="47.4531" lon="7.22233">
        <ele>501.95</ele>
        <time>2017-03-28T14:09:41Z</time>
      </trkpt>
      <trkpt lat="47.45326" lon="7.22264">
        <ele>503.39</ele>
        <time>2017-03-28T14:10:01Z</time>
      </trkpt>
      <trkpt lat="47.45344" lon="7.22291">
        <ele>504.83</ele>
        <time>2017-03-28T14:10:20Z</time>
      </trkpt>
      <trkpt lat="47.45359" lon="7.22315">
        <ele>506.27</ele>
        <time>2017-03-28T14:10:38Z</time>
      </trkpt>
      <trkpt lat="47.45376" lon="7.22344">
        <ele>508.19</ele>
        <time>2017-03-28T14:10:59Z</time>
      </trkpt>
      <trkpt lat="47.45387" lon="7.22371">
        <ele>509.16</ele>
        <time>2017-03-28T14:11:17Z</time>
      </trkpt>
      <trkpt lat="47.45396" lon="7.22404">
        <ele>510.6</ele>
        <time>2017-03-28T14:11:36Z</time>
      </trkpt>
      <trkpt lat="47.45406" lon="7.22433">
        <ele>511.08</ele>
        <time>2017-03-28T14:11:54Z</time>
      </trkpt>
      <trkpt lat="47.4542" lon="7.2247">
        <ele>512.04</ele>
        <time>2017-03-28T14:12:15Z</time>
      </trkpt>
      <trkpt lat="47.4544" lon="7.22485">
        <ele>510.6</ele>
        <time>2017-03-28T14:12:33Z</time>
      </trkpt>
      <trkpt lat="47.45465" lon="7.22483">
        <ele>509.64</ele>
        <time>2017-03-28T14:12:50Z</time>
      </trkpt>
      <trkpt lat="47.45488" lon="7.22472">
        <ele>508.67</ele>
        <time>2017-03-28T14:13:08Z</time>
      </trkpt>
      <trkpt lat="47.45509" lon="7.22466">
        <ele>508.19</ele>
        <time>2017-03-28T14:13:26Z</time>
      </trkpt>
      <trkpt lat="47.4553" lon="7.22471">
        <ele>508.19</ele>
        <time>2017-03-28T14:13:43Z</time>
      </trkpt>
      <trkpt lat="47.45553" lon="7.22477">
        <ele>509.64</ele>
        <time>2017-03-28T14:14:03Z</time>
      </trkpt>
      <trkpt lat="47.45572" lon="7.22489">
        <ele>511.56</ele>
        <time>2017-03-28T14:14:21Z</time>
      </trkpt>
      <trkpt lat="47.45584" lon="7.22508">
        <ele>512.52</ele>
        <time>2017-03-28T14:14:37Z</time>
      </trkpt>
      <trkpt lat="47.45597" lon="7.22543">
        <ele>513</ele>
        <time>2017-03-28T14:14:57Z</time>
      </trkpt>
      <trkpt lat="47.45611" lon="7.22571">
        <ele>513.48</ele>
        <time>2017-03-28T14:15:16Z</time>
      </trkpt>
      <trkpt lat="47.45626" lon="7.22599">
        <ele>513.48</ele>
        <time>2017-03-28T14:15:35Z</time>
      </trkpt>
      <trkpt lat="47.45641" lon="7.22631">
        <ele>513.48</ele>
        <time>2017-03-28T14:15:54Z</time>
      </trkpt>
      <trkpt lat="47.45646" lon="7.22646">
        <ele>513.96</ele>
        <time>2017-03-28T14:16:07Z</time>
      </trkpt>
      <trkpt lat="47.45648" lon="7.22648">
        <ele>513.96</ele>
        <time>2017-03-28T14:16:09Z</time>
      </trkpt>
      <trkpt lat="47.45662" lon="7.22678">
        <ele>513.96</ele>
        <time>2017-03-28T14:16:29Z</time>
      </trkpt>
      <trkpt lat="47.45674" lon="7.22703">
        <ele>513.96</ele>
        <time>2017-03-28T14:16:46Z</time>
      </trkpt>
      <trkpt lat="47.45685" lon="7.22728">
        <ele>513.96</ele>
        <time>2017-03-28T14:17:02Z</time>
      </trkpt>
      <trkpt lat="47.45696" lon="7.22756">
        <ele>513.96</ele>
        <time>2017-03-28T14:17:19Z</time>
      </trkpt>
      <trkpt lat="47.4571" lon="7.2279">
        <ele>514.44</ele>
        <time>2017-03-28T14:17:40Z</time>
      </trkpt>
      <trkpt lat="47.45726" lon="7.22823">
        <ele>514.92</ele>
        <time>2017-03-28T14:18:02Z</time>
      </trkpt>
      <trkpt lat="47.4574" lon="7.22856">
        <ele>515.4</ele>
        <time>2017-03-28T14:18:22Z</time>
      </trkpt>
      <trkpt lat="47.45754" lon="7.22882">
        <ele>515.88</ele>
        <time>2017-03-28T14:18:39Z</time>
      </trkpt>
      <trkpt lat="47.45769" lon="7.22912">
        <ele>516.85</ele>
        <time>2017-03-28T14:19:00Z</time>
      </trkpt>
      <trkpt lat="47.45784" lon="7.22941">
        <ele>516.85</ele>
        <time>2017-03-28T14:19:19Z</time>
      </trkpt>
      <trkpt lat="47.45798" lon="7.22968">
        <ele>517.33</ele>
        <time>2017-03-28T14:19:37Z</time>
      </trkpt>
      <trkpt lat="47.45804" lon="7.22994">
        <ele>517.33</ele>
        <time>2017-03-28T14:19:54Z</time>
      </trkpt>
      <trkpt lat="47.45797" lon="7.23024">
        <ele>517.33</ele>
        <time>2017-03-28T14:20:12Z</time>
      </trkpt>
      <trkpt lat="47.45791" lon="7.23034">
        <ele>517.81</ele>
        <time>2017-03-28T14:20:19Z</time>
      </trkpt>
      <trkpt lat="47.45778" lon="7.23061">
        <ele>517.81</ele>
        <time>2017-03-28T14:20:37Z</time>
      </trkpt>
      <trkpt lat="47.4577" lon="7.2309">
        <ele>517.81</ele>
        <time>2017-03-28T14:20:53Z</time>
      </trkpt>
      <trkpt lat="47.45762" lon="7.23124">
        <ele>518.29</ele>
        <time>2017-03-28T14:21:12Z</time>
      </trkpt>
      <trkpt lat="47.45759" lon="7.23149">
        <ele>518.77</ele>
        <time>2017-03-28T14:21:26Z</time>
      </trkpt>
      <trkpt lat="47.45757" lon="7.23163">
        <ele>518.77</ele>
        <time>2017-03-28T14:21:41Z</time>
      </trkpt>
      <trkpt lat="47.45756" lon="7.2318">
        <ele>518.77</ele>
        <time>2017-03-28T14:21:49Z</time>
      </trkpt>
      <trkpt lat="47.45756" lon="7.23193">
        <ele>518.77</ele>
        <time>2017-03-28T14:21:55Z</time>
      </trkpt>
      <trkpt lat="47.45755" lon="7.23237">
        <ele>519.73</ele>
        <time>2017-03-28T14:22:14Z</time>
      </trkpt>
      <trkpt lat="47.45754" lon="7.23276">
        <ele>520.21</ele>
        <time>2017-03-28T14:22:32Z</time>
      </trkpt>
      <trkpt lat="47.45751" lon="7.23311">
        <ele>521.17</ele>
        <time>2017-03-28T14:22:50Z</time>
      </trkpt>
      <trkpt lat="47.4575" lon="7.23345">
        <ele>521.65</ele>
        <time>2017-03-28T14:23:07Z</time>
      </trkpt>
      <trkpt lat="47.45749" lon="7.23375">
        <ele>522.61</ele>
        <time>2017-03-28T14:23:24Z</time>
      </trkpt>
      <trkpt lat="47.45749" lon="7.2338">
        <ele>523.09</ele>
        <time>2017-03-28T14:23:33Z</time>
      </trkpt>
      <trkpt lat="47.4575" lon="7.23377">
        <ele>523.09</ele>
        <time>2017-03-28T14:23:36Z</time>
      </trkpt>
      <trkpt lat="47.45749" lon="7.23382">
        <ele>523.09</ele>
        <time>2017-03-28T14:23:53Z</time>
      </trkpt>
      <trkpt lat="47.45748" lon="7.23388">
        <ele>523.09</ele>
        <time>2017-03-28T14:24:20Z</time>
      </trkpt>
      <trkpt lat="47.45751" lon="7.23385">
        <ele>523.09</ele>
        <time>2017-03-28T14:24:54Z</time>
      </trkpt>
    </trkseg>
  </trk>
</gpx>